<?xml version="1.0" encoding="UTF-8" standalone="no" ?>
<gpx xmlns="http://www.topografix.com/GPX/1/1" xmlns:xsi="http://www.w3.org/2001/XMLSchema-instance" xsi:schemaLocation="http://www.topografix.com/GPX/1/1 http://www.topografix.com/GPX/1/1/gpx.xsd" version="1.1" creator="VisuGPX - https://www.visugpx.com">
  <metadata>
    <name>TRAIL DES RUTHENES 2016 - 19KM - 630 M </name>
    <desc><![CDATA[[b]DIMANCHE 21 FEVRIER 2016 - 10H00
Marcillac-Vallon (12)[/b]]]></desc>
  </metadata>
  <trk>
    <name><![CDATA[Move]]></name>
    <trkseg>
      <trkpt lat="44.47436" lon="2.46486">
        <ele>274</ele>
        <time>2015-07-06T07:01:24.780Z</time>
      </trkpt>
      <trkpt lat="44.47429" lon="2.46493">
        <ele>274</ele>
        <time>2015-07-06T07:01:27.670Z</time>
      </trkpt>
      <trkpt lat="44.47422" lon="2.46503">
        <ele>274</ele>
        <time>2015-07-06T07:01:31.670Z</time>
      </trkpt>
      <trkpt lat="44.47413" lon="2.46513">
        <ele>274</ele>
        <time>2015-07-06T07:01:35.670Z</time>
      </trkpt>
      <trkpt lat="44.47402" lon="2.46521">
        <ele>274</ele>
        <time>2015-07-06T07:01:39.670Z</time>
      </trkpt>
      <trkpt lat="44.47392" lon="2.46529">
        <ele>274</ele>
        <time>2015-07-06T07:01:44.670Z</time>
      </trkpt>
      <trkpt lat="44.47382" lon="2.46535">
        <ele>274</ele>
        <time>2015-07-06T07:01:50.670Z</time>
      </trkpt>
      <trkpt lat="44.47372" lon="2.46541">
        <ele>274</ele>
        <time>2015-07-06T07:01:54.670Z</time>
      </trkpt>
      <trkpt lat="44.4736" lon="2.46549">
        <ele>274</ele>
        <time>2015-07-06T07:01:58.670Z</time>
      </trkpt>
      <trkpt lat="44.4735" lon="2.46551">
        <ele>274</ele>
        <time>2015-07-06T07:02:01.670Z</time>
      </trkpt>
      <trkpt lat="44.47338" lon="2.46553">
        <ele>274</ele>
        <time>2015-07-06T07:02:05.870Z</time>
      </trkpt>
      <trkpt lat="44.47327" lon="2.46558">
        <ele>274</ele>
        <time>2015-07-06T07:02:08.670Z</time>
      </trkpt>
      <trkpt lat="44.47316" lon="2.46562">
        <ele>274</ele>
        <time>2015-07-06T07:02:11.670Z</time>
      </trkpt>
      <trkpt lat="44.47305" lon="2.46564">
        <ele>274</ele>
        <time>2015-07-06T07:02:14.870Z</time>
      </trkpt>
      <trkpt lat="44.47295" lon="2.46559">
        <ele>274</ele>
        <time>2015-07-06T07:02:17.690Z</time>
      </trkpt>
      <trkpt lat="44.47285" lon="2.46547">
        <ele>274</ele>
        <time>2015-07-06T07:02:20.870Z</time>
      </trkpt>
      <trkpt lat="44.47277" lon="2.46535">
        <ele>274</ele>
        <time>2015-07-06T07:02:23.870Z</time>
      </trkpt>
      <trkpt lat="44.47269" lon="2.46525">
        <ele>274</ele>
        <time>2015-07-06T07:02:26.670Z</time>
      </trkpt>
      <trkpt lat="44.47263" lon="2.46514">
        <ele>274</ele>
        <time>2015-07-06T07:02:29.670Z</time>
      </trkpt>
      <trkpt lat="44.47257" lon="2.46503">
        <ele>274</ele>
        <time>2015-07-06T07:02:32.670Z</time>
      </trkpt>
      <trkpt lat="44.4725" lon="2.46492">
        <ele>274</ele>
        <time>2015-07-06T07:02:35.670Z</time>
      </trkpt>
      <trkpt lat="44.47243" lon="2.46482">
        <ele>274</ele>
        <time>2015-07-06T07:02:38.670Z</time>
      </trkpt>
      <trkpt lat="44.47237" lon="2.46466">
        <ele>274</ele>
        <time>2015-07-06T07:02:42.670Z</time>
      </trkpt>
      <trkpt lat="44.47237" lon="2.46451">
        <ele>274</ele>
        <time>2015-07-06T07:02:45.670Z</time>
      </trkpt>
      <trkpt lat="44.47236" lon="2.46435">
        <ele>274</ele>
        <time>2015-07-06T07:02:49.870Z</time>
      </trkpt>
      <trkpt lat="44.47227" lon="2.46427">
        <ele>274</ele>
        <time>2015-07-06T07:02:55.870Z</time>
      </trkpt>
      <trkpt lat="44.47214" lon="2.46425">
        <ele>274</ele>
        <time>2015-07-06T07:02:59.670Z</time>
      </trkpt>
      <trkpt lat="44.47203" lon="2.46425">
        <ele>274</ele>
        <time>2015-07-06T07:03:02.670Z</time>
      </trkpt>
      <trkpt lat="44.47193" lon="2.46423">
        <ele>274</ele>
        <time>2015-07-06T07:03:05.870Z</time>
      </trkpt>
      <trkpt lat="44.47181" lon="2.46416">
        <ele>274</ele>
        <time>2015-07-06T07:03:09.670Z</time>
      </trkpt>
      <trkpt lat="44.47169" lon="2.46415">
        <ele>274</ele>
        <time>2015-07-06T07:03:13.870Z</time>
      </trkpt>
      <trkpt lat="44.47158" lon="2.46416">
        <ele>274</ele>
        <time>2015-07-06T07:03:17.670Z</time>
      </trkpt>
      <trkpt lat="44.47147" lon="2.46417">
        <ele>278</ele>
        <time>2015-07-06T07:03:21.770Z</time>
      </trkpt>
      <trkpt lat="44.47136" lon="2.46418">
        <ele>280</ele>
        <time>2015-07-06T07:03:25.770Z</time>
      </trkpt>
      <trkpt lat="44.47126" lon="2.46422">
        <ele>281</ele>
        <time>2015-07-06T07:03:30.770Z</time>
      </trkpt>
      <trkpt lat="44.47115" lon="2.46427">
        <ele>283</ele>
        <time>2015-07-06T07:03:35.770Z</time>
      </trkpt>
      <trkpt lat="44.47103" lon="2.46433">
        <ele>283.0599936</ele>
        <time>2015-07-06T07:03:39.770Z</time>
      </trkpt>
      <trkpt lat="44.47095" lon="2.46442">
        <ele>284</ele>
        <time>2015-07-06T07:03:42.770Z</time>
      </trkpt>
      <trkpt lat="44.4709" lon="2.46456">
        <ele>286</ele>
        <time>2015-07-06T07:03:47.770Z</time>
      </trkpt>
      <trkpt lat="44.47101" lon="2.46456">
        <ele>287</ele>
        <time>2015-07-06T07:03:53.770Z</time>
      </trkpt>
      <trkpt lat="44.47111" lon="2.46453">
        <ele>288</ele>
        <time>2015-07-06T07:03:56.770Z</time>
      </trkpt>
      <trkpt lat="44.47123" lon="2.46458">
        <ele>288</ele>
        <time>2015-07-06T07:04:00.770Z</time>
      </trkpt>
      <trkpt lat="44.47125" lon="2.46473">
        <ele>288</ele>
        <time>2015-07-06T07:04:04.770Z</time>
      </trkpt>
      <trkpt lat="44.47127" lon="2.46491">
        <ele>288</ele>
        <time>2015-07-06T07:04:08.770Z</time>
      </trkpt>
      <trkpt lat="44.47129" lon="2.46509">
        <ele>288</ele>
        <time>2015-07-06T07:04:12.770Z</time>
      </trkpt>
      <trkpt lat="44.47132" lon="2.46526">
        <ele>288</ele>
        <time>2015-07-06T07:04:16.770Z</time>
      </trkpt>
      <trkpt lat="44.47136" lon="2.46543">
        <ele>289</ele>
        <time>2015-07-06T07:04:20.720Z</time>
      </trkpt>
      <trkpt lat="44.47139" lon="2.46557">
        <ele>289</ele>
        <time>2015-07-06T07:04:24.870Z</time>
      </trkpt>
      <trkpt lat="44.47141" lon="2.46574">
        <ele>289</ele>
        <time>2015-07-06T07:04:28.870Z</time>
      </trkpt>
      <trkpt lat="44.47145" lon="2.46591">
        <ele>289</ele>
        <time>2015-07-06T07:04:32.870Z</time>
      </trkpt>
      <trkpt lat="44.47142" lon="2.46607">
        <ele>289</ele>
        <time>2015-07-06T07:04:38.770Z</time>
      </trkpt>
      <trkpt lat="44.47137" lon="2.46623">
        <ele>288</ele>
        <time>2015-07-06T07:04:43.770Z</time>
      </trkpt>
      <trkpt lat="44.47128" lon="2.46632">
        <ele>288</ele>
        <time>2015-07-06T07:04:49.670Z</time>
      </trkpt>
      <trkpt lat="44.47118" lon="2.4663">
        <ele>291</ele>
        <time>2015-07-06T07:04:53.770Z</time>
      </trkpt>
      <trkpt lat="44.47108" lon="2.46624">
        <ele>293</ele>
        <time>2015-07-06T07:04:57.680Z</time>
      </trkpt>
      <trkpt lat="44.47097" lon="2.46616">
        <ele>294</ele>
        <time>2015-07-06T07:05:01.670Z</time>
      </trkpt>
      <trkpt lat="44.47088" lon="2.4661">
        <ele>295.92</ele>
        <time>2015-07-06T07:05:05.670Z</time>
      </trkpt>
      <trkpt lat="44.47077" lon="2.46608">
        <ele>297</ele>
        <time>2015-07-06T07:05:10.870Z</time>
      </trkpt>
      <trkpt lat="44.47064" lon="2.46612">
        <ele>298</ele>
        <time>2015-07-06T07:05:15.720Z</time>
      </trkpt>
      <trkpt lat="44.47054" lon="2.46618">
        <ele>298.0599936</ele>
        <time>2015-07-06T07:05:19.770Z</time>
      </trkpt>
      <trkpt lat="44.47045" lon="2.46626">
        <ele>299</ele>
        <time>2015-07-06T07:05:23.770Z</time>
      </trkpt>
      <trkpt lat="44.47056" lon="2.4663">
        <ele>301</ele>
        <time>2015-07-06T07:05:30.720Z</time>
      </trkpt>
      <trkpt lat="44.47067" lon="2.46631">
        <ele>301.17819937647</ele>
        <time>2015-07-06T07:05:34.770Z</time>
      </trkpt>
      <trkpt lat="44.47079" lon="2.46634">
        <ele>304.17821204978</ele>
        <time>2015-07-06T07:05:39.890Z</time>
      </trkpt>
      <trkpt lat="44.47084" lon="2.46648">
        <ele>305</ele>
        <time>2015-07-06T07:05:43.770Z</time>
      </trkpt>
      <trkpt lat="44.47079" lon="2.4666">
        <ele>307</ele>
        <time>2015-07-06T07:05:46.770Z</time>
      </trkpt>
      <trkpt lat="44.47072" lon="2.46671">
        <ele>311</ele>
        <time>2015-07-06T07:05:51.800Z</time>
      </trkpt>
      <trkpt lat="44.47064" lon="2.46686">
        <ele>313.93999436807</ele>
        <time>2015-07-06T07:05:56.670Z</time>
      </trkpt>
      <trkpt lat="44.47061" lon="2.467">
        <ele>314</ele>
        <time>2015-07-06T07:06:01.770Z</time>
      </trkpt>
      <trkpt lat="44.47055" lon="2.46715">
        <ele>316</ele>
        <time>2015-07-06T07:06:07.720Z</time>
      </trkpt>
      <trkpt lat="44.47051" lon="2.46728">
        <ele>318</ele>
        <time>2015-07-06T07:06:12.770Z</time>
      </trkpt>
      <trkpt lat="44.47048" lon="2.46742">
        <ele>321</ele>
        <time>2015-07-06T07:06:18.800Z</time>
      </trkpt>
      <trkpt lat="44.47043" lon="2.46755">
        <ele>323.13998259178</ele>
        <time>2015-07-06T07:06:24.770Z</time>
      </trkpt>
      <trkpt lat="44.47038" lon="2.46775">
        <ele>330</ele>
        <time>2015-07-06T07:06:33.770Z</time>
      </trkpt>
      <trkpt lat="44.47033" lon="2.4679">
        <ele>331</ele>
        <time>2015-07-06T07:06:38.770Z</time>
      </trkpt>
      <trkpt lat="44.4703" lon="2.46803">
        <ele>332</ele>
        <time>2015-07-06T07:06:43.870Z</time>
      </trkpt>
      <trkpt lat="44.47025" lon="2.46817">
        <ele>334</ele>
        <time>2015-07-06T07:06:48.720Z</time>
      </trkpt>
      <trkpt lat="44.47021" lon="2.46833">
        <ele>337</ele>
        <time>2015-07-06T07:06:55.770Z</time>
      </trkpt>
      <trkpt lat="44.47017" lon="2.46846">
        <ele>339</ele>
        <time>2015-07-06T07:07:00.770Z</time>
      </trkpt>
      <trkpt lat="44.47012" lon="2.46862">
        <ele>341</ele>
        <time>2015-07-06T07:07:06.720Z</time>
      </trkpt>
      <trkpt lat="44.47008" lon="2.46878">
        <ele>343</ele>
        <time>2015-07-06T07:07:12.670Z</time>
      </trkpt>
      <trkpt lat="44.47004" lon="2.46889">
        <ele>345</ele>
        <time>2015-07-06T07:07:17.770Z</time>
      </trkpt>
      <trkpt lat="44.47001" lon="2.46904">
        <ele>347</ele>
        <time>2015-07-06T07:07:23.770Z</time>
      </trkpt>
      <trkpt lat="44.47002" lon="2.46921">
        <ele>348</ele>
        <time>2015-07-06T07:07:28.870Z</time>
      </trkpt>
      <trkpt lat="44.46996" lon="2.46935">
        <ele>350.64</ele>
        <time>2015-07-06T07:07:34.870Z</time>
      </trkpt>
      <trkpt lat="44.46997" lon="2.46949">
        <ele>354.16</ele>
        <time>2015-07-06T07:07:39.870Z</time>
      </trkpt>
      <trkpt lat="44.46991" lon="2.46963">
        <ele>358.0599936</ele>
        <time>2015-07-06T07:07:46.770Z</time>
      </trkpt>
      <trkpt lat="44.46982" lon="2.46974">
        <ele>361</ele>
        <time>2015-07-06T07:07:52.770Z</time>
      </trkpt>
      <trkpt lat="44.46972" lon="2.46982">
        <ele>364</ele>
        <time>2015-07-06T07:07:59.770Z</time>
      </trkpt>
      <trkpt lat="44.46962" lon="2.46983">
        <ele>366</ele>
        <time>2015-07-06T07:08:06.670Z</time>
      </trkpt>
      <trkpt lat="44.46951" lon="2.46981">
        <ele>368</ele>
        <time>2015-07-06T07:08:13.670Z</time>
      </trkpt>
      <trkpt lat="44.46942" lon="2.46986">
        <ele>371</ele>
        <time>2015-07-06T07:08:18.770Z</time>
      </trkpt>
      <trkpt lat="44.46932" lon="2.46988">
        <ele>373</ele>
        <time>2015-07-06T07:08:23.670Z</time>
      </trkpt>
      <trkpt lat="44.46923" lon="2.46996">
        <ele>374</ele>
        <time>2015-07-06T07:08:28.670Z</time>
      </trkpt>
      <trkpt lat="44.46915" lon="2.47001">
        <ele>376</ele>
        <time>2015-07-06T07:08:32.770Z</time>
      </trkpt>
      <trkpt lat="44.46907" lon="2.47009">
        <ele>377</ele>
        <time>2015-07-06T07:08:37.770Z</time>
      </trkpt>
      <trkpt lat="44.46897" lon="2.47016">
        <ele>379</ele>
        <time>2015-07-06T07:08:41.770Z</time>
      </trkpt>
      <trkpt lat="44.46888" lon="2.4702">
        <ele>379</ele>
        <time>2015-07-06T07:08:45.670Z</time>
      </trkpt>
      <trkpt lat="44.4688" lon="2.47027">
        <ele>379.1199872</ele>
        <time>2015-07-06T07:08:49.770Z</time>
      </trkpt>
      <trkpt lat="44.4687" lon="2.47039">
        <ele>381</ele>
        <time>2015-07-06T07:08:54.670Z</time>
      </trkpt>
      <trkpt lat="44.46862" lon="2.47046">
        <ele>383</ele>
        <time>2015-07-06T07:08:58.670Z</time>
      </trkpt>
      <trkpt lat="44.46854" lon="2.47055">
        <ele>385</ele>
        <time>2015-07-06T07:09:03.870Z</time>
      </trkpt>
      <trkpt lat="44.46864" lon="2.47059">
        <ele>387</ele>
        <time>2015-07-06T07:09:09.870Z</time>
      </trkpt>
      <trkpt lat="44.46874" lon="2.47056">
        <ele>389</ele>
        <time>2015-07-06T07:09:13.870Z</time>
      </trkpt>
      <trkpt lat="44.46884" lon="2.4705">
        <ele>389</ele>
        <time>2015-07-06T07:09:17.770Z</time>
      </trkpt>
      <trkpt lat="44.46895" lon="2.47047">
        <ele>391</ele>
        <time>2015-07-06T07:09:21.770Z</time>
      </trkpt>
      <trkpt lat="44.46906" lon="2.47048">
        <ele>391</ele>
        <time>2015-07-06T07:09:24.870Z</time>
      </trkpt>
      <trkpt lat="44.46916" lon="2.47051">
        <ele>390</ele>
        <time>2015-07-06T07:09:27.870Z</time>
      </trkpt>
      <trkpt lat="44.46925" lon="2.47059">
        <ele>390</ele>
        <time>2015-07-06T07:09:31.770Z</time>
      </trkpt>
      <trkpt lat="44.4693" lon="2.4707">
        <ele>390</ele>
        <time>2015-07-06T07:09:35.870Z</time>
      </trkpt>
      <trkpt lat="44.46935" lon="2.47086">
        <ele>393</ele>
        <time>2015-07-06T07:09:41.720Z</time>
      </trkpt>
      <trkpt lat="44.46927" lon="2.47093">
        <ele>397</ele>
        <time>2015-07-06T07:09:51.770Z</time>
      </trkpt>
      <trkpt lat="44.46919" lon="2.47087">
        <ele>397</ele>
        <time>2015-07-06T07:09:54.770Z</time>
      </trkpt>
      <trkpt lat="44.46908" lon="2.47079">
        <ele>398</ele>
        <time>2015-07-06T07:09:59.770Z</time>
      </trkpt>
      <trkpt lat="44.46898" lon="2.47078">
        <ele>398</ele>
        <time>2015-07-06T07:10:03.770Z</time>
      </trkpt>
      <trkpt lat="44.46886" lon="2.47082">
        <ele>398</ele>
        <time>2015-07-06T07:10:08.770Z</time>
      </trkpt>
      <trkpt lat="44.46877" lon="2.47089">
        <ele>401</ele>
        <time>2015-07-06T07:10:12.770Z</time>
      </trkpt>
      <trkpt lat="44.46866" lon="2.47095">
        <ele>401</ele>
        <time>2015-07-06T07:10:16.670Z</time>
      </trkpt>
      <trkpt lat="44.46858" lon="2.47102">
        <ele>401.0199936</ele>
        <time>2015-07-06T07:10:20.720Z</time>
      </trkpt>
      <trkpt lat="44.46849" lon="2.47111">
        <ele>403.1199872</ele>
        <time>2015-07-06T07:10:25.770Z</time>
      </trkpt>
      <trkpt lat="44.46841" lon="2.47124">
        <ele>405</ele>
        <time>2015-07-06T07:10:30.670Z</time>
      </trkpt>
      <trkpt lat="44.46833" lon="2.47133">
        <ele>406</ele>
        <time>2015-07-06T07:10:34.670Z</time>
      </trkpt>
      <trkpt lat="44.46824" lon="2.47142">
        <ele>406</ele>
        <time>2015-07-06T07:10:38.670Z</time>
      </trkpt>
      <trkpt lat="44.46816" lon="2.47152">
        <ele>408</ele>
        <time>2015-07-06T07:10:42.880Z</time>
      </trkpt>
      <trkpt lat="44.46806" lon="2.47161">
        <ele>408</ele>
        <time>2015-07-06T07:10:46.870Z</time>
      </trkpt>
      <trkpt lat="44.46798" lon="2.47168">
        <ele>408</ele>
        <time>2015-07-06T07:10:50.670Z</time>
      </trkpt>
      <trkpt lat="44.46788" lon="2.47175">
        <ele>410</ele>
        <time>2015-07-06T07:10:54.870Z</time>
      </trkpt>
      <trkpt lat="44.46778" lon="2.47182">
        <ele>411</ele>
        <time>2015-07-06T07:10:58.870Z</time>
      </trkpt>
      <trkpt lat="44.46768" lon="2.4719">
        <ele>413</ele>
        <time>2015-07-06T07:11:02.870Z</time>
      </trkpt>
      <trkpt lat="44.46758" lon="2.47198">
        <ele>414</ele>
        <time>2015-07-06T07:11:06.870Z</time>
      </trkpt>
      <trkpt lat="44.46745" lon="2.4721">
        <ele>415</ele>
        <time>2015-07-06T07:11:13.770Z</time>
      </trkpt>
      <trkpt lat="44.46736" lon="2.47215">
        <ele>416.9399936</ele>
        <time>2015-07-06T07:11:16.680Z</time>
      </trkpt>
      <trkpt lat="44.46726" lon="2.4722">
        <ele>417</ele>
        <time>2015-07-06T07:11:19.670Z</time>
      </trkpt>
      <trkpt lat="44.46717" lon="2.47225">
        <ele>417</ele>
        <time>2015-07-06T07:11:22.670Z</time>
      </trkpt>
      <trkpt lat="44.46708" lon="2.47231">
        <ele>417</ele>
        <time>2015-07-06T07:11:25.870Z</time>
      </trkpt>
      <trkpt lat="44.46695" lon="2.47242">
        <ele>417.0199936</ele>
        <time>2015-07-06T07:11:30.720Z</time>
      </trkpt>
      <trkpt lat="44.46686" lon="2.47255">
        <ele>419</ele>
        <time>2015-07-06T07:11:34.770Z</time>
      </trkpt>
      <trkpt lat="44.46679" lon="2.47265">
        <ele>419</ele>
        <time>2015-07-06T07:11:38.680Z</time>
      </trkpt>
      <trkpt lat="44.46672" lon="2.47281">
        <ele>420</ele>
        <time>2015-07-06T07:11:43.720Z</time>
      </trkpt>
      <trkpt lat="44.46668" lon="2.47295">
        <ele>420</ele>
        <time>2015-07-06T07:11:47.770Z</time>
      </trkpt>
      <trkpt lat="44.46663" lon="2.47311">
        <ele>423</ele>
        <time>2015-07-06T07:11:51.800Z</time>
      </trkpt>
      <trkpt lat="44.46658" lon="2.47326">
        <ele>423.1799808</ele>
        <time>2015-07-06T07:11:55.770Z</time>
      </trkpt>
      <trkpt lat="44.46657" lon="2.4734">
        <ele>426</ele>
        <time>2015-07-06T07:11:58.770Z</time>
      </trkpt>
      <trkpt lat="44.46655" lon="2.47357">
        <ele>426</ele>
        <time>2015-07-06T07:12:02.770Z</time>
      </trkpt>
      <trkpt lat="44.46651" lon="2.47371">
        <ele>427</ele>
        <time>2015-07-06T07:12:07.770Z</time>
      </trkpt>
      <trkpt lat="44.4665" lon="2.47387">
        <ele>428</ele>
        <time>2015-07-06T07:12:12.870Z</time>
      </trkpt>
      <trkpt lat="44.46651" lon="2.47404">
        <ele>429</ele>
        <time>2015-07-06T07:12:17.870Z</time>
      </trkpt>
      <trkpt lat="44.46648" lon="2.47419">
        <ele>430</ele>
        <time>2015-07-06T07:12:21.870Z</time>
      </trkpt>
      <trkpt lat="44.46647" lon="2.47436">
        <ele>430</ele>
        <time>2015-07-06T07:12:26.870Z</time>
      </trkpt>
      <trkpt lat="44.46644" lon="2.47449">
        <ele>430.1199872</ele>
        <time>2015-07-06T07:12:30.770Z</time>
      </trkpt>
      <trkpt lat="44.46643" lon="2.47464">
        <ele>432</ele>
        <time>2015-07-06T07:12:34.770Z</time>
      </trkpt>
      <trkpt lat="44.46642" lon="2.4748">
        <ele>434</ele>
        <time>2015-07-06T07:12:38.770Z</time>
      </trkpt>
      <trkpt lat="44.4664" lon="2.47497">
        <ele>436</ele>
        <time>2015-07-06T07:12:42.770Z</time>
      </trkpt>
      <trkpt lat="44.46636" lon="2.47513">
        <ele>436</ele>
        <time>2015-07-06T07:12:46.720Z</time>
      </trkpt>
      <trkpt lat="44.46631" lon="2.47526">
        <ele>436</ele>
        <time>2015-07-06T07:12:50.770Z</time>
      </trkpt>
      <trkpt lat="44.46626" lon="2.47539">
        <ele>436</ele>
        <time>2015-07-06T07:12:54.870Z</time>
      </trkpt>
      <trkpt lat="44.46622" lon="2.47552">
        <ele>436</ele>
        <time>2015-07-06T07:12:59.770Z</time>
      </trkpt>
      <trkpt lat="44.46617" lon="2.47568">
        <ele>440</ele>
        <time>2015-07-06T07:13:04.770Z</time>
      </trkpt>
      <trkpt lat="44.46609" lon="2.47579">
        <ele>440</ele>
        <time>2015-07-06T07:13:09.770Z</time>
      </trkpt>
      <trkpt lat="44.46596" lon="2.47584">
        <ele>441</ele>
        <time>2015-07-06T07:13:14.770Z</time>
      </trkpt>
      <trkpt lat="44.46582" lon="2.47586">
        <ele>441</ele>
        <time>2015-07-06T07:13:18.770Z</time>
      </trkpt>
      <trkpt lat="44.46572" lon="2.47585">
        <ele>443</ele>
        <time>2015-07-06T07:13:21.770Z</time>
      </trkpt>
      <trkpt lat="44.46561" lon="2.47584">
        <ele>443</ele>
        <time>2015-07-06T07:13:25.770Z</time>
      </trkpt>
      <trkpt lat="44.46548" lon="2.47583">
        <ele>443.0599936</ele>
        <time>2015-07-06T07:13:30.770Z</time>
      </trkpt>
      <trkpt lat="44.46537" lon="2.47582">
        <ele>444</ele>
        <time>2015-07-06T07:13:35.770Z</time>
      </trkpt>
      <trkpt lat="44.46527" lon="2.47581">
        <ele>444</ele>
        <time>2015-07-06T07:13:39.770Z</time>
      </trkpt>
      <trkpt lat="44.46514" lon="2.47582">
        <ele>446</ele>
        <time>2015-07-06T07:13:44.770Z</time>
      </trkpt>
      <trkpt lat="44.46505" lon="2.4759">
        <ele>449</ele>
        <time>2015-07-06T07:13:47.770Z</time>
      </trkpt>
      <trkpt lat="44.46497" lon="2.476">
        <ele>450</ele>
        <time>2015-07-06T07:13:51.770Z</time>
      </trkpt>
      <trkpt lat="44.46489" lon="2.47612">
        <ele>450.0599936</ele>
        <time>2015-07-06T07:13:55.770Z</time>
      </trkpt>
      <trkpt lat="44.4648" lon="2.47627">
        <ele>451</ele>
        <time>2015-07-06T07:13:59.780Z</time>
      </trkpt>
      <trkpt lat="44.46474" lon="2.47641">
        <ele>452</ele>
        <time>2015-07-06T07:14:03.770Z</time>
      </trkpt>
      <trkpt lat="44.46467" lon="2.47656">
        <ele>453</ele>
        <time>2015-07-06T07:14:07.770Z</time>
      </trkpt>
      <trkpt lat="44.46459" lon="2.47668">
        <ele>453</ele>
        <time>2015-07-06T07:14:11.770Z</time>
      </trkpt>
      <trkpt lat="44.46452" lon="2.47681">
        <ele>453</ele>
        <time>2015-07-06T07:14:15.770Z</time>
      </trkpt>
      <trkpt lat="44.46444" lon="2.47694">
        <ele>453</ele>
        <time>2015-07-06T07:14:19.690Z</time>
      </trkpt>
      <trkpt lat="44.46435" lon="2.47706">
        <ele>453</ele>
        <time>2015-07-06T07:14:23.800Z</time>
      </trkpt>
      <trkpt lat="44.46425" lon="2.47717">
        <ele>453</ele>
        <time>2015-07-06T07:14:26.770Z</time>
      </trkpt>
      <trkpt lat="44.46417" lon="2.47725">
        <ele>453</ele>
        <time>2015-07-06T07:14:29.770Z</time>
      </trkpt>
      <trkpt lat="44.46407" lon="2.47736">
        <ele>453</ele>
        <time>2015-07-06T07:14:32.770Z</time>
      </trkpt>
      <trkpt lat="44.46397" lon="2.47744">
        <ele>453</ele>
        <time>2015-07-06T07:14:35.770Z</time>
      </trkpt>
      <trkpt lat="44.46386" lon="2.47751">
        <ele>453</ele>
        <time>2015-07-06T07:14:38.770Z</time>
      </trkpt>
      <trkpt lat="44.46378" lon="2.4776">
        <ele>452</ele>
        <time>2015-07-06T07:14:41.770Z</time>
      </trkpt>
      <trkpt lat="44.46384" lon="2.47773">
        <ele>452</ele>
        <time>2015-07-06T07:14:46.770Z</time>
      </trkpt>
      <trkpt lat="44.46394" lon="2.47788">
        <ele>451.9900032</ele>
        <time>2015-07-06T07:14:50.720Z</time>
      </trkpt>
      <trkpt lat="44.46403" lon="2.47798">
        <ele>451</ele>
        <time>2015-07-06T07:14:53.770Z</time>
      </trkpt>
      <trkpt lat="44.46409" lon="2.47811">
        <ele>451</ele>
        <time>2015-07-06T07:14:57.870Z</time>
      </trkpt>
      <trkpt lat="44.46417" lon="2.47822">
        <ele>451</ele>
        <time>2015-07-06T07:15:00.870Z</time>
      </trkpt>
      <trkpt lat="44.46425" lon="2.47836">
        <ele>451</ele>
        <time>2015-07-06T07:15:04.770Z</time>
      </trkpt>
      <trkpt lat="44.46428" lon="2.47858">
        <ele>451</ele>
        <time>2015-07-06T07:15:08.720Z</time>
      </trkpt>
      <trkpt lat="44.46429" lon="2.47876">
        <ele>451</ele>
        <time>2015-07-06T07:15:12.770Z</time>
      </trkpt>
      <trkpt lat="44.46428" lon="2.47893">
        <ele>451</ele>
        <time>2015-07-06T07:15:16.790Z</time>
      </trkpt>
      <trkpt lat="44.46426" lon="2.47912">
        <ele>451</ele>
        <time>2015-07-06T07:15:20.770Z</time>
      </trkpt>
      <trkpt lat="44.46425" lon="2.47927">
        <ele>451</ele>
        <time>2015-07-06T07:15:24.770Z</time>
      </trkpt>
      <trkpt lat="44.46424" lon="2.47943">
        <ele>451</ele>
        <time>2015-07-06T07:15:28.770Z</time>
      </trkpt>
      <trkpt lat="44.46422" lon="2.4796">
        <ele>453</ele>
        <time>2015-07-06T07:15:32.770Z</time>
      </trkpt>
      <trkpt lat="44.4642" lon="2.47977">
        <ele>453</ele>
        <time>2015-07-06T07:15:36.790Z</time>
      </trkpt>
      <trkpt lat="44.46418" lon="2.47994">
        <ele>453.0599936</ele>
        <time>2015-07-06T07:15:40.770Z</time>
      </trkpt>
      <trkpt lat="44.46415" lon="2.48011">
        <ele>454</ele>
        <time>2015-07-06T07:15:44.770Z</time>
      </trkpt>
      <trkpt lat="44.46413" lon="2.48025">
        <ele>454</ele>
        <time>2015-07-06T07:15:48.770Z</time>
      </trkpt>
      <trkpt lat="44.46402" lon="2.48031">
        <ele>456</ele>
        <time>2015-07-06T07:15:52.770Z</time>
      </trkpt>
      <trkpt lat="44.46393" lon="2.4804">
        <ele>456</ele>
        <time>2015-07-06T07:15:57.770Z</time>
      </trkpt>
      <trkpt lat="44.46385" lon="2.48048">
        <ele>457</ele>
        <time>2015-07-06T07:16:01.720Z</time>
      </trkpt>
      <trkpt lat="44.46376" lon="2.48054">
        <ele>457</ele>
        <time>2015-07-06T07:16:05.770Z</time>
      </trkpt>
      <trkpt lat="44.46366" lon="2.48059">
        <ele>457</ele>
        <time>2015-07-06T07:16:08.720Z</time>
      </trkpt>
      <trkpt lat="44.46355" lon="2.48065">
        <ele>459</ele>
        <time>2015-07-06T07:16:12.770Z</time>
      </trkpt>
      <trkpt lat="44.46345" lon="2.4807">
        <ele>459</ele>
        <time>2015-07-06T07:16:16.800Z</time>
      </trkpt>
      <trkpt lat="44.46335" lon="2.48073">
        <ele>459.0599936</ele>
        <time>2015-07-06T07:16:20.770Z</time>
      </trkpt>
      <trkpt lat="44.46324" lon="2.48076">
        <ele>460</ele>
        <time>2015-07-06T07:16:23.720Z</time>
      </trkpt>
      <trkpt lat="44.46313" lon="2.4808">
        <ele>460</ele>
        <time>2015-07-06T07:16:27.770Z</time>
      </trkpt>
      <trkpt lat="44.46301" lon="2.48088">
        <ele>460</ele>
        <time>2015-07-06T07:16:31.770Z</time>
      </trkpt>
      <trkpt lat="44.46291" lon="2.48094">
        <ele>460</ele>
        <time>2015-07-06T07:16:35.770Z</time>
      </trkpt>
      <trkpt lat="44.46281" lon="2.48096">
        <ele>460</ele>
        <time>2015-07-06T07:16:39.770Z</time>
      </trkpt>
      <trkpt lat="44.4627" lon="2.4809">
        <ele>462</ele>
        <time>2015-07-06T07:16:43.800Z</time>
      </trkpt>
      <trkpt lat="44.46259" lon="2.48084">
        <ele>462</ele>
        <time>2015-07-06T07:16:47.770Z</time>
      </trkpt>
      <trkpt lat="44.46249" lon="2.48082">
        <ele>463</ele>
        <time>2015-07-06T07:16:51.770Z</time>
      </trkpt>
      <trkpt lat="44.46236" lon="2.48082">
        <ele>463</ele>
        <time>2015-07-06T07:16:55.770Z</time>
      </trkpt>
      <trkpt lat="44.46227" lon="2.48076">
        <ele>463</ele>
        <time>2015-07-06T07:16:59.770Z</time>
      </trkpt>
      <trkpt lat="44.46218" lon="2.48066">
        <ele>467</ele>
        <time>2015-07-06T07:17:03.770Z</time>
      </trkpt>
      <trkpt lat="44.4621" lon="2.48054">
        <ele>469</ele>
        <time>2015-07-06T07:17:08.770Z</time>
      </trkpt>
      <trkpt lat="44.46199" lon="2.48051">
        <ele>471</ele>
        <time>2015-07-06T07:17:13.770Z</time>
      </trkpt>
      <trkpt lat="44.46189" lon="2.48052">
        <ele>472</ele>
        <time>2015-07-06T07:17:17.770Z</time>
      </trkpt>
      <trkpt lat="44.46179" lon="2.48055">
        <ele>473</ele>
        <time>2015-07-06T07:17:21.770Z</time>
      </trkpt>
      <trkpt lat="44.46167" lon="2.48061">
        <ele>473</ele>
        <time>2015-07-06T07:17:26.720Z</time>
      </trkpt>
      <trkpt lat="44.46157" lon="2.4807">
        <ele>476</ele>
        <time>2015-07-06T07:17:32.770Z</time>
      </trkpt>
      <trkpt lat="44.46149" lon="2.48079">
        <ele>479</ele>
        <time>2015-07-06T07:17:37.770Z</time>
      </trkpt>
      <trkpt lat="44.46142" lon="2.48091">
        <ele>482.0599936</ele>
        <time>2015-07-06T07:17:42.770Z</time>
      </trkpt>
      <trkpt lat="44.46135" lon="2.48101">
        <ele>485</ele>
        <time>2015-07-06T07:17:46.770Z</time>
      </trkpt>
      <trkpt lat="44.46126" lon="2.48113">
        <ele>486</ele>
        <time>2015-07-06T07:17:52.720Z</time>
      </trkpt>
      <trkpt lat="44.46118" lon="2.48123">
        <ele>486</ele>
        <time>2015-07-06T07:17:56.770Z</time>
      </trkpt>
      <trkpt lat="44.46107" lon="2.48132">
        <ele>486</ele>
        <time>2015-07-06T07:18:00.680Z</time>
      </trkpt>
      <trkpt lat="44.46096" lon="2.48141">
        <ele>487</ele>
        <time>2015-07-06T07:18:03.770Z</time>
      </trkpt>
      <trkpt lat="44.46087" lon="2.48148">
        <ele>487</ele>
        <time>2015-07-06T07:18:06.770Z</time>
      </trkpt>
      <trkpt lat="44.46079" lon="2.48157">
        <ele>487</ele>
        <time>2015-07-06T07:18:09.770Z</time>
      </trkpt>
      <trkpt lat="44.4607" lon="2.48165">
        <ele>488</ele>
        <time>2015-07-06T07:18:12.770Z</time>
      </trkpt>
      <trkpt lat="44.4606" lon="2.4818">
        <ele>488</ele>
        <time>2015-07-06T07:18:16.720Z</time>
      </trkpt>
      <trkpt lat="44.46052" lon="2.48193">
        <ele>488</ele>
        <time>2015-07-06T07:18:19.770Z</time>
      </trkpt>
      <trkpt lat="44.46044" lon="2.48205">
        <ele>487</ele>
        <time>2015-07-06T07:18:22.770Z</time>
      </trkpt>
      <trkpt lat="44.46035" lon="2.48217">
        <ele>487</ele>
        <time>2015-07-06T07:18:25.770Z</time>
      </trkpt>
      <trkpt lat="44.46026" lon="2.48228">
        <ele>487</ele>
        <time>2015-07-06T07:18:28.720Z</time>
      </trkpt>
      <trkpt lat="44.4602" lon="2.48242">
        <ele>487</ele>
        <time>2015-07-06T07:18:32.770Z</time>
      </trkpt>
      <trkpt lat="44.46012" lon="2.48256">
        <ele>487</ele>
        <time>2015-07-06T07:18:36.770Z</time>
      </trkpt>
      <trkpt lat="44.46004" lon="2.48269">
        <ele>487</ele>
        <time>2015-07-06T07:18:39.770Z</time>
      </trkpt>
      <trkpt lat="44.45997" lon="2.48283">
        <ele>487</ele>
        <time>2015-07-06T07:18:42.720Z</time>
      </trkpt>
      <trkpt lat="44.45993" lon="2.48297">
        <ele>487</ele>
        <time>2015-07-06T07:18:45.770Z</time>
      </trkpt>
      <trkpt lat="44.45988" lon="2.48312">
        <ele>487</ele>
        <time>2015-07-06T07:18:49.770Z</time>
      </trkpt>
      <trkpt lat="44.45981" lon="2.48328">
        <ele>487</ele>
        <time>2015-07-06T07:18:53.770Z</time>
      </trkpt>
      <trkpt lat="44.45976" lon="2.4834">
        <ele>487</ele>
        <time>2015-07-06T07:18:56.720Z</time>
      </trkpt>
      <trkpt lat="44.4597" lon="2.48354">
        <ele>487</ele>
        <time>2015-07-06T07:18:59.770Z</time>
      </trkpt>
      <trkpt lat="44.45962" lon="2.48367">
        <ele>487</ele>
        <time>2015-07-06T07:19:03.800Z</time>
      </trkpt>
      <trkpt lat="44.45958" lon="2.48384">
        <ele>487</ele>
        <time>2015-07-06T07:19:07.770Z</time>
      </trkpt>
      <trkpt lat="44.45956" lon="2.48402">
        <ele>489</ele>
        <time>2015-07-06T07:19:11.770Z</time>
      </trkpt>
      <trkpt lat="44.45951" lon="2.48424">
        <ele>489</ele>
        <time>2015-07-06T07:19:17.770Z</time>
      </trkpt>
      <trkpt lat="44.45948" lon="2.48438">
        <ele>489.48</ele>
        <time>2015-07-06T07:19:20.870Z</time>
      </trkpt>
      <trkpt lat="44.45946" lon="2.48454">
        <ele>492.32</ele>
        <time>2015-07-06T07:19:25.870Z</time>
      </trkpt>
      <trkpt lat="44.45939" lon="2.48467">
        <ele>494</ele>
        <time>2015-07-06T07:19:29.770Z</time>
      </trkpt>
      <trkpt lat="44.45931" lon="2.48478">
        <ele>496</ele>
        <time>2015-07-06T07:19:33.670Z</time>
      </trkpt>
      <trkpt lat="44.45921" lon="2.48488">
        <ele>498</ele>
        <time>2015-07-06T07:19:38.670Z</time>
      </trkpt>
      <trkpt lat="44.45908" lon="2.48491">
        <ele>499</ele>
        <time>2015-07-06T07:19:42.770Z</time>
      </trkpt>
      <trkpt lat="44.45895" lon="2.48492">
        <ele>499</ele>
        <time>2015-07-06T07:19:46.770Z</time>
      </trkpt>
      <trkpt lat="44.45885" lon="2.48494">
        <ele>499</ele>
        <time>2015-07-06T07:19:49.720Z</time>
      </trkpt>
      <trkpt lat="44.45874" lon="2.48495">
        <ele>500</ele>
        <time>2015-07-06T07:19:52.770Z</time>
      </trkpt>
      <trkpt lat="44.45864" lon="2.48495">
        <ele>500</ele>
        <time>2015-07-06T07:19:55.670Z</time>
      </trkpt>
      <trkpt lat="44.45854" lon="2.48493">
        <ele>500</ele>
        <time>2015-07-06T07:19:59.770Z</time>
      </trkpt>
      <trkpt lat="44.45843" lon="2.48492">
        <ele>502</ele>
        <time>2015-07-06T07:20:03.670Z</time>
      </trkpt>
      <trkpt lat="44.45834" lon="2.48486">
        <ele>502</ele>
        <time>2015-07-06T07:20:08.770Z</time>
      </trkpt>
      <trkpt lat="44.45822" lon="2.48488">
        <ele>504</ele>
        <time>2015-07-06T07:20:12.680Z</time>
      </trkpt>
      <trkpt lat="44.4581" lon="2.48488">
        <ele>504</ele>
        <time>2015-07-06T07:20:16.770Z</time>
      </trkpt>
      <trkpt lat="44.458" lon="2.48485">
        <ele>504</ele>
        <time>2015-07-06T07:20:19.400Z</time>
      </trkpt>
      <trkpt lat="44.45789" lon="2.48484">
        <ele>507</ele>
        <time>2015-07-06T07:20:23.770Z</time>
      </trkpt>
      <trkpt lat="44.45778" lon="2.48483">
        <ele>509</ele>
        <time>2015-07-06T07:20:27.400Z</time>
      </trkpt>
      <trkpt lat="44.45762" lon="2.48474">
        <ele>509</ele>
        <time>2015-07-06T07:20:33.770Z</time>
      </trkpt>
      <trkpt lat="44.45752" lon="2.48469">
        <ele>509</ele>
        <time>2015-07-06T07:20:37.670Z</time>
      </trkpt>
      <trkpt lat="44.45738" lon="2.48459">
        <ele>511</ele>
        <time>2015-07-06T07:20:43.770Z</time>
      </trkpt>
      <trkpt lat="44.45728" lon="2.48454">
        <ele>511</ele>
        <time>2015-07-06T07:20:47.770Z</time>
      </trkpt>
      <trkpt lat="44.45717" lon="2.48451">
        <ele>513</ele>
        <time>2015-07-06T07:20:54.870Z</time>
      </trkpt>
      <trkpt lat="44.45705" lon="2.4845">
        <ele>516</ele>
        <time>2015-07-06T07:20:59.770Z</time>
      </trkpt>
      <trkpt lat="44.45696" lon="2.48456">
        <ele>518</ele>
        <time>2015-07-06T07:21:03.670Z</time>
      </trkpt>
      <trkpt lat="44.45695" lon="2.48474">
        <ele>520</ele>
        <time>2015-07-06T07:21:08.770Z</time>
      </trkpt>
      <trkpt lat="44.45691" lon="2.48487">
        <ele>521</ele>
        <time>2015-07-06T07:21:12.720Z</time>
      </trkpt>
      <trkpt lat="44.45682" lon="2.48494">
        <ele>521</ele>
        <time>2015-07-06T07:21:15.770Z</time>
      </trkpt>
      <trkpt lat="44.45672" lon="2.48504">
        <ele>521</ele>
        <time>2015-07-06T07:21:18.770Z</time>
      </trkpt>
      <trkpt lat="44.45662" lon="2.48509">
        <ele>520</ele>
        <time>2015-07-06T07:21:21.770Z</time>
      </trkpt>
      <trkpt lat="44.45652" lon="2.48513">
        <ele>520</ele>
        <time>2015-07-06T07:21:24.770Z</time>
      </trkpt>
      <trkpt lat="44.45641" lon="2.48514">
        <ele>520</ele>
        <time>2015-07-06T07:21:27.770Z</time>
      </trkpt>
      <trkpt lat="44.45628" lon="2.48518">
        <ele>519</ele>
        <time>2015-07-06T07:21:31.780Z</time>
      </trkpt>
      <trkpt lat="44.45617" lon="2.48525">
        <ele>519</ele>
        <time>2015-07-06T07:21:35.770Z</time>
      </trkpt>
      <trkpt lat="44.45607" lon="2.48531">
        <ele>519</ele>
        <time>2015-07-06T07:21:39.770Z</time>
      </trkpt>
      <trkpt lat="44.45594" lon="2.48543">
        <ele>519</ele>
        <time>2015-07-06T07:21:44.670Z</time>
      </trkpt>
      <trkpt lat="44.45584" lon="2.48552">
        <ele>519</ele>
        <time>2015-07-06T07:21:48.770Z</time>
      </trkpt>
      <trkpt lat="44.45575" lon="2.48558">
        <ele>518</ele>
        <time>2015-07-06T07:21:51.770Z</time>
      </trkpt>
      <trkpt lat="44.45565" lon="2.48568">
        <ele>518</ele>
        <time>2015-07-06T07:21:54.770Z</time>
      </trkpt>
      <trkpt lat="44.45555" lon="2.48573">
        <ele>518</ele>
        <time>2015-07-06T07:21:57.770Z</time>
      </trkpt>
      <trkpt lat="44.45547" lon="2.48581">
        <ele>517.8200192</ele>
        <time>2015-07-06T07:22:00.770Z</time>
      </trkpt>
      <trkpt lat="44.45535" lon="2.48591">
        <ele>515</ele>
        <time>2015-07-06T07:22:04.770Z</time>
      </trkpt>
      <trkpt lat="44.45527" lon="2.48601">
        <ele>513</ele>
        <time>2015-07-06T07:22:07.720Z</time>
      </trkpt>
      <trkpt lat="44.45518" lon="2.48611">
        <ele>512.9400064</ele>
        <time>2015-07-06T07:22:10.770Z</time>
      </trkpt>
      <trkpt lat="44.45509" lon="2.48621">
        <ele>512</ele>
        <time>2015-07-06T07:22:14.680Z</time>
      </trkpt>
      <trkpt lat="44.45497" lon="2.48631">
        <ele>513</ele>
        <time>2015-07-06T07:22:18.770Z</time>
      </trkpt>
      <trkpt lat="44.45488" lon="2.48639">
        <ele>515</ele>
        <time>2015-07-06T07:22:22.770Z</time>
      </trkpt>
      <trkpt lat="44.45479" lon="2.48648">
        <ele>515</ele>
        <time>2015-07-06T07:22:25.770Z</time>
      </trkpt>
      <trkpt lat="44.45468" lon="2.48654">
        <ele>515</ele>
        <time>2015-07-06T07:22:29.770Z</time>
      </trkpt>
      <trkpt lat="44.45457" lon="2.48663">
        <ele>516</ele>
        <time>2015-07-06T07:22:33.770Z</time>
      </trkpt>
      <trkpt lat="44.45449" lon="2.48673">
        <ele>516</ele>
        <time>2015-07-06T07:22:38.770Z</time>
      </trkpt>
      <trkpt lat="44.45439" lon="2.48683">
        <ele>517</ele>
        <time>2015-07-06T07:22:43.770Z</time>
      </trkpt>
      <trkpt lat="44.45431" lon="2.48696">
        <ele>517</ele>
        <time>2015-07-06T07:22:48.770Z</time>
      </trkpt>
      <trkpt lat="44.45423" lon="2.4871">
        <ele>519</ele>
        <time>2015-07-06T07:22:52.770Z</time>
      </trkpt>
      <trkpt lat="44.45418" lon="2.48724">
        <ele>519</ele>
        <time>2015-07-06T07:22:56.770Z</time>
      </trkpt>
      <trkpt lat="44.45412" lon="2.48739">
        <ele>518.9400064</ele>
        <time>2015-07-06T07:23:00.770Z</time>
      </trkpt>
      <trkpt lat="44.45408" lon="2.48752">
        <ele>518</ele>
        <time>2015-07-06T07:23:03.400Z</time>
      </trkpt>
      <trkpt lat="44.45403" lon="2.48766">
        <ele>518</ele>
        <time>2015-07-06T07:23:06.770Z</time>
      </trkpt>
      <trkpt lat="44.45397" lon="2.48778">
        <ele>518</ele>
        <time>2015-07-06T07:23:10.770Z</time>
      </trkpt>
      <trkpt lat="44.45389" lon="2.48789">
        <ele>518</ele>
        <time>2015-07-06T07:23:13.770Z</time>
      </trkpt>
      <trkpt lat="44.45381" lon="2.488">
        <ele>518</ele>
        <time>2015-07-06T07:23:16.770Z</time>
      </trkpt>
      <trkpt lat="44.45369" lon="2.4881">
        <ele>518</ele>
        <time>2015-07-06T07:23:20.770Z</time>
      </trkpt>
      <trkpt lat="44.4536" lon="2.48817">
        <ele>518</ele>
        <time>2015-07-06T07:23:23.770Z</time>
      </trkpt>
      <trkpt lat="44.4535" lon="2.48822">
        <ele>518</ele>
        <time>2015-07-06T07:23:26.770Z</time>
      </trkpt>
      <trkpt lat="44.4534" lon="2.48831">
        <ele>517.9400064</ele>
        <time>2015-07-06T07:23:30.770Z</time>
      </trkpt>
      <trkpt lat="44.45332" lon="2.4884">
        <ele>517</ele>
        <time>2015-07-06T07:23:33.770Z</time>
      </trkpt>
      <trkpt lat="44.45324" lon="2.48849">
        <ele>517</ele>
        <time>2015-07-06T07:23:37.770Z</time>
      </trkpt>
      <trkpt lat="44.45315" lon="2.48861">
        <ele>516</ele>
        <time>2015-07-06T07:23:41.770Z</time>
      </trkpt>
      <trkpt lat="44.45307" lon="2.48872">
        <ele>516</ele>
        <time>2015-07-06T07:23:44.770Z</time>
      </trkpt>
      <trkpt lat="44.45299" lon="2.48882">
        <ele>516</ele>
        <time>2015-07-06T07:23:47.770Z</time>
      </trkpt>
      <trkpt lat="44.45289" lon="2.48892">
        <ele>515.9400064</ele>
        <time>2015-07-06T07:23:50.770Z</time>
      </trkpt>
      <trkpt lat="44.45283" lon="2.48903">
        <ele>515</ele>
        <time>2015-07-06T07:23:53.770Z</time>
      </trkpt>
      <trkpt lat="44.45275" lon="2.48915">
        <ele>515</ele>
        <time>2015-07-06T07:23:56.770Z</time>
      </trkpt>
      <trkpt lat="44.45269" lon="2.48928">
        <ele>515</ele>
        <time>2015-07-06T07:23:59.770Z</time>
      </trkpt>
      <trkpt lat="44.45266" lon="2.48942">
        <ele>512</ele>
        <time>2015-07-06T07:24:02.770Z</time>
      </trkpt>
      <trkpt lat="44.45262" lon="2.48962">
        <ele>512</ele>
        <time>2015-07-06T07:24:07.670Z</time>
      </trkpt>
      <trkpt lat="44.45255" lon="2.48978">
        <ele>512</ele>
        <time>2015-07-06T07:24:11.770Z</time>
      </trkpt>
      <trkpt lat="44.45249" lon="2.4899">
        <ele>512</ele>
        <time>2015-07-06T07:24:14.770Z</time>
      </trkpt>
      <trkpt lat="44.45242" lon="2.49001">
        <ele>512</ele>
        <time>2015-07-06T07:24:17.770Z</time>
      </trkpt>
      <trkpt lat="44.45234" lon="2.49012">
        <ele>512</ele>
        <time>2015-07-06T07:24:20.670Z</time>
      </trkpt>
      <trkpt lat="44.45226" lon="2.49023">
        <ele>512</ele>
        <time>2015-07-06T07:24:23.770Z</time>
      </trkpt>
      <trkpt lat="44.4522" lon="2.49035">
        <ele>512</ele>
        <time>2015-07-06T07:24:26.770Z</time>
      </trkpt>
      <trkpt lat="44.45214" lon="2.49048">
        <ele>512</ele>
        <time>2015-07-06T07:24:29.770Z</time>
      </trkpt>
      <trkpt lat="44.45206" lon="2.49062">
        <ele>511</ele>
        <time>2015-07-06T07:24:32.770Z</time>
      </trkpt>
      <trkpt lat="44.452" lon="2.49075">
        <ele>511</ele>
        <time>2015-07-06T07:24:35.770Z</time>
      </trkpt>
      <trkpt lat="44.45193" lon="2.4909">
        <ele>511</ele>
        <time>2015-07-06T07:24:39.770Z</time>
      </trkpt>
      <trkpt lat="44.45186" lon="2.49103">
        <ele>509</ele>
        <time>2015-07-06T07:24:43.770Z</time>
      </trkpt>
      <trkpt lat="44.4518" lon="2.49115">
        <ele>509</ele>
        <time>2015-07-06T07:24:46.770Z</time>
      </trkpt>
      <trkpt lat="44.4517" lon="2.49129">
        <ele>508.8800128</ele>
        <time>2015-07-06T07:24:50.770Z</time>
      </trkpt>
      <trkpt lat="44.45163" lon="2.49142">
        <ele>507</ele>
        <time>2015-07-06T07:24:53.670Z</time>
      </trkpt>
      <trkpt lat="44.45158" lon="2.49161">
        <ele>507</ele>
        <time>2015-07-06T07:24:58.670Z</time>
      </trkpt>
      <trkpt lat="44.45153" lon="2.49175">
        <ele>503.16</ele>
        <time>2015-07-06T07:25:01.670Z</time>
      </trkpt>
      <trkpt lat="44.45142" lon="2.49182">
        <ele>503</ele>
        <time>2015-07-06T07:25:04.770Z</time>
      </trkpt>
      <trkpt lat="44.4513" lon="2.49186">
        <ele>502</ele>
        <time>2015-07-06T07:25:07.770Z</time>
      </trkpt>
      <trkpt lat="44.4512" lon="2.49191">
        <ele>501.9400064</ele>
        <time>2015-07-06T07:25:10.770Z</time>
      </trkpt>
      <trkpt lat="44.45112" lon="2.49201">
        <ele>501</ele>
        <time>2015-07-06T07:25:14.770Z</time>
      </trkpt>
      <trkpt lat="44.4511" lon="2.49219">
        <ele>501</ele>
        <time>2015-07-06T07:25:18.870Z</time>
      </trkpt>
      <trkpt lat="44.45107" lon="2.49235">
        <ele>502</ele>
        <time>2015-07-06T07:25:23.770Z</time>
      </trkpt>
      <trkpt lat="44.45105" lon="2.49254">
        <ele>502</ele>
        <time>2015-07-06T07:25:27.770Z</time>
      </trkpt>
      <trkpt lat="44.45104" lon="2.49271">
        <ele>505</ele>
        <time>2015-07-06T07:25:31.770Z</time>
      </trkpt>
      <trkpt lat="44.45103" lon="2.49287">
        <ele>506</ele>
        <time>2015-07-06T07:25:36.770Z</time>
      </trkpt>
      <trkpt lat="44.45104" lon="2.49303">
        <ele>506.0599936</ele>
        <time>2015-07-06T07:25:40.770Z</time>
      </trkpt>
      <trkpt lat="44.45104" lon="2.49317">
        <ele>507</ele>
        <time>2015-07-06T07:25:43.770Z</time>
      </trkpt>
      <trkpt lat="44.45103" lon="2.49331">
        <ele>507</ele>
        <time>2015-07-06T07:25:46.800Z</time>
      </trkpt>
      <trkpt lat="44.45103" lon="2.49347">
        <ele>507</ele>
        <time>2015-07-06T07:25:49.770Z</time>
      </trkpt>
      <trkpt lat="44.45105" lon="2.49363">
        <ele>507</ele>
        <time>2015-07-06T07:25:53.770Z</time>
      </trkpt>
      <trkpt lat="44.45106" lon="2.4938">
        <ele>507</ele>
        <time>2015-07-06T07:25:57.720Z</time>
      </trkpt>
      <trkpt lat="44.45105" lon="2.49396">
        <ele>510</ele>
        <time>2015-07-06T07:26:01.770Z</time>
      </trkpt>
      <trkpt lat="44.45108" lon="2.49413">
        <ele>510</ele>
        <time>2015-07-06T07:26:05.690Z</time>
      </trkpt>
      <trkpt lat="44.45106" lon="2.49431">
        <ele>511</ele>
        <time>2015-07-06T07:26:09.770Z</time>
      </trkpt>
      <trkpt lat="44.45104" lon="2.49448">
        <ele>511</ele>
        <time>2015-07-06T07:26:13.770Z</time>
      </trkpt>
      <trkpt lat="44.45104" lon="2.49462">
        <ele>511</ele>
        <time>2015-07-06T07:26:16.770Z</time>
      </trkpt>
      <trkpt lat="44.45105" lon="2.4948">
        <ele>511</ele>
        <time>2015-07-06T07:26:20.770Z</time>
      </trkpt>
      <trkpt lat="44.45108" lon="2.49493">
        <ele>511</ele>
        <time>2015-07-06T07:26:23.770Z</time>
      </trkpt>
      <trkpt lat="44.45108" lon="2.49511">
        <ele>511</ele>
        <time>2015-07-06T07:26:27.770Z</time>
      </trkpt>
      <trkpt lat="44.45109" lon="2.49528">
        <ele>512</ele>
        <time>2015-07-06T07:26:32.770Z</time>
      </trkpt>
      <trkpt lat="44.45111" lon="2.49544">
        <ele>512</ele>
        <time>2015-07-06T07:26:36.770Z</time>
      </trkpt>
      <trkpt lat="44.45114" lon="2.4956">
        <ele>512</ele>
        <time>2015-07-06T07:26:40.770Z</time>
      </trkpt>
      <trkpt lat="44.45117" lon="2.49576">
        <ele>512</ele>
        <time>2015-07-06T07:26:44.770Z</time>
      </trkpt>
      <trkpt lat="44.4512" lon="2.49589">
        <ele>512</ele>
        <time>2015-07-06T07:26:47.770Z</time>
      </trkpt>
      <trkpt lat="44.45123" lon="2.49605">
        <ele>514</ele>
        <time>2015-07-06T07:26:51.770Z</time>
      </trkpt>
      <trkpt lat="44.45124" lon="2.49618">
        <ele>514</ele>
        <time>2015-07-06T07:26:54.770Z</time>
      </trkpt>
      <trkpt lat="44.45123" lon="2.49631">
        <ele>514</ele>
        <time>2015-07-06T07:26:57.770Z</time>
      </trkpt>
      <trkpt lat="44.45122" lon="2.49645">
        <ele>513.7400064</ele>
        <time>2015-07-06T07:27:00.970Z</time>
      </trkpt>
      <trkpt lat="44.45122" lon="2.49659">
        <ele>513</ele>
        <time>2015-07-06T07:27:03.770Z</time>
      </trkpt>
      <trkpt lat="44.45122" lon="2.49674">
        <ele>513</ele>
        <time>2015-07-06T07:27:06.770Z</time>
      </trkpt>
      <trkpt lat="44.45126" lon="2.49689">
        <ele>512.9400064</ele>
        <time>2015-07-06T07:27:10.770Z</time>
      </trkpt>
      <trkpt lat="44.45132" lon="2.49702">
        <ele>512</ele>
        <time>2015-07-06T07:27:13.770Z</time>
      </trkpt>
      <trkpt lat="44.45139" lon="2.49714">
        <ele>512</ele>
        <time>2015-07-06T07:27:16.770Z</time>
      </trkpt>
      <trkpt lat="44.45142" lon="2.49731">
        <ele>512</ele>
        <time>2015-07-06T07:27:19.770Z</time>
      </trkpt>
      <trkpt lat="44.45144" lon="2.49745">
        <ele>509</ele>
        <time>2015-07-06T07:27:22.770Z</time>
      </trkpt>
      <trkpt lat="44.45146" lon="2.49763">
        <ele>507</ele>
        <time>2015-07-06T07:27:26.770Z</time>
      </trkpt>
      <trkpt lat="44.4515" lon="2.4978">
        <ele>507</ele>
        <time>2015-07-06T07:27:30.410Z</time>
      </trkpt>
      <trkpt lat="44.45153" lon="2.498">
        <ele>506</ele>
        <time>2015-07-06T07:27:34.670Z</time>
      </trkpt>
      <trkpt lat="44.45146" lon="2.49816">
        <ele>504</ele>
        <time>2015-07-06T07:27:38.770Z</time>
      </trkpt>
      <trkpt lat="44.45135" lon="2.4981">
        <ele>503</ele>
        <time>2015-07-06T07:27:41.770Z</time>
      </trkpt>
      <trkpt lat="44.45124" lon="2.49806">
        <ele>503</ele>
        <time>2015-07-06T07:27:44.770Z</time>
      </trkpt>
      <trkpt lat="44.45114" lon="2.4981">
        <ele>502</ele>
        <time>2015-07-06T07:27:48.770Z</time>
      </trkpt>
      <trkpt lat="44.45104" lon="2.49816">
        <ele>500</ele>
        <time>2015-07-06T07:27:51.770Z</time>
      </trkpt>
      <trkpt lat="44.45094" lon="2.4982">
        <ele>500</ele>
        <time>2015-07-06T07:27:55.770Z</time>
      </trkpt>
      <trkpt lat="44.45085" lon="2.49831">
        <ele>500</ele>
        <time>2015-07-06T07:27:59.670Z</time>
      </trkpt>
      <trkpt lat="44.45082" lon="2.49847">
        <ele>496</ele>
        <time>2015-07-06T07:28:02.670Z</time>
      </trkpt>
      <trkpt lat="44.45076" lon="2.49861">
        <ele>496</ele>
        <time>2015-07-06T07:28:06.670Z</time>
      </trkpt>
      <trkpt lat="44.45076" lon="2.49876">
        <ele>496</ele>
        <time>2015-07-06T07:28:10.670Z</time>
      </trkpt>
      <trkpt lat="44.45076" lon="2.49894">
        <ele>496</ele>
        <time>2015-07-06T07:28:14.670Z</time>
      </trkpt>
      <trkpt lat="44.45082" lon="2.49905">
        <ele>496</ele>
        <time>2015-07-06T07:28:17.670Z</time>
      </trkpt>
      <trkpt lat="44.45086" lon="2.49918">
        <ele>496</ele>
        <time>2015-07-06T07:28:21.670Z</time>
      </trkpt>
      <trkpt lat="44.45091" lon="2.49932">
        <ele>496</ele>
        <time>2015-07-06T07:28:25.670Z</time>
      </trkpt>
      <trkpt lat="44.45092" lon="2.49947">
        <ele>496</ele>
        <time>2015-07-06T07:28:29.670Z</time>
      </trkpt>
      <trkpt lat="44.45088" lon="2.49961">
        <ele>494</ele>
        <time>2015-07-06T07:28:32.670Z</time>
      </trkpt>
      <trkpt lat="44.45085" lon="2.49977">
        <ele>494</ele>
        <time>2015-07-06T07:28:35.670Z</time>
      </trkpt>
      <trkpt lat="44.45085" lon="2.49993">
        <ele>494</ele>
        <time>2015-07-06T07:28:38.770Z</time>
      </trkpt>
      <trkpt lat="44.45086" lon="2.5001">
        <ele>485.9400064</ele>
        <time>2015-07-06T07:28:42.770Z</time>
      </trkpt>
      <trkpt lat="44.45087" lon="2.50026">
        <ele>482</ele>
        <time>2015-07-06T07:28:45.670Z</time>
      </trkpt>
      <trkpt lat="44.4509" lon="2.50044">
        <ele>478.9400064</ele>
        <time>2015-07-06T07:28:50.770Z</time>
      </trkpt>
      <trkpt lat="44.45087" lon="2.50062">
        <ele>475</ele>
        <time>2015-07-06T07:28:54.670Z</time>
      </trkpt>
      <trkpt lat="44.45079" lon="2.50073">
        <ele>472.9400064</ele>
        <time>2015-07-06T07:28:58.770Z</time>
      </trkpt>
      <trkpt lat="44.45067" lon="2.5008">
        <ele>469</ele>
        <time>2015-07-06T07:29:03.670Z</time>
      </trkpt>
      <trkpt lat="44.45056" lon="2.50074">
        <ele>467</ele>
        <time>2015-07-06T07:29:24.870Z</time>
      </trkpt>
      <trkpt lat="44.45045" lon="2.50061">
        <ele>467</ele>
        <time>2015-07-06T07:29:27.870Z</time>
      </trkpt>
      <trkpt lat="44.45039" lon="2.5005">
        <ele>467</ele>
        <time>2015-07-06T07:29:29.870Z</time>
      </trkpt>
      <trkpt lat="44.45028" lon="2.50051">
        <ele>454.9400064</ele>
        <time>2015-07-06T07:29:36.770Z</time>
      </trkpt>
      <trkpt lat="44.45024" lon="2.50065">
        <ele>451.9400064</ele>
        <time>2015-07-06T07:29:40.770Z</time>
      </trkpt>
      <trkpt lat="44.45021" lon="2.5008">
        <ele>448.9400064</ele>
        <time>2015-07-06T07:29:43.770Z</time>
      </trkpt>
      <trkpt lat="44.45014" lon="2.50091">
        <ele>446.0300032</ele>
        <time>2015-07-06T07:29:46.680Z</time>
      </trkpt>
      <trkpt lat="44.45007" lon="2.50104">
        <ele>444</ele>
        <time>2015-07-06T07:29:49.770Z</time>
      </trkpt>
      <trkpt lat="44.45002" lon="2.50121">
        <ele>439.84</ele>
        <time>2015-07-06T07:29:53.870Z</time>
      </trkpt>
      <trkpt lat="44.45001" lon="2.50105">
        <ele>438</ele>
        <time>2015-07-06T07:30:04.770Z</time>
      </trkpt>
      <trkpt lat="44.45004" lon="2.5009">
        <ele>439</ele>
        <time>2015-07-06T07:30:08.770Z</time>
      </trkpt>
      <trkpt lat="44.45007" lon="2.50072">
        <ele>440</ele>
        <time>2015-07-06T07:30:12.770Z</time>
      </trkpt>
      <trkpt lat="44.45009" lon="2.50059">
        <ele>440</ele>
        <time>2015-07-06T07:30:15.770Z</time>
      </trkpt>
      <trkpt lat="44.45009" lon="2.50046">
        <ele>440</ele>
        <time>2015-07-06T07:30:18.770Z</time>
      </trkpt>
      <trkpt lat="44.45008" lon="2.50033">
        <ele>440</ele>
        <time>2015-07-06T07:30:21.770Z</time>
      </trkpt>
      <trkpt lat="44.45008" lon="2.50019">
        <ele>440</ele>
        <time>2015-07-06T07:30:24.770Z</time>
      </trkpt>
      <trkpt lat="44.45008" lon="2.50005">
        <ele>440</ele>
        <time>2015-07-06T07:30:27.770Z</time>
      </trkpt>
      <trkpt lat="44.45007" lon="2.49991">
        <ele>439.9400064</ele>
        <time>2015-07-06T07:30:30.770Z</time>
      </trkpt>
      <trkpt lat="44.45007" lon="2.49977">
        <ele>439</ele>
        <time>2015-07-06T07:30:33.770Z</time>
      </trkpt>
      <trkpt lat="44.45007" lon="2.49963">
        <ele>439</ele>
        <time>2015-07-06T07:30:36.770Z</time>
      </trkpt>
      <trkpt lat="44.45007" lon="2.49948">
        <ele>439</ele>
        <time>2015-07-06T07:30:39.780Z</time>
      </trkpt>
      <trkpt lat="44.45009" lon="2.49935">
        <ele>440</ele>
        <time>2015-07-06T07:30:42.770Z</time>
      </trkpt>
      <trkpt lat="44.45008" lon="2.49922">
        <ele>440</ele>
        <time>2015-07-06T07:30:45.770Z</time>
      </trkpt>
      <trkpt lat="44.45007" lon="2.49909">
        <ele>440</ele>
        <time>2015-07-06T07:30:48.770Z</time>
      </trkpt>
      <trkpt lat="44.45004" lon="2.49894">
        <ele>439</ele>
        <time>2015-07-06T07:30:51.770Z</time>
      </trkpt>
      <trkpt lat="44.45003" lon="2.49883">
        <ele>439</ele>
        <time>2015-07-06T07:30:53.770Z</time>
      </trkpt>
      <trkpt lat="44.45002" lon="2.49867">
        <ele>439</ele>
        <time>2015-07-06T07:30:56.770Z</time>
      </trkpt>
      <trkpt lat="44.45003" lon="2.49853">
        <ele>439</ele>
        <time>2015-07-06T07:30:59.780Z</time>
      </trkpt>
      <trkpt lat="44.45004" lon="2.49837">
        <ele>438</ele>
        <time>2015-07-06T07:31:02.770Z</time>
      </trkpt>
      <trkpt lat="44.45004" lon="2.49822">
        <ele>438</ele>
        <time>2015-07-06T07:31:05.770Z</time>
      </trkpt>
      <trkpt lat="44.45005" lon="2.49809">
        <ele>438</ele>
        <time>2015-07-06T07:31:08.770Z</time>
      </trkpt>
      <trkpt lat="44.45005" lon="2.49794">
        <ele>436</ele>
        <time>2015-07-06T07:31:11.770Z</time>
      </trkpt>
      <trkpt lat="44.45004" lon="2.4978">
        <ele>436</ele>
        <time>2015-07-06T07:31:14.780Z</time>
      </trkpt>
      <trkpt lat="44.45005" lon="2.49766">
        <ele>436</ele>
        <time>2015-07-06T07:31:17.770Z</time>
      </trkpt>
      <trkpt lat="44.45005" lon="2.4975">
        <ele>435.9400064</ele>
        <time>2015-07-06T07:31:20.770Z</time>
      </trkpt>
      <trkpt lat="44.45006" lon="2.49735">
        <ele>435</ele>
        <time>2015-07-06T07:31:23.770Z</time>
      </trkpt>
      <trkpt lat="44.45007" lon="2.49718">
        <ele>435</ele>
        <time>2015-07-06T07:31:27.720Z</time>
      </trkpt>
      <trkpt lat="44.45004" lon="2.49703">
        <ele>434.8800128</ele>
        <time>2015-07-06T07:31:30.770Z</time>
      </trkpt>
      <trkpt lat="44.45" lon="2.49685">
        <ele>433</ele>
        <time>2015-07-06T07:31:35.670Z</time>
      </trkpt>
      <trkpt lat="44.44995" lon="2.49668">
        <ele>433</ele>
        <time>2015-07-06T07:31:39.770Z</time>
      </trkpt>
      <trkpt lat="44.44995" lon="2.49653">
        <ele>433</ele>
        <time>2015-07-06T07:31:43.770Z</time>
      </trkpt>
      <trkpt lat="44.44995" lon="2.49639">
        <ele>433</ele>
        <time>2015-07-06T07:31:46.770Z</time>
      </trkpt>
      <trkpt lat="44.44996" lon="2.49624">
        <ele>433</ele>
        <time>2015-07-06T07:31:49.770Z</time>
      </trkpt>
      <trkpt lat="44.44998" lon="2.49608">
        <ele>436</ele>
        <time>2015-07-06T07:31:52.770Z</time>
      </trkpt>
      <trkpt lat="44.44998" lon="2.49595">
        <ele>436</ele>
        <time>2015-07-06T07:31:55.770Z</time>
      </trkpt>
      <trkpt lat="44.44999" lon="2.4958">
        <ele>436</ele>
        <time>2015-07-06T07:31:58.770Z</time>
      </trkpt>
      <trkpt lat="44.44999" lon="2.49564">
        <ele>436</ele>
        <time>2015-07-06T07:32:02.770Z</time>
      </trkpt>
      <trkpt lat="44.44998" lon="2.49548">
        <ele>436</ele>
        <time>2015-07-06T07:32:06.770Z</time>
      </trkpt>
      <trkpt lat="44.44995" lon="2.49532">
        <ele>439</ele>
        <time>2015-07-06T07:32:11.870Z</time>
      </trkpt>
      <trkpt lat="44.44989" lon="2.49518">
        <ele>439.0599936</ele>
        <time>2015-07-06T07:32:15.770Z</time>
      </trkpt>
      <trkpt lat="44.44987" lon="2.49504">
        <ele>440</ele>
        <time>2015-07-06T07:32:19.670Z</time>
      </trkpt>
      <trkpt lat="44.44991" lon="2.49487">
        <ele>442</ele>
        <time>2015-07-06T07:32:23.870Z</time>
      </trkpt>
      <trkpt lat="44.44987" lon="2.49472">
        <ele>444</ele>
        <time>2015-07-06T07:32:28.870Z</time>
      </trkpt>
      <trkpt lat="44.44982" lon="2.49459">
        <ele>444.64</ele>
        <time>2015-07-06T07:32:40.870Z</time>
      </trkpt>
      <trkpt lat="44.44969" lon="2.49458">
        <ele>448</ele>
        <time>2015-07-06T07:32:45.670Z</time>
      </trkpt>
      <trkpt lat="44.44956" lon="2.49458">
        <ele>450</ele>
        <time>2015-07-06T07:32:49.770Z</time>
      </trkpt>
      <trkpt lat="44.44943" lon="2.49459">
        <ele>450</ele>
        <time>2015-07-06T07:32:53.770Z</time>
      </trkpt>
      <trkpt lat="44.44925" lon="2.49462">
        <ele>450</ele>
        <time>2015-07-06T07:32:58.770Z</time>
      </trkpt>
      <trkpt lat="44.44914" lon="2.49454">
        <ele>447.0600192</ele>
        <time>2015-07-06T07:33:01.690Z</time>
      </trkpt>
      <trkpt lat="44.44904" lon="2.49449">
        <ele>447</ele>
        <time>2015-07-06T07:33:04.770Z</time>
      </trkpt>
      <trkpt lat="44.44895" lon="2.49442">
        <ele>445</ele>
        <time>2015-07-06T07:33:07.770Z</time>
      </trkpt>
      <trkpt lat="44.44888" lon="2.49427">
        <ele>446</ele>
        <time>2015-07-06T07:33:11.770Z</time>
      </trkpt>
      <trkpt lat="44.44883" lon="2.49412">
        <ele>446</ele>
        <time>2015-07-06T07:33:14.770Z</time>
      </trkpt>
      <trkpt lat="44.44879" lon="2.49398">
        <ele>446</ele>
        <time>2015-07-06T07:33:17.770Z</time>
      </trkpt>
      <trkpt lat="44.44877" lon="2.49382">
        <ele>445.9400064</ele>
        <time>2015-07-06T07:33:20.770Z</time>
      </trkpt>
      <trkpt lat="44.44874" lon="2.49368">
        <ele>445</ele>
        <time>2015-07-06T07:33:23.780Z</time>
      </trkpt>
      <trkpt lat="44.4487" lon="2.49354">
        <ele>445</ele>
        <time>2015-07-06T07:33:26.770Z</time>
      </trkpt>
      <trkpt lat="44.44871" lon="2.49339">
        <ele>445</ele>
        <time>2015-07-06T07:33:29.770Z</time>
      </trkpt>
      <trkpt lat="44.44872" lon="2.49324">
        <ele>444</ele>
        <time>2015-07-06T07:33:33.780Z</time>
      </trkpt>
      <trkpt lat="44.44873" lon="2.49312">
        <ele>444</ele>
        <time>2015-07-06T07:33:36.700Z</time>
      </trkpt>
      <trkpt lat="44.44878" lon="2.49299">
        <ele>444</ele>
        <time>2015-07-06T07:33:39.770Z</time>
      </trkpt>
      <trkpt lat="44.44883" lon="2.49287">
        <ele>441</ele>
        <time>2015-07-06T07:33:42.770Z</time>
      </trkpt>
      <trkpt lat="44.44875" lon="2.49301">
        <ele>437</ele>
        <time>2015-07-06T07:33:52.800Z</time>
      </trkpt>
      <trkpt lat="44.44868" lon="2.49314">
        <ele>437</ele>
        <time>2015-07-06T07:33:55.770Z</time>
      </trkpt>
      <trkpt lat="44.44863" lon="2.49327">
        <ele>437</ele>
        <time>2015-07-06T07:33:58.770Z</time>
      </trkpt>
      <trkpt lat="44.44856" lon="2.49342">
        <ele>436</ele>
        <time>2015-07-06T07:34:01.770Z</time>
      </trkpt>
      <trkpt lat="44.44852" lon="2.49357">
        <ele>436</ele>
        <time>2015-07-06T07:34:04.770Z</time>
      </trkpt>
      <trkpt lat="44.44847" lon="2.49371">
        <ele>436</ele>
        <time>2015-07-06T07:34:07.770Z</time>
      </trkpt>
      <trkpt lat="44.44842" lon="2.49384">
        <ele>435.5800448</ele>
        <time>2015-07-06T07:34:10.770Z</time>
      </trkpt>
      <trkpt lat="44.44832" lon="2.49392">
        <ele>425</ele>
        <time>2015-07-06T07:34:15.970Z</time>
      </trkpt>
      <trkpt lat="44.44827" lon="2.49376">
        <ele>424</ele>
        <time>2015-07-06T07:34:18.770Z</time>
      </trkpt>
      <trkpt lat="44.44824" lon="2.49363">
        <ele>423</ele>
        <time>2015-07-06T07:34:20.770Z</time>
      </trkpt>
      <trkpt lat="44.44816" lon="2.49348">
        <ele>421.9400064</ele>
        <time>2015-07-06T07:34:24.770Z</time>
      </trkpt>
      <trkpt lat="44.4481" lon="2.49336">
        <ele>420</ele>
        <time>2015-07-06T07:34:27.770Z</time>
      </trkpt>
      <trkpt lat="44.44803" lon="2.4932">
        <ele>418.9400064</ele>
        <time>2015-07-06T07:34:30.770Z</time>
      </trkpt>
      <trkpt lat="44.44796" lon="2.49305">
        <ele>417.9400064</ele>
        <time>2015-07-06T07:34:33.770Z</time>
      </trkpt>
      <trkpt lat="44.44791" lon="2.4929">
        <ele>415</ele>
        <time>2015-07-06T07:34:36.770Z</time>
      </trkpt>
      <trkpt lat="44.44785" lon="2.49277">
        <ele>414</ele>
        <time>2015-07-06T07:34:39.770Z</time>
      </trkpt>
      <trkpt lat="44.44784" lon="2.49262">
        <ele>414</ele>
        <time>2015-07-06T07:34:42.770Z</time>
      </trkpt>
      <trkpt lat="44.44784" lon="2.49246">
        <ele>414</ele>
        <time>2015-07-06T07:34:45.690Z</time>
      </trkpt>
      <trkpt lat="44.44782" lon="2.49231">
        <ele>412</ele>
        <time>2015-07-06T07:34:48.770Z</time>
      </trkpt>
      <trkpt lat="44.44783" lon="2.49215">
        <ele>409</ele>
        <time>2015-07-06T07:34:51.770Z</time>
      </trkpt>
      <trkpt lat="44.44782" lon="2.49198">
        <ele>409</ele>
        <time>2015-07-06T07:34:54.770Z</time>
      </trkpt>
      <trkpt lat="44.44782" lon="2.49184">
        <ele>408</ele>
        <time>2015-07-06T07:34:57.780Z</time>
      </trkpt>
      <trkpt lat="44.4478" lon="2.49171">
        <ele>407.7600256</ele>
        <time>2015-07-06T07:35:00.770Z</time>
      </trkpt>
      <trkpt lat="44.4478" lon="2.49156">
        <ele>404.9400064</ele>
        <time>2015-07-06T07:35:03.770Z</time>
      </trkpt>
      <trkpt lat="44.4478" lon="2.49139">
        <ele>401.8200192</ele>
        <time>2015-07-06T07:35:06.770Z</time>
      </trkpt>
      <trkpt lat="44.44781" lon="2.49118">
        <ele>401.9100032</ele>
        <time>2015-07-06T07:35:10.800Z</time>
      </trkpt>
      <trkpt lat="44.44776" lon="2.49103">
        <ele>401</ele>
        <time>2015-07-06T07:35:14.770Z</time>
      </trkpt>
      <trkpt lat="44.44773" lon="2.4909">
        <ele>399</ele>
        <time>2015-07-06T07:35:17.770Z</time>
      </trkpt>
      <trkpt lat="44.44776" lon="2.4907">
        <ele>395.9100032</ele>
        <time>2015-07-06T07:35:21.800Z</time>
      </trkpt>
      <trkpt lat="44.44781" lon="2.49055">
        <ele>393.84</ele>
        <time>2015-07-06T07:35:25.870Z</time>
      </trkpt>
      <trkpt lat="44.44785" lon="2.49038">
        <ele>393</ele>
        <time>2015-07-06T07:35:29.770Z</time>
      </trkpt>
      <trkpt lat="44.44788" lon="2.49024">
        <ele>393</ele>
        <time>2015-07-06T07:35:32.800Z</time>
      </trkpt>
      <trkpt lat="44.44793" lon="2.49009">
        <ele>392</ele>
        <time>2015-07-06T07:35:36.770Z</time>
      </trkpt>
      <trkpt lat="44.44798" lon="2.48992">
        <ele>391.8800128</ele>
        <time>2015-07-06T07:35:40.770Z</time>
      </trkpt>
      <trkpt lat="44.44796" lon="2.48973">
        <ele>390</ele>
        <time>2015-07-06T07:35:44.970Z</time>
      </trkpt>
      <trkpt lat="44.44791" lon="2.48959">
        <ele>388</ele>
        <time>2015-07-06T07:35:46.770Z</time>
      </trkpt>
      <trkpt lat="44.44785" lon="2.48944">
        <ele>388</ele>
        <time>2015-07-06T07:35:49.770Z</time>
      </trkpt>
      <trkpt lat="44.44783" lon="2.48929">
        <ele>386</ele>
        <time>2015-07-06T07:35:52.770Z</time>
      </trkpt>
      <trkpt lat="44.44773" lon="2.48918">
        <ele>380</ele>
        <time>2015-07-06T07:35:56.770Z</time>
      </trkpt>
      <trkpt lat="44.4476" lon="2.48915">
        <ele>380</ele>
        <time>2015-07-06T07:35:59.780Z</time>
      </trkpt>
      <trkpt lat="44.44748" lon="2.48914">
        <ele>371.0599936</ele>
        <time>2015-07-06T07:36:01.770Z</time>
      </trkpt>
      <trkpt lat="44.44738" lon="2.48914">
        <ele>371.9400064</ele>
        <time>2015-07-06T07:36:03.770Z</time>
      </trkpt>
      <trkpt lat="44.44724" lon="2.48913">
        <ele>365</ele>
        <time>2015-07-06T07:36:07.770Z</time>
      </trkpt>
      <trkpt lat="44.44713" lon="2.48914">
        <ele>361.9400064</ele>
        <time>2015-07-06T07:36:10.770Z</time>
      </trkpt>
      <trkpt lat="44.44698" lon="2.48915">
        <ele>358.7600256</ele>
        <time>2015-07-06T07:36:13.770Z</time>
      </trkpt>
      <trkpt lat="44.44686" lon="2.48918">
        <ele>353</ele>
        <time>2015-07-06T07:36:16.770Z</time>
      </trkpt>
      <trkpt lat="44.44677" lon="2.48928">
        <ele>352.08</ele>
        <time>2015-07-06T07:36:19.670Z</time>
      </trkpt>
      <trkpt lat="44.44667" lon="2.4894">
        <ele>351</ele>
        <time>2015-07-06T07:36:22.870Z</time>
      </trkpt>
      <trkpt lat="44.44656" lon="2.48957">
        <ele>346</ele>
        <time>2015-07-06T07:36:28.770Z</time>
      </trkpt>
      <trkpt lat="44.44647" lon="2.48965">
        <ele>345.16</ele>
        <time>2015-07-06T07:36:31.870Z</time>
      </trkpt>
      <trkpt lat="44.44634" lon="2.48979">
        <ele>341.9100032</ele>
        <time>2015-07-06T07:36:35.800Z</time>
      </trkpt>
      <trkpt lat="44.44622" lon="2.48991">
        <ele>340</ele>
        <time>2015-07-06T07:36:38.770Z</time>
      </trkpt>
      <trkpt lat="44.4461" lon="2.49001">
        <ele>340</ele>
        <time>2015-07-06T07:36:41.770Z</time>
      </trkpt>
      <trkpt lat="44.44604" lon="2.48989">
        <ele>336</ele>
        <time>2015-07-06T07:36:45.770Z</time>
      </trkpt>
      <trkpt lat="44.44609" lon="2.48973">
        <ele>334</ele>
        <time>2015-07-06T07:36:48.770Z</time>
      </trkpt>
      <trkpt lat="44.44613" lon="2.48957">
        <ele>333</ele>
        <time>2015-07-06T07:36:51.770Z</time>
      </trkpt>
      <trkpt lat="44.4461" lon="2.48942">
        <ele>332</ele>
        <time>2015-07-06T07:36:59.770Z</time>
      </trkpt>
      <trkpt lat="44.4461" lon="2.48928">
        <ele>331</ele>
        <time>2015-07-06T07:37:04.970Z</time>
      </trkpt>
      <trkpt lat="44.44612" lon="2.48911">
        <ele>331</ele>
        <time>2015-07-06T07:37:08.970Z</time>
      </trkpt>
      <trkpt lat="44.44612" lon="2.48897">
        <ele>331</ele>
        <time>2015-07-06T07:37:11.970Z</time>
      </trkpt>
      <trkpt lat="44.44612" lon="2.48883">
        <ele>331</ele>
        <time>2015-07-06T07:37:14.970Z</time>
      </trkpt>
      <trkpt lat="44.44612" lon="2.48868">
        <ele>331</ele>
        <time>2015-07-06T07:37:17.970Z</time>
      </trkpt>
      <trkpt lat="44.44613" lon="2.48853">
        <ele>330.2200192</ele>
        <time>2015-07-06T07:37:20.970Z</time>
      </trkpt>
      <trkpt lat="44.44616" lon="2.48838">
        <ele>328</ele>
        <time>2015-07-06T07:37:23.970Z</time>
      </trkpt>
      <trkpt lat="44.44618" lon="2.4882">
        <ele>328</ele>
        <time>2015-07-06T07:37:27.970Z</time>
      </trkpt>
      <trkpt lat="44.44621" lon="2.48805">
        <ele>328</ele>
        <time>2015-07-06T07:37:30.970Z</time>
      </trkpt>
      <trkpt lat="44.44623" lon="2.48791">
        <ele>328</ele>
        <time>2015-07-06T07:37:33.970Z</time>
      </trkpt>
      <trkpt lat="44.44625" lon="2.48777">
        <ele>328</ele>
        <time>2015-07-06T07:37:36.970Z</time>
      </trkpt>
      <trkpt lat="44.44628" lon="2.48763">
        <ele>328</ele>
        <time>2015-07-06T07:37:39.970Z</time>
      </trkpt>
      <trkpt lat="44.44634" lon="2.48741">
        <ele>327</ele>
        <time>2015-07-06T07:37:44.800Z</time>
      </trkpt>
      <trkpt lat="44.44638" lon="2.48726">
        <ele>327</ele>
        <time>2015-07-06T07:37:47.970Z</time>
      </trkpt>
      <trkpt lat="44.44644" lon="2.4871">
        <ele>326</ele>
        <time>2015-07-06T07:37:51.800Z</time>
      </trkpt>
      <trkpt lat="44.44648" lon="2.48695">
        <ele>326</ele>
        <time>2015-07-06T07:37:54.970Z</time>
      </trkpt>
      <trkpt lat="44.44649" lon="2.48681">
        <ele>326</ele>
        <time>2015-07-06T07:37:57.770Z</time>
      </trkpt>
      <trkpt lat="44.44652" lon="2.48668">
        <ele>325.9400064</ele>
        <time>2015-07-06T07:38:00.770Z</time>
      </trkpt>
      <trkpt lat="44.44656" lon="2.48649">
        <ele>325</ele>
        <time>2015-07-06T07:38:04.770Z</time>
      </trkpt>
      <trkpt lat="44.44658" lon="2.48634">
        <ele>325</ele>
        <time>2015-07-06T07:38:07.770Z</time>
      </trkpt>
      <trkpt lat="44.4466" lon="2.4862">
        <ele>324.8800128</ele>
        <time>2015-07-06T07:38:10.770Z</time>
      </trkpt>
      <trkpt lat="44.44665" lon="2.48603">
        <ele>323</ele>
        <time>2015-07-06T07:38:14.970Z</time>
      </trkpt>
      <trkpt lat="44.4467" lon="2.48586">
        <ele>323</ele>
        <time>2015-07-06T07:38:18.970Z</time>
      </trkpt>
      <trkpt lat="44.44675" lon="2.48567">
        <ele>322</ele>
        <time>2015-07-06T07:38:22.870Z</time>
      </trkpt>
      <trkpt lat="44.44679" lon="2.48552">
        <ele>322</ele>
        <time>2015-07-06T07:38:25.970Z</time>
      </trkpt>
      <trkpt lat="44.4468" lon="2.48538">
        <ele>322</ele>
        <time>2015-07-06T07:38:28.970Z</time>
      </trkpt>
      <trkpt lat="44.44681" lon="2.48521">
        <ele>320</ele>
        <time>2015-07-06T07:38:32.770Z</time>
      </trkpt>
      <trkpt lat="44.44682" lon="2.48506">
        <ele>320</ele>
        <time>2015-07-06T07:38:35.770Z</time>
      </trkpt>
      <trkpt lat="44.44685" lon="2.48491">
        <ele>320</ele>
        <time>2015-07-06T07:38:38.970Z</time>
      </trkpt>
      <trkpt lat="44.44688" lon="2.48474">
        <ele>318</ele>
        <time>2015-07-06T07:38:42.970Z</time>
      </trkpt>
      <trkpt lat="44.44693" lon="2.48457">
        <ele>318</ele>
        <time>2015-07-06T07:38:46.970Z</time>
      </trkpt>
      <trkpt lat="44.44693" lon="2.4844">
        <ele>321</ele>
        <time>2015-07-06T07:38:51.970Z</time>
      </trkpt>
      <trkpt lat="44.44683" lon="2.48433">
        <ele>321</ele>
        <time>2015-07-06T07:38:54.970Z</time>
      </trkpt>
      <trkpt lat="44.44669" lon="2.48432">
        <ele>321</ele>
        <time>2015-07-06T07:38:59.970Z</time>
      </trkpt>
      <trkpt lat="44.4466" lon="2.48438">
        <ele>315</ele>
        <time>2015-07-06T07:39:01.870Z</time>
      </trkpt>
      <trkpt lat="44.44648" lon="2.48448">
        <ele>314.9400064</ele>
        <time>2015-07-06T07:39:04.770Z</time>
      </trkpt>
      <trkpt lat="44.44637" lon="2.48451">
        <ele>315</ele>
        <time>2015-07-06T07:39:07.780Z</time>
      </trkpt>
      <trkpt lat="44.44626" lon="2.48451">
        <ele>314.9400064</ele>
        <time>2015-07-06T07:39:10.770Z</time>
      </trkpt>
      <trkpt lat="44.44615" lon="2.48452">
        <ele>314</ele>
        <time>2015-07-06T07:39:14.770Z</time>
      </trkpt>
      <trkpt lat="44.44599" lon="2.48454">
        <ele>314</ele>
        <time>2015-07-06T07:39:19.970Z</time>
      </trkpt>
      <trkpt lat="44.44586" lon="2.48458">
        <ele>315</ele>
        <time>2015-07-06T07:39:23.770Z</time>
      </trkpt>
      <trkpt lat="44.44577" lon="2.48467">
        <ele>315</ele>
        <time>2015-07-06T07:39:27.720Z</time>
      </trkpt>
      <trkpt lat="44.44564" lon="2.48469">
        <ele>316</ele>
        <time>2015-07-06T07:39:35.800Z</time>
      </trkpt>
      <trkpt lat="44.44554" lon="2.48473">
        <ele>316</ele>
        <time>2015-07-06T07:39:38.970Z</time>
      </trkpt>
      <trkpt lat="44.4454" lon="2.48476">
        <ele>315</ele>
        <time>2015-07-06T07:39:42.800Z</time>
      </trkpt>
      <trkpt lat="44.44528" lon="2.48484">
        <ele>315</ele>
        <time>2015-07-06T07:39:45.970Z</time>
      </trkpt>
      <trkpt lat="44.44518" lon="2.48485">
        <ele>315</ele>
        <time>2015-07-06T07:39:48.970Z</time>
      </trkpt>
      <trkpt lat="44.44506" lon="2.48485">
        <ele>316</ele>
        <time>2015-07-06T07:39:51.970Z</time>
      </trkpt>
      <trkpt lat="44.44496" lon="2.4848">
        <ele>316</ele>
        <time>2015-07-06T07:39:54.720Z</time>
      </trkpt>
      <trkpt lat="44.44486" lon="2.48472">
        <ele>316</ele>
        <time>2015-07-06T07:39:58.970Z</time>
      </trkpt>
      <trkpt lat="44.44475" lon="2.48465">
        <ele>320</ele>
        <time>2015-07-06T07:40:01.970Z</time>
      </trkpt>
      <trkpt lat="44.44465" lon="2.48461">
        <ele>319.7400064</ele>
        <time>2015-07-06T07:40:05.970Z</time>
      </trkpt>
      <trkpt lat="44.44458" lon="2.48473">
        <ele>319</ele>
        <time>2015-07-06T07:40:08.970Z</time>
      </trkpt>
      <trkpt lat="44.4445" lon="2.48481">
        <ele>319</ele>
        <time>2015-07-06T07:40:11.970Z</time>
      </trkpt>
      <trkpt lat="44.4444" lon="2.48486">
        <ele>319</ele>
        <time>2015-07-06T07:40:14.970Z</time>
      </trkpt>
      <trkpt lat="44.44428" lon="2.48483">
        <ele>319</ele>
        <time>2015-07-06T07:40:18.770Z</time>
      </trkpt>
      <trkpt lat="44.44414" lon="2.48483">
        <ele>320</ele>
        <time>2015-07-06T07:40:22.780Z</time>
      </trkpt>
      <trkpt lat="44.44402" lon="2.48484">
        <ele>320</ele>
        <time>2015-07-06T07:40:25.970Z</time>
      </trkpt>
      <trkpt lat="44.44389" lon="2.48484">
        <ele>320</ele>
        <time>2015-07-06T07:40:29.770Z</time>
      </trkpt>
      <trkpt lat="44.44379" lon="2.48481">
        <ele>321</ele>
        <time>2015-07-06T07:40:32.780Z</time>
      </trkpt>
      <trkpt lat="44.44368" lon="2.4848">
        <ele>321</ele>
        <time>2015-07-06T07:40:35.770Z</time>
      </trkpt>
      <trkpt lat="44.44357" lon="2.48479">
        <ele>321</ele>
        <time>2015-07-06T07:40:39.770Z</time>
      </trkpt>
      <trkpt lat="44.44345" lon="2.48477">
        <ele>321</ele>
        <time>2015-07-06T07:40:43.770Z</time>
      </trkpt>
      <trkpt lat="44.44334" lon="2.48469">
        <ele>321</ele>
        <time>2015-07-06T07:40:47.780Z</time>
      </trkpt>
      <trkpt lat="44.44324" lon="2.48462">
        <ele>323</ele>
        <time>2015-07-06T07:40:51.970Z</time>
      </trkpt>
      <trkpt lat="44.44313" lon="2.48457">
        <ele>323</ele>
        <time>2015-07-06T07:40:54.970Z</time>
      </trkpt>
      <trkpt lat="44.44302" lon="2.48448">
        <ele>323</ele>
        <time>2015-07-06T07:40:59.770Z</time>
      </trkpt>
      <trkpt lat="44.4429" lon="2.48441">
        <ele>322</ele>
        <time>2015-07-06T07:41:03.800Z</time>
      </trkpt>
      <trkpt lat="44.44276" lon="2.48441">
        <ele>322</ele>
        <time>2015-07-06T07:41:07.770Z</time>
      </trkpt>
      <trkpt lat="44.44266" lon="2.48435">
        <ele>322.1400064</ele>
        <time>2015-07-06T07:41:10.780Z</time>
      </trkpt>
      <trkpt lat="44.44255" lon="2.48428">
        <ele>324</ele>
        <time>2015-07-06T07:41:13.720Z</time>
      </trkpt>
      <trkpt lat="44.44243" lon="2.48431">
        <ele>324.5199872</ele>
        <time>2015-07-06T07:41:15.970Z</time>
      </trkpt>
      <trkpt lat="44.44233" lon="2.48422">
        <ele>326</ele>
        <time>2015-07-06T07:41:19.770Z</time>
      </trkpt>
      <trkpt lat="44.44224" lon="2.48417">
        <ele>325</ele>
        <time>2015-07-06T07:41:23.720Z</time>
      </trkpt>
      <trkpt lat="44.44213" lon="2.48416">
        <ele>325</ele>
        <time>2015-07-06T07:41:28.770Z</time>
      </trkpt>
      <trkpt lat="44.44203" lon="2.48421">
        <ele>326</ele>
        <time>2015-07-06T07:41:32.970Z</time>
      </trkpt>
      <trkpt lat="44.44192" lon="2.48426">
        <ele>326</ele>
        <time>2015-07-06T07:41:35.870Z</time>
      </trkpt>
      <trkpt lat="44.44178" lon="2.48419">
        <ele>330</ele>
        <time>2015-07-06T07:41:41.970Z</time>
      </trkpt>
      <trkpt lat="44.44168" lon="2.48415">
        <ele>331</ele>
        <time>2015-07-06T07:41:46.870Z</time>
      </trkpt>
      <trkpt lat="44.44156" lon="2.48407">
        <ele>331</ele>
        <time>2015-07-06T07:41:50.720Z</time>
      </trkpt>
      <trkpt lat="44.44144" lon="2.48397">
        <ele>331</ele>
        <time>2015-07-06T07:41:54.770Z</time>
      </trkpt>
      <trkpt lat="44.44137" lon="2.48387">
        <ele>331</ele>
        <time>2015-07-06T07:41:58.800Z</time>
      </trkpt>
      <trkpt lat="44.44128" lon="2.48375">
        <ele>333</ele>
        <time>2015-07-06T07:42:02.970Z</time>
      </trkpt>
      <trkpt lat="44.44116" lon="2.48366">
        <ele>333</ele>
        <time>2015-07-06T07:42:06.770Z</time>
      </trkpt>
      <trkpt lat="44.4411" lon="2.48353">
        <ele>334</ele>
        <time>2015-07-06T07:42:11.770Z</time>
      </trkpt>
      <trkpt lat="44.44101" lon="2.48343">
        <ele>334</ele>
        <time>2015-07-06T07:42:16.720Z</time>
      </trkpt>
      <trkpt lat="44.44091" lon="2.48349">
        <ele>337</ele>
        <time>2015-07-06T07:42:22.770Z</time>
      </trkpt>
      <trkpt lat="44.4408" lon="2.48356">
        <ele>338</ele>
        <time>2015-07-06T07:42:28.800Z</time>
      </trkpt>
      <trkpt lat="44.44065" lon="2.48363">
        <ele>340</ele>
        <time>2015-07-06T07:42:33.770Z</time>
      </trkpt>
      <trkpt lat="44.44053" lon="2.48367">
        <ele>340</ele>
        <time>2015-07-06T07:42:37.720Z</time>
      </trkpt>
      <trkpt lat="44.44043" lon="2.48372">
        <ele>339.9100032</ele>
        <time>2015-07-06T07:42:40.800Z</time>
      </trkpt>
      <trkpt lat="44.44033" lon="2.48377">
        <ele>339</ele>
        <time>2015-07-06T07:42:43.870Z</time>
      </trkpt>
      <trkpt lat="44.44021" lon="2.48381">
        <ele>339</ele>
        <time>2015-07-06T07:42:47.870Z</time>
      </trkpt>
      <trkpt lat="44.44008" lon="2.48382">
        <ele>339</ele>
        <time>2015-07-06T07:42:51.870Z</time>
      </trkpt>
      <trkpt lat="44.43998" lon="2.48388">
        <ele>339</ele>
        <time>2015-07-06T07:42:55.870Z</time>
      </trkpt>
      <trkpt lat="44.43986" lon="2.4839">
        <ele>338.52</ele>
        <time>2015-07-06T07:43:00.870Z</time>
      </trkpt>
      <trkpt lat="44.43976" lon="2.48396">
        <ele>336</ele>
        <time>2015-07-06T07:43:03.870Z</time>
      </trkpt>
      <trkpt lat="44.43965" lon="2.48403">
        <ele>339</ele>
        <time>2015-07-06T07:43:06.870Z</time>
      </trkpt>
      <trkpt lat="44.43954" lon="2.48409">
        <ele>339.16</ele>
        <time>2015-07-06T07:43:10.870Z</time>
      </trkpt>
      <trkpt lat="44.43944" lon="2.48418">
        <ele>340</ele>
        <time>2015-07-06T07:43:13.870Z</time>
      </trkpt>
      <trkpt lat="44.43933" lon="2.48426">
        <ele>341</ele>
        <time>2015-07-06T07:43:16.870Z</time>
      </trkpt>
      <trkpt lat="44.43924" lon="2.48434">
        <ele>341</ele>
        <time>2015-07-06T07:43:20.870Z</time>
      </trkpt>
      <trkpt lat="44.43914" lon="2.48436">
        <ele>341</ele>
        <time>2015-07-06T07:43:26.870Z</time>
      </trkpt>
      <trkpt lat="44.43902" lon="2.4844">
        <ele>345</ele>
        <time>2015-07-06T07:43:31.870Z</time>
      </trkpt>
      <trkpt lat="44.43892" lon="2.48437">
        <ele>345.48</ele>
        <time>2015-07-06T07:43:35.870Z</time>
      </trkpt>
      <trkpt lat="44.43881" lon="2.48431">
        <ele>348.16</ele>
        <time>2015-07-06T07:43:40.870Z</time>
      </trkpt>
      <trkpt lat="44.4387" lon="2.48433">
        <ele>349</ele>
        <time>2015-07-06T07:43:44.870Z</time>
      </trkpt>
      <trkpt lat="44.4386" lon="2.48431">
        <ele>351</ele>
        <time>2015-07-06T07:43:49.870Z</time>
      </trkpt>
      <trkpt lat="44.43848" lon="2.48436">
        <ele>356</ele>
        <time>2015-07-06T07:43:56.800Z</time>
      </trkpt>
      <trkpt lat="44.43842" lon="2.4845">
        <ele>356</ele>
        <time>2015-07-06T07:43:58.870Z</time>
      </trkpt>
      <trkpt lat="44.43833" lon="2.4846">
        <ele>358</ele>
        <time>2015-07-06T07:44:01.870Z</time>
      </trkpt>
      <trkpt lat="44.43823" lon="2.48464">
        <ele>358</ele>
        <time>2015-07-06T07:44:06.800Z</time>
      </trkpt>
      <trkpt lat="44.43812" lon="2.4847">
        <ele>358</ele>
        <time>2015-07-06T07:44:09.870Z</time>
      </trkpt>
      <trkpt lat="44.438" lon="2.48466">
        <ele>363.2599936</ele>
        <time>2015-07-06T07:44:20.970Z</time>
      </trkpt>
      <trkpt lat="44.4379" lon="2.4846">
        <ele>364.16</ele>
        <time>2015-07-06T07:44:25.870Z</time>
      </trkpt>
      <trkpt lat="44.43779" lon="2.48457">
        <ele>368</ele>
        <time>2015-07-06T07:44:33.800Z</time>
      </trkpt>
      <trkpt lat="44.43769" lon="2.48459">
        <ele>370</ele>
        <time>2015-07-06T07:44:38.870Z</time>
      </trkpt>
      <trkpt lat="44.43759" lon="2.48459">
        <ele>371</ele>
        <time>2015-07-06T07:44:44.970Z</time>
      </trkpt>
      <trkpt lat="44.43749" lon="2.48464">
        <ele>372.7799808</ele>
        <time>2015-07-06T07:44:50.970Z</time>
      </trkpt>
      <trkpt lat="44.43739" lon="2.4847">
        <ele>375.32</ele>
        <time>2015-07-06T07:44:55.870Z</time>
      </trkpt>
      <trkpt lat="44.4373" lon="2.48478">
        <ele>377</ele>
        <time>2015-07-06T07:45:00.870Z</time>
      </trkpt>
      <trkpt lat="44.43722" lon="2.48487">
        <ele>377</ele>
        <time>2015-07-06T07:45:05.770Z</time>
      </trkpt>
      <trkpt lat="44.43713" lon="2.4849">
        <ele>377</ele>
        <time>2015-07-06T07:45:08.770Z</time>
      </trkpt>
      <trkpt lat="44.43696" lon="2.485">
        <ele>377</ele>
        <time>2015-07-06T07:45:13.970Z</time>
      </trkpt>
      <trkpt lat="44.43686" lon="2.48508">
        <ele>377</ele>
        <time>2015-07-06T07:45:16.870Z</time>
      </trkpt>
      <trkpt lat="44.43675" lon="2.48514">
        <ele>377.16</ele>
        <time>2015-07-06T07:45:20.870Z</time>
      </trkpt>
      <trkpt lat="44.4366" lon="2.48519">
        <ele>378</ele>
        <time>2015-07-06T07:45:25.970Z</time>
      </trkpt>
      <trkpt lat="44.4365" lon="2.48522">
        <ele>378.48</ele>
        <time>2015-07-06T07:45:30.870Z</time>
      </trkpt>
      <trkpt lat="44.43639" lon="2.48524">
        <ele>381</ele>
        <time>2015-07-06T07:45:35.870Z</time>
      </trkpt>
      <trkpt lat="44.43628" lon="2.48525">
        <ele>383</ele>
        <time>2015-07-06T07:45:41.870Z</time>
      </trkpt>
      <trkpt lat="44.43618" lon="2.48528">
        <ele>383</ele>
        <time>2015-07-06T07:45:45.800Z</time>
      </trkpt>
      <trkpt lat="44.43609" lon="2.48534">
        <ele>386</ele>
        <time>2015-07-06T07:45:53.870Z</time>
      </trkpt>
      <trkpt lat="44.43597" lon="2.48537">
        <ele>389</ele>
        <time>2015-07-06T07:45:58.970Z</time>
      </trkpt>
      <trkpt lat="44.43587" lon="2.48543">
        <ele>387</ele>
        <time>2015-07-06T07:46:05.970Z</time>
      </trkpt>
      <trkpt lat="44.43579" lon="2.48556">
        <ele>390</ele>
        <time>2015-07-06T07:46:11.870Z</time>
      </trkpt>
      <trkpt lat="44.43571" lon="2.48565">
        <ele>390.64</ele>
        <time>2015-07-06T07:46:15.870Z</time>
      </trkpt>
      <trkpt lat="44.43561" lon="2.48574">
        <ele>394.16</ele>
        <time>2015-07-06T07:46:20.870Z</time>
      </trkpt>
      <trkpt lat="44.43553" lon="2.48585">
        <ele>396</ele>
        <time>2015-07-06T07:46:27.870Z</time>
      </trkpt>
      <trkpt lat="44.43548" lon="2.48599">
        <ele>398.32</ele>
        <time>2015-07-06T07:46:35.870Z</time>
      </trkpt>
      <trkpt lat="44.43543" lon="2.48611">
        <ele>400</ele>
        <time>2015-07-06T07:46:40.870Z</time>
      </trkpt>
      <trkpt lat="44.43536" lon="2.48623">
        <ele>400</ele>
        <time>2015-07-06T07:46:45.870Z</time>
      </trkpt>
      <trkpt lat="44.43534" lon="2.48638">
        <ele>400.32</ele>
        <time>2015-07-06T07:46:50.870Z</time>
      </trkpt>
      <trkpt lat="44.43528" lon="2.4865">
        <ele>402.16</ele>
        <time>2015-07-06T07:46:55.870Z</time>
      </trkpt>
      <trkpt lat="44.43521" lon="2.48662">
        <ele>403.32</ele>
        <time>2015-07-06T07:47:00.870Z</time>
      </trkpt>
      <trkpt lat="44.43519" lon="2.48678">
        <ele>405.16</ele>
        <time>2015-07-06T07:47:05.870Z</time>
      </trkpt>
      <trkpt lat="44.43519" lon="2.48693">
        <ele>406</ele>
        <time>2015-07-06T07:47:10.870Z</time>
      </trkpt>
      <trkpt lat="44.43508" lon="2.48703">
        <ele>406</ele>
        <time>2015-07-06T07:47:14.870Z</time>
      </trkpt>
      <trkpt lat="44.43502" lon="2.48691">
        <ele>406.32</ele>
        <time>2015-07-06T07:47:20.870Z</time>
      </trkpt>
      <trkpt lat="44.43498" lon="2.48676">
        <ele>408</ele>
        <time>2015-07-06T07:47:27.870Z</time>
      </trkpt>
      <trkpt lat="44.4349" lon="2.48665">
        <ele>410</ele>
        <time>2015-07-06T07:47:32.870Z</time>
      </trkpt>
      <trkpt lat="44.43483" lon="2.48655">
        <ele>413</ele>
        <time>2015-07-06T07:47:39.870Z</time>
      </trkpt>
      <trkpt lat="44.43483" lon="2.48641">
        <ele>417.15151789408</ele>
        <time>2015-07-06T07:47:44.870Z</time>
      </trkpt>
      <trkpt lat="44.43483" lon="2.48625">
        <ele>420</ele>
        <time>2015-07-06T07:47:52.870Z</time>
      </trkpt>
      <trkpt lat="44.43484" lon="2.4861">
        <ele>421</ele>
        <time>2015-07-06T07:47:57.870Z</time>
      </trkpt>
      <trkpt lat="44.43479" lon="2.48596">
        <ele>424</ele>
        <time>2015-07-06T07:48:03.870Z</time>
      </trkpt>
      <trkpt lat="44.4347" lon="2.48602">
        <ele>425</ele>
        <time>2015-07-06T07:48:09.720Z</time>
      </trkpt>
      <trkpt lat="44.43464" lon="2.48616">
        <ele>428</ele>
        <time>2015-07-06T07:48:16.970Z</time>
      </trkpt>
      <trkpt lat="44.43465" lon="2.4863">
        <ele>428.7400064</ele>
        <time>2015-07-06T07:48:25.970Z</time>
      </trkpt>
      <trkpt lat="44.43464" lon="2.48644">
        <ele>428</ele>
        <time>2015-07-06T07:48:29.770Z</time>
      </trkpt>
      <trkpt lat="44.43458" lon="2.48657">
        <ele>427</ele>
        <time>2015-07-06T07:48:34.970Z</time>
      </trkpt>
      <trkpt lat="44.43456" lon="2.48673">
        <ele>427</ele>
        <time>2015-07-06T07:48:39.810Z</time>
      </trkpt>
      <trkpt lat="44.43459" lon="2.48687">
        <ele>427</ele>
        <time>2015-07-06T07:48:42.870Z</time>
      </trkpt>
      <trkpt lat="44.43463" lon="2.48704">
        <ele>427</ele>
        <time>2015-07-06T07:48:46.870Z</time>
      </trkpt>
      <trkpt lat="44.43465" lon="2.4872">
        <ele>427</ele>
        <time>2015-07-06T07:48:49.870Z</time>
      </trkpt>
      <trkpt lat="44.43466" lon="2.48735">
        <ele>425</ele>
        <time>2015-07-06T07:48:52.870Z</time>
      </trkpt>
      <trkpt lat="44.43468" lon="2.48748">
        <ele>424.84</ele>
        <time>2015-07-06T07:48:55.870Z</time>
      </trkpt>
      <trkpt lat="44.43469" lon="2.48762">
        <ele>424</ele>
        <time>2015-07-06T07:48:59.870Z</time>
      </trkpt>
      <trkpt lat="44.43466" lon="2.48781">
        <ele>425</ele>
        <time>2015-07-06T07:49:03.880Z</time>
      </trkpt>
      <trkpt lat="44.4346" lon="2.48793">
        <ele>425</ele>
        <time>2015-07-06T07:49:06.870Z</time>
      </trkpt>
      <trkpt lat="44.43455" lon="2.48806">
        <ele>425</ele>
        <time>2015-07-06T07:49:09.870Z</time>
      </trkpt>
      <trkpt lat="44.43455" lon="2.48825">
        <ele>423</ele>
        <time>2015-07-06T07:49:13.880Z</time>
      </trkpt>
      <trkpt lat="44.43455" lon="2.48843">
        <ele>423</ele>
        <time>2015-07-06T07:49:17.870Z</time>
      </trkpt>
      <trkpt lat="44.43451" lon="2.48856">
        <ele>424</ele>
        <time>2015-07-06T07:49:21.870Z</time>
      </trkpt>
      <trkpt lat="44.43448" lon="2.48871">
        <ele>424</ele>
        <time>2015-07-06T07:49:26.970Z</time>
      </trkpt>
      <trkpt lat="44.4344" lon="2.48882">
        <ele>426</ele>
        <time>2015-07-06T07:49:31.970Z</time>
      </trkpt>
      <trkpt lat="44.43432" lon="2.4889">
        <ele>426</ele>
        <time>2015-07-06T07:49:39.970Z</time>
      </trkpt>
      <trkpt lat="44.43422" lon="2.48893">
        <ele>427</ele>
        <time>2015-07-06T07:49:49.970Z</time>
      </trkpt>
      <trkpt lat="44.43415" lon="2.48903">
        <ele>426</ele>
        <time>2015-07-06T07:49:58.970Z</time>
      </trkpt>
      <trkpt lat="44.43405" lon="2.48907">
        <ele>423</ele>
        <time>2015-07-06T07:50:04.970Z</time>
      </trkpt>
      <trkpt lat="44.43395" lon="2.48914">
        <ele>425.56</ele>
        <time>2015-07-06T07:50:10.990Z</time>
      </trkpt>
      <trkpt lat="44.43384" lon="2.48925">
        <ele>428.2599936</ele>
        <time>2015-07-06T07:50:30.970Z</time>
      </trkpt>
      <trkpt lat="44.43378" lon="2.48939">
        <ele>429</ele>
        <time>2015-07-06T07:50:37.970Z</time>
      </trkpt>
      <trkpt lat="44.43372" lon="2.4895">
        <ele>432</ele>
        <time>2015-07-06T07:50:43.970Z</time>
      </trkpt>
      <trkpt lat="44.43361" lon="2.48952">
        <ele>435</ele>
        <time>2015-07-06T07:50:48.970Z</time>
      </trkpt>
      <trkpt lat="44.43351" lon="2.48948">
        <ele>435.7799808</ele>
        <time>2015-07-06T07:50:55.970Z</time>
      </trkpt>
      <trkpt lat="44.43341" lon="2.48951">
        <ele>442</ele>
        <time>2015-07-06T07:51:02.970Z</time>
      </trkpt>
      <trkpt lat="44.43329" lon="2.48961">
        <ele>444</ele>
        <time>2015-07-06T07:51:13.970Z</time>
      </trkpt>
      <trkpt lat="44.43319" lon="2.4896">
        <ele>447</ele>
        <time>2015-07-06T07:51:22.970Z</time>
      </trkpt>
      <trkpt lat="44.43313" lon="2.48949">
        <ele>448.5199872</ele>
        <time>2015-07-06T07:51:30.970Z</time>
      </trkpt>
      <trkpt lat="44.43303" lon="2.48955">
        <ele>451</ele>
        <time>2015-07-06T07:51:39.970Z</time>
      </trkpt>
      <trkpt lat="44.43292" lon="2.4896">
        <ele>449</ele>
        <time>2015-07-06T07:51:46.970Z</time>
      </trkpt>
      <trkpt lat="44.4328" lon="2.4896">
        <ele>450</ele>
        <time>2015-07-06T07:51:55.970Z</time>
      </trkpt>
      <trkpt lat="44.4327" lon="2.48962">
        <ele>453</ele>
        <time>2015-07-06T07:52:02.970Z</time>
      </trkpt>
      <trkpt lat="44.43258" lon="2.48968">
        <ele>456.2599936</ele>
        <time>2015-07-06T07:52:15.970Z</time>
      </trkpt>
      <trkpt lat="44.43258" lon="2.48953">
        <ele>458.50504240794</ele>
        <time>2015-07-06T07:52:25.970Z</time>
      </trkpt>
      <trkpt lat="44.43249" lon="2.48961">
        <ele>463</ele>
        <time>2015-07-06T07:52:41.990Z</time>
      </trkpt>
      <trkpt lat="44.4325" lon="2.48977">
        <ele>462</ele>
        <time>2015-07-06T07:53:28.970Z</time>
      </trkpt>
      <trkpt lat="44.43258" lon="2.48989">
        <ele>463</ele>
        <time>2015-07-06T07:53:37.970Z</time>
      </trkpt>
      <trkpt lat="44.43268" lon="2.48996">
        <ele>467</ele>
        <time>2015-07-06T07:53:43.970Z</time>
      </trkpt>
      <trkpt lat="44.43275" lon="2.49007">
        <ele>470</ele>
        <time>2015-07-06T07:53:52.970Z</time>
      </trkpt>
      <trkpt lat="44.43273" lon="2.49022">
        <ele>473.5199872</ele>
        <time>2015-07-06T07:54:00.970Z</time>
      </trkpt>
      <trkpt lat="44.43277" lon="2.49035">
        <ele>476</ele>
        <time>2015-07-06T07:54:08.970Z</time>
      </trkpt>
      <trkpt lat="44.43269" lon="2.49047">
        <ele>479</ele>
        <time>2015-07-06T07:54:16.970Z</time>
      </trkpt>
      <trkpt lat="44.4326" lon="2.49042">
        <ele>481</ele>
        <time>2015-07-06T07:54:21.970Z</time>
      </trkpt>
      <trkpt lat="44.4325" lon="2.49034">
        <ele>483</ele>
        <time>2015-07-06T07:54:27.970Z</time>
      </trkpt>
      <trkpt lat="44.4324" lon="2.49028">
        <ele>484</ele>
        <time>2015-07-06T07:54:33.790Z</time>
      </trkpt>
      <trkpt lat="44.43229" lon="2.49027">
        <ele>486</ele>
        <time>2015-07-06T07:54:39.970Z</time>
      </trkpt>
      <trkpt lat="44.43222" lon="2.49018">
        <ele>487.2599936</ele>
        <time>2015-07-06T07:54:45.970Z</time>
      </trkpt>
      <trkpt lat="44.43213" lon="2.49004">
        <ele>490</ele>
        <time>2015-07-06T07:54:53.970Z</time>
      </trkpt>
      <trkpt lat="44.43218" lon="2.49018">
        <ele>493</ele>
        <time>2015-07-06T07:55:02.870Z</time>
      </trkpt>
      <trkpt lat="44.4322" lon="2.49033">
        <ele>494</ele>
        <time>2015-07-06T07:55:08.890Z</time>
      </trkpt>
      <trkpt lat="44.43225" lon="2.49046">
        <ele>497</ele>
        <time>2015-07-06T07:55:14.870Z</time>
      </trkpt>
      <trkpt lat="44.43232" lon="2.49055">
        <ele>498</ele>
        <time>2015-07-06T07:55:19.870Z</time>
      </trkpt>
      <trkpt lat="44.43239" lon="2.49066">
        <ele>498</ele>
        <time>2015-07-06T07:55:25.870Z</time>
      </trkpt>
      <trkpt lat="44.43229" lon="2.49063">
        <ele>499</ele>
        <time>2015-07-06T07:55:31.770Z</time>
      </trkpt>
      <trkpt lat="44.43219" lon="2.49053">
        <ele>499</ele>
        <time>2015-07-06T07:55:35.770Z</time>
      </trkpt>
      <trkpt lat="44.4321" lon="2.49043">
        <ele>499</ele>
        <time>2015-07-06T07:55:39.770Z</time>
      </trkpt>
      <trkpt lat="44.43206" lon="2.49029">
        <ele>498</ele>
        <time>2015-07-06T07:55:43.770Z</time>
      </trkpt>
      <trkpt lat="44.43198" lon="2.49016">
        <ele>498</ele>
        <time>2015-07-06T07:55:48.720Z</time>
      </trkpt>
      <trkpt lat="44.4319" lon="2.49009">
        <ele>497</ele>
        <time>2015-07-06T07:55:53.970Z</time>
      </trkpt>
      <trkpt lat="44.43182" lon="2.48997">
        <ele>497</ele>
        <time>2015-07-06T07:55:57.970Z</time>
      </trkpt>
      <trkpt lat="44.43176" lon="2.48986">
        <ele>495.9200384</ele>
        <time>2015-07-06T07:56:00.980Z</time>
      </trkpt>
      <trkpt lat="44.43165" lon="2.48975">
        <ele>493</ele>
        <time>2015-07-06T07:56:04.970Z</time>
      </trkpt>
      <trkpt lat="44.43158" lon="2.48962">
        <ele>492</ele>
        <time>2015-07-06T07:56:08.970Z</time>
      </trkpt>
      <trkpt lat="44.43155" lon="2.48949">
        <ele>488</ele>
        <time>2015-07-06T07:56:12.970Z</time>
      </trkpt>
      <trkpt lat="44.43148" lon="2.48936">
        <ele>485</ele>
        <time>2015-07-06T07:56:16.970Z</time>
      </trkpt>
      <trkpt lat="44.4314" lon="2.48927">
        <ele>485</ele>
        <time>2015-07-06T07:56:19.970Z</time>
      </trkpt>
      <trkpt lat="44.4313" lon="2.48917">
        <ele>482</ele>
        <time>2015-07-06T07:56:22.970Z</time>
      </trkpt>
      <trkpt lat="44.4312" lon="2.4891">
        <ele>481</ele>
        <time>2015-07-06T07:56:26.770Z</time>
      </trkpt>
      <trkpt lat="44.4311" lon="2.48899">
        <ele>479</ele>
        <time>2015-07-06T07:56:30.720Z</time>
      </trkpt>
      <trkpt lat="44.43101" lon="2.48892">
        <ele>479</ele>
        <time>2015-07-06T07:56:33.770Z</time>
      </trkpt>
      <trkpt lat="44.43093" lon="2.48882">
        <ele>477</ele>
        <time>2015-07-06T07:56:37.720Z</time>
      </trkpt>
      <trkpt lat="44.43084" lon="2.48873">
        <ele>476.9400064</ele>
        <time>2015-07-06T07:56:40.770Z</time>
      </trkpt>
      <trkpt lat="44.43076" lon="2.48865">
        <ele>476</ele>
        <time>2015-07-06T07:56:43.770Z</time>
      </trkpt>
      <trkpt lat="44.43067" lon="2.48856">
        <ele>476</ele>
        <time>2015-07-06T07:56:48.770Z</time>
      </trkpt>
      <trkpt lat="44.43053" lon="2.48843">
        <ele>477</ele>
        <time>2015-07-06T07:56:55.970Z</time>
      </trkpt>
      <trkpt lat="44.43042" lon="2.48839">
        <ele>477</ele>
        <time>2015-07-06T07:56:58.870Z</time>
      </trkpt>
      <trkpt lat="44.4303" lon="2.48832">
        <ele>481</ele>
        <time>2015-07-06T07:57:03.770Z</time>
      </trkpt>
      <trkpt lat="44.43023" lon="2.48819">
        <ele>481</ele>
        <time>2015-07-06T07:57:07.770Z</time>
      </trkpt>
      <trkpt lat="44.43022" lon="2.48802">
        <ele>481</ele>
        <time>2015-07-06T07:57:11.720Z</time>
      </trkpt>
      <trkpt lat="44.43013" lon="2.48794">
        <ele>481</ele>
        <time>2015-07-06T07:57:14.970Z</time>
      </trkpt>
      <trkpt lat="44.43004" lon="2.4879">
        <ele>481</ele>
        <time>2015-07-06T07:57:18.770Z</time>
      </trkpt>
      <trkpt lat="44.42994" lon="2.48784">
        <ele>482</ele>
        <time>2015-07-06T07:57:22.980Z</time>
      </trkpt>
      <trkpt lat="44.42977" lon="2.48779">
        <ele>482</ele>
        <time>2015-07-06T07:57:28.970Z</time>
      </trkpt>
      <trkpt lat="44.42967" lon="2.48773">
        <ele>484</ele>
        <time>2015-07-06T07:57:32.870Z</time>
      </trkpt>
      <trkpt lat="44.42955" lon="2.48771">
        <ele>484</ele>
        <time>2015-07-06T07:57:37.870Z</time>
      </trkpt>
      <trkpt lat="44.42945" lon="2.48769">
        <ele>486</ele>
        <time>2015-07-06T07:57:46.870Z</time>
      </trkpt>
      <trkpt lat="44.42935" lon="2.48771">
        <ele>489</ele>
        <time>2015-07-06T07:57:52.870Z</time>
      </trkpt>
      <trkpt lat="44.42925" lon="2.48772">
        <ele>491</ele>
        <time>2015-07-06T07:57:57.800Z</time>
      </trkpt>
      <trkpt lat="44.42913" lon="2.48775">
        <ele>493</ele>
        <time>2015-07-06T07:58:01.770Z</time>
      </trkpt>
      <trkpt lat="44.42901" lon="2.48778">
        <ele>494</ele>
        <time>2015-07-06T07:58:06.770Z</time>
      </trkpt>
      <trkpt lat="44.4289" lon="2.48778">
        <ele>494</ele>
        <time>2015-07-06T07:58:09.770Z</time>
      </trkpt>
      <trkpt lat="44.42879" lon="2.48777">
        <ele>493</ele>
        <time>2015-07-06T07:58:12.770Z</time>
      </trkpt>
      <trkpt lat="44.42867" lon="2.48778">
        <ele>493</ele>
        <time>2015-07-06T07:58:16.770Z</time>
      </trkpt>
      <trkpt lat="44.4286" lon="2.4879">
        <ele>492.8200192</ele>
        <time>2015-07-06T07:58:20.770Z</time>
      </trkpt>
      <trkpt lat="44.42854" lon="2.48802">
        <ele>489.8200192</ele>
        <time>2015-07-06T07:58:25.770Z</time>
      </trkpt>
      <trkpt lat="44.42844" lon="2.48805">
        <ele>487</ele>
        <time>2015-07-06T07:58:29.780Z</time>
      </trkpt>
      <trkpt lat="44.42834" lon="2.48809">
        <ele>487</ele>
        <time>2015-07-06T07:58:34.870Z</time>
      </trkpt>
      <trkpt lat="44.42823" lon="2.48817">
        <ele>489</ele>
        <time>2015-07-06T07:58:38.870Z</time>
      </trkpt>
      <trkpt lat="44.42811" lon="2.48824">
        <ele>489</ele>
        <time>2015-07-06T07:58:42.870Z</time>
      </trkpt>
      <trkpt lat="44.428" lon="2.48832">
        <ele>489</ele>
        <time>2015-07-06T07:58:47.870Z</time>
      </trkpt>
      <trkpt lat="44.4279" lon="2.48836">
        <ele>489</ele>
        <time>2015-07-06T07:58:51.870Z</time>
      </trkpt>
      <trkpt lat="44.4278" lon="2.48836">
        <ele>489</ele>
        <time>2015-07-06T07:58:55.870Z</time>
      </trkpt>
      <trkpt lat="44.42768" lon="2.48837">
        <ele>489.32</ele>
        <time>2015-07-06T07:59:00.870Z</time>
      </trkpt>
      <trkpt lat="44.42758" lon="2.48844">
        <ele>491</ele>
        <time>2015-07-06T07:59:05.800Z</time>
      </trkpt>
      <trkpt lat="44.42746" lon="2.48849">
        <ele>491</ele>
        <time>2015-07-06T07:59:10.870Z</time>
      </trkpt>
      <trkpt lat="44.42736" lon="2.48853">
        <ele>491</ele>
        <time>2015-07-06T07:59:13.870Z</time>
      </trkpt>
      <trkpt lat="44.42724" lon="2.48859">
        <ele>491</ele>
        <time>2015-07-06T07:59:18.870Z</time>
      </trkpt>
      <trkpt lat="44.42712" lon="2.48862">
        <ele>492</ele>
        <time>2015-07-06T07:59:22.870Z</time>
      </trkpt>
      <trkpt lat="44.42703" lon="2.48868">
        <ele>492</ele>
        <time>2015-07-06T07:59:26.870Z</time>
      </trkpt>
      <trkpt lat="44.42689" lon="2.4887">
        <ele>494</ele>
        <time>2015-07-06T07:59:31.870Z</time>
      </trkpt>
      <trkpt lat="44.42676" lon="2.48875">
        <ele>494.15151789408</ele>
        <time>2015-07-06T07:59:35.870Z</time>
      </trkpt>
      <trkpt lat="44.42665" lon="2.48877">
        <ele>495</ele>
        <time>2015-07-06T07:59:38.870Z</time>
      </trkpt>
      <trkpt lat="44.42655" lon="2.4888">
        <ele>496</ele>
        <time>2015-07-06T07:59:42.870Z</time>
      </trkpt>
      <trkpt lat="44.42643" lon="2.48878">
        <ele>496</ele>
        <time>2015-07-06T07:59:47.870Z</time>
      </trkpt>
      <trkpt lat="44.42634" lon="2.48869">
        <ele>500</ele>
        <time>2015-07-06T07:59:53.870Z</time>
      </trkpt>
      <trkpt lat="44.42627" lon="2.4886">
        <ele>501.1799936</ele>
        <time>2015-07-06T08:00:00.800Z</time>
      </trkpt>
      <trkpt lat="44.42615" lon="2.4886">
        <ele>504</ele>
        <time>2015-07-06T08:00:09.870Z</time>
      </trkpt>
      <trkpt lat="44.42603" lon="2.48864">
        <ele>505</ele>
        <time>2015-07-06T08:00:14.870Z</time>
      </trkpt>
      <trkpt lat="44.42593" lon="2.48868">
        <ele>505</ele>
        <time>2015-07-06T08:00:17.870Z</time>
      </trkpt>
      <trkpt lat="44.42583" lon="2.48874">
        <ele>506</ele>
        <time>2015-07-06T08:00:21.870Z</time>
      </trkpt>
      <trkpt lat="44.42571" lon="2.48876">
        <ele>506</ele>
        <time>2015-07-06T08:00:25.870Z</time>
      </trkpt>
      <trkpt lat="44.42558" lon="2.48874">
        <ele>506</ele>
        <time>2015-07-06T08:00:32.870Z</time>
      </trkpt>
      <trkpt lat="44.42559" lon="2.48858">
        <ele>506</ele>
        <time>2015-07-06T08:00:35.870Z</time>
      </trkpt>
      <trkpt lat="44.42553" lon="2.48845">
        <ele>506</ele>
        <time>2015-07-06T08:00:39.870Z</time>
      </trkpt>
      <trkpt lat="44.42544" lon="2.48836">
        <ele>506</ele>
        <time>2015-07-06T08:00:44.870Z</time>
      </trkpt>
      <trkpt lat="44.42532" lon="2.48836">
        <ele>506</ele>
        <time>2015-07-06T08:00:47.870Z</time>
      </trkpt>
      <trkpt lat="44.42522" lon="2.4883">
        <ele>506</ele>
        <time>2015-07-06T08:00:51.880Z</time>
      </trkpt>
      <trkpt lat="44.42513" lon="2.48819">
        <ele>506</ele>
        <time>2015-07-06T08:00:56.970Z</time>
      </trkpt>
      <trkpt lat="44.42503" lon="2.48813">
        <ele>506</ele>
        <time>2015-07-06T08:01:00.970Z</time>
      </trkpt>
      <trkpt lat="44.42493" lon="2.48811">
        <ele>506</ele>
        <time>2015-07-06T08:01:05.970Z</time>
      </trkpt>
      <trkpt lat="44.42483" lon="2.48803">
        <ele>508</ele>
        <time>2015-07-06T08:01:11.970Z</time>
      </trkpt>
      <trkpt lat="44.42472" lon="2.48797">
        <ele>508.5199872</ele>
        <time>2015-07-06T08:01:15.970Z</time>
      </trkpt>
      <trkpt lat="44.4246" lon="2.48794">
        <ele>510</ele>
        <time>2015-07-06T08:01:19.970Z</time>
      </trkpt>
      <trkpt lat="44.42453" lon="2.48785">
        <ele>511.2599936</ele>
        <time>2015-07-06T08:01:25.970Z</time>
      </trkpt>
      <trkpt lat="44.42444" lon="2.48773">
        <ele>514</ele>
        <time>2015-07-06T08:01:33.970Z</time>
      </trkpt>
      <trkpt lat="44.42434" lon="2.48771">
        <ele>516</ele>
        <time>2015-07-06T08:01:36.870Z</time>
      </trkpt>
      <trkpt lat="44.42424" lon="2.48773">
        <ele>516</ele>
        <time>2015-07-06T08:01:41.870Z</time>
      </trkpt>
      <trkpt lat="44.42412" lon="2.48777">
        <ele>516</ele>
        <time>2015-07-06T08:01:46.870Z</time>
      </trkpt>
      <trkpt lat="44.42402" lon="2.48778">
        <ele>518</ele>
        <time>2015-07-06T08:01:51.770Z</time>
      </trkpt>
      <trkpt lat="44.42391" lon="2.48782">
        <ele>518</ele>
        <time>2015-07-06T08:01:56.870Z</time>
      </trkpt>
      <trkpt lat="44.4238" lon="2.48785">
        <ele>518</ele>
        <time>2015-07-06T08:02:02.870Z</time>
      </trkpt>
      <trkpt lat="44.42368" lon="2.48789">
        <ele>518</ele>
        <time>2015-07-06T08:02:07.770Z</time>
      </trkpt>
      <trkpt lat="44.42358" lon="2.48788">
        <ele>519</ele>
        <time>2015-07-06T08:02:11.770Z</time>
      </trkpt>
      <trkpt lat="44.42351" lon="2.48775">
        <ele>519</ele>
        <time>2015-07-06T08:02:15.770Z</time>
      </trkpt>
      <trkpt lat="44.4235" lon="2.48759">
        <ele>519</ele>
        <time>2015-07-06T08:02:19.970Z</time>
      </trkpt>
      <trkpt lat="44.42344" lon="2.48744">
        <ele>521</ele>
        <time>2015-07-06T08:02:22.770Z</time>
      </trkpt>
      <trkpt lat="44.4234" lon="2.48728">
        <ele>523</ele>
        <time>2015-07-06T08:02:27.970Z</time>
      </trkpt>
      <trkpt lat="44.42337" lon="2.48714">
        <ele>521</ele>
        <time>2015-07-06T08:02:31.770Z</time>
      </trkpt>
      <trkpt lat="44.42337" lon="2.48696">
        <ele>521</ele>
        <time>2015-07-06T08:02:36.720Z</time>
      </trkpt>
      <trkpt lat="44.42336" lon="2.4868">
        <ele>521.1400064</ele>
        <time>2015-07-06T08:02:40.780Z</time>
      </trkpt>
      <trkpt lat="44.42339" lon="2.48664">
        <ele>523</ele>
        <time>2015-07-06T08:02:46.720Z</time>
      </trkpt>
      <trkpt lat="44.4234" lon="2.48649">
        <ele>523.1799808</ele>
        <time>2015-07-06T08:02:50.770Z</time>
      </trkpt>
      <trkpt lat="44.4234" lon="2.48633">
        <ele>526</ele>
        <time>2015-07-06T08:02:54.770Z</time>
      </trkpt>
      <trkpt lat="44.42341" lon="2.48616">
        <ele>527</ele>
        <time>2015-07-06T08:02:58.770Z</time>
      </trkpt>
      <trkpt lat="44.42349" lon="2.48598">
        <ele>528</ele>
        <time>2015-07-06T08:03:04.770Z</time>
      </trkpt>
      <trkpt lat="44.42349" lon="2.48583">
        <ele>528</ele>
        <time>2015-07-06T08:03:09.870Z</time>
      </trkpt>
      <trkpt lat="44.42353" lon="2.48569">
        <ele>530</ele>
        <time>2015-07-06T08:03:13.870Z</time>
      </trkpt>
      <trkpt lat="44.42355" lon="2.48554">
        <ele>530</ele>
        <time>2015-07-06T08:03:17.870Z</time>
      </trkpt>
      <trkpt lat="44.42355" lon="2.48539">
        <ele>533</ele>
        <time>2015-07-06T08:03:22.870Z</time>
      </trkpt>
      <trkpt lat="44.42355" lon="2.48522">
        <ele>534</ele>
        <time>2015-07-06T08:03:27.870Z</time>
      </trkpt>
      <trkpt lat="44.42356" lon="2.48505">
        <ele>536</ele>
        <time>2015-07-06T08:03:32.800Z</time>
      </trkpt>
      <trkpt lat="44.42364" lon="2.4849">
        <ele>537</ele>
        <time>2015-07-06T08:03:36.870Z</time>
      </trkpt>
      <trkpt lat="44.4237" lon="2.48474">
        <ele>538</ele>
        <time>2015-07-06T08:03:41.870Z</time>
      </trkpt>
      <trkpt lat="44.42374" lon="2.48462">
        <ele>538</ele>
        <time>2015-07-06T08:03:45.870Z</time>
      </trkpt>
      <trkpt lat="44.42378" lon="2.48447">
        <ele>538.16</ele>
        <time>2015-07-06T08:03:50.870Z</time>
      </trkpt>
      <trkpt lat="44.42384" lon="2.48433">
        <ele>539</ele>
        <time>2015-07-06T08:03:55.870Z</time>
      </trkpt>
      <trkpt lat="44.42389" lon="2.4842">
        <ele>539</ele>
        <time>2015-07-06T08:03:59.870Z</time>
      </trkpt>
      <trkpt lat="44.42393" lon="2.48406">
        <ele>543.32</ele>
        <time>2015-07-06T08:04:05.870Z</time>
      </trkpt>
      <trkpt lat="44.42397" lon="2.4839">
        <ele>545.16</ele>
        <time>2015-07-06T08:04:10.870Z</time>
      </trkpt>
      <trkpt lat="44.42404" lon="2.48379">
        <ele>546.16</ele>
        <time>2015-07-06T08:04:15.870Z</time>
      </trkpt>
      <trkpt lat="44.42411" lon="2.48367">
        <ele>547.16</ele>
        <time>2015-07-06T08:04:20.870Z</time>
      </trkpt>
      <trkpt lat="44.42417" lon="2.48352">
        <ele>548</ele>
        <time>2015-07-06T08:04:27.870Z</time>
      </trkpt>
      <trkpt lat="44.42422" lon="2.48338">
        <ele>550</ele>
        <time>2015-07-06T08:04:32.870Z</time>
      </trkpt>
      <trkpt lat="44.42428" lon="2.48326">
        <ele>553</ele>
        <time>2015-07-06T08:04:37.870Z</time>
      </trkpt>
      <trkpt lat="44.42435" lon="2.48317">
        <ele>556.16</ele>
        <time>2015-07-06T08:04:42.870Z</time>
      </trkpt>
      <trkpt lat="44.42441" lon="2.48305">
        <ele>559.84</ele>
        <time>2015-07-06T08:04:47.870Z</time>
      </trkpt>
      <trkpt lat="44.42449" lon="2.48293">
        <ele>564.16</ele>
        <time>2015-07-06T08:04:52.870Z</time>
      </trkpt>
      <trkpt lat="44.42457" lon="2.48281">
        <ele>566</ele>
        <time>2015-07-06T08:04:57.870Z</time>
      </trkpt>
      <trkpt lat="44.42465" lon="2.48272">
        <ele>566</ele>
        <time>2015-07-06T08:05:01.870Z</time>
      </trkpt>
      <trkpt lat="44.42473" lon="2.48261">
        <ele>568</ele>
        <time>2015-07-06T08:05:06.870Z</time>
      </trkpt>
      <trkpt lat="44.4248" lon="2.48249">
        <ele>569</ele>
        <time>2015-07-06T08:05:12.870Z</time>
      </trkpt>
      <trkpt lat="44.42488" lon="2.48238">
        <ele>572</ele>
        <time>2015-07-06T08:05:18.870Z</time>
      </trkpt>
      <trkpt lat="44.42497" lon="2.4823">
        <ele>575.16</ele>
        <time>2015-07-06T08:05:23.870Z</time>
      </trkpt>
      <trkpt lat="44.42502" lon="2.48214">
        <ele>577</ele>
        <time>2015-07-06T08:05:29.770Z</time>
      </trkpt>
      <trkpt lat="44.42506" lon="2.48199">
        <ele>577</ele>
        <time>2015-07-06T08:05:34.870Z</time>
      </trkpt>
      <trkpt lat="44.42506" lon="2.48185">
        <ele>577</ele>
        <time>2015-07-06T08:05:38.790Z</time>
      </trkpt>
      <trkpt lat="44.42511" lon="2.4817">
        <ele>578</ele>
        <time>2015-07-06T08:05:43.870Z</time>
      </trkpt>
      <trkpt lat="44.4252" lon="2.48163">
        <ele>579</ele>
        <time>2015-07-06T08:05:47.870Z</time>
      </trkpt>
      <trkpt lat="44.4253" lon="2.48162">
        <ele>579</ele>
        <time>2015-07-06T08:05:51.870Z</time>
      </trkpt>
      <trkpt lat="44.42541" lon="2.48161">
        <ele>579</ele>
        <time>2015-07-06T08:05:55.890Z</time>
      </trkpt>
      <trkpt lat="44.4255" lon="2.48157">
        <ele>580</ele>
        <time>2015-07-06T08:05:58.870Z</time>
      </trkpt>
      <trkpt lat="44.4256" lon="2.48158">
        <ele>579</ele>
        <time>2015-07-06T08:06:01.770Z</time>
      </trkpt>
      <trkpt lat="44.4257" lon="2.48161">
        <ele>579</ele>
        <time>2015-07-06T08:06:04.770Z</time>
      </trkpt>
      <trkpt lat="44.42583" lon="2.48164">
        <ele>579</ele>
        <time>2015-07-06T08:06:08.720Z</time>
      </trkpt>
      <trkpt lat="44.42594" lon="2.48163">
        <ele>576</ele>
        <time>2015-07-06T08:06:11.770Z</time>
      </trkpt>
      <trkpt lat="44.42605" lon="2.48164">
        <ele>576</ele>
        <time>2015-07-06T08:06:14.870Z</time>
      </trkpt>
      <trkpt lat="44.42617" lon="2.48163">
        <ele>574</ele>
        <time>2015-07-06T08:06:18.770Z</time>
      </trkpt>
      <trkpt lat="44.42628" lon="2.48161">
        <ele>573</ele>
        <time>2015-07-06T08:06:21.720Z</time>
      </trkpt>
      <trkpt lat="44.42636" lon="2.48152">
        <ele>574</ele>
        <time>2015-07-06T08:06:24.770Z</time>
      </trkpt>
      <trkpt lat="44.42646" lon="2.48145">
        <ele>573</ele>
        <time>2015-07-06T08:06:28.870Z</time>
      </trkpt>
      <trkpt lat="44.42656" lon="2.48132">
        <ele>572</ele>
        <time>2015-07-06T08:06:32.770Z</time>
      </trkpt>
      <trkpt lat="44.42666" lon="2.48121">
        <ele>572</ele>
        <time>2015-07-06T08:06:36.870Z</time>
      </trkpt>
      <trkpt lat="44.42676" lon="2.48111">
        <ele>571.8415836565</ele>
        <time>2015-07-06T08:06:40.870Z</time>
      </trkpt>
      <trkpt lat="44.42686" lon="2.48101">
        <ele>571</ele>
        <time>2015-07-06T08:06:45.870Z</time>
      </trkpt>
      <trkpt lat="44.42695" lon="2.4809">
        <ele>571</ele>
        <time>2015-07-06T08:06:49.870Z</time>
      </trkpt>
      <trkpt lat="44.42702" lon="2.48079">
        <ele>571</ele>
        <time>2015-07-06T08:06:52.870Z</time>
      </trkpt>
      <trkpt lat="44.42709" lon="2.48067">
        <ele>571</ele>
        <time>2015-07-06T08:06:56.770Z</time>
      </trkpt>
      <trkpt lat="44.42715" lon="2.48055">
        <ele>572</ele>
        <time>2015-07-06T08:06:59.750Z</time>
      </trkpt>
      <trkpt lat="44.42722" lon="2.48043">
        <ele>571</ele>
        <time>2015-07-06T08:07:02.980Z</time>
      </trkpt>
      <trkpt lat="44.4273" lon="2.48033">
        <ele>571</ele>
        <time>2015-07-06T08:07:05.770Z</time>
      </trkpt>
      <trkpt lat="44.42737" lon="2.48023">
        <ele>571</ele>
        <time>2015-07-06T08:07:08.870Z</time>
      </trkpt>
      <trkpt lat="44.42744" lon="2.48013">
        <ele>570</ele>
        <time>2015-07-06T08:07:11.870Z</time>
      </trkpt>
      <trkpt lat="44.42753" lon="2.47999">
        <ele>570</ele>
        <time>2015-07-06T08:07:15.870Z</time>
      </trkpt>
      <trkpt lat="44.42761" lon="2.47985">
        <ele>570</ele>
        <time>2015-07-06T08:07:19.870Z</time>
      </trkpt>
      <trkpt lat="44.42768" lon="2.47975">
        <ele>567</ele>
        <time>2015-07-06T08:07:22.770Z</time>
      </trkpt>
      <trkpt lat="44.42775" lon="2.47963">
        <ele>566.68627254132</ele>
        <time>2015-07-06T08:07:25.870Z</time>
      </trkpt>
      <trkpt lat="44.42781" lon="2.47951">
        <ele>565</ele>
        <time>2015-07-06T08:07:28.870Z</time>
      </trkpt>
      <trkpt lat="44.42788" lon="2.47939">
        <ele>561.87630144759</ele>
        <time>2015-07-06T08:07:31.800Z</time>
      </trkpt>
      <trkpt lat="44.42796" lon="2.47928">
        <ele>559.84</ele>
        <time>2015-07-06T08:07:34.870Z</time>
      </trkpt>
      <trkpt lat="44.42805" lon="2.47918">
        <ele>559.16</ele>
        <time>2015-07-06T08:07:37.870Z</time>
      </trkpt>
      <trkpt lat="44.42813" lon="2.47907">
        <ele>558.84</ele>
        <time>2015-07-06T08:07:40.870Z</time>
      </trkpt>
      <trkpt lat="44.42821" lon="2.47898">
        <ele>558</ele>
        <time>2015-07-06T08:07:43.870Z</time>
      </trkpt>
      <trkpt lat="44.42829" lon="2.47888">
        <ele>556</ele>
        <time>2015-07-06T08:07:46.870Z</time>
      </trkpt>
      <trkpt lat="44.42836" lon="2.47877">
        <ele>556</ele>
        <time>2015-07-06T08:07:49.870Z</time>
      </trkpt>
      <trkpt lat="44.42843" lon="2.47865">
        <ele>554.16</ele>
        <time>2015-07-06T08:07:52.870Z</time>
      </trkpt>
      <trkpt lat="44.42849" lon="2.47853">
        <ele>554.9400064</ele>
        <time>2015-07-06T08:07:55.770Z</time>
      </trkpt>
      <trkpt lat="44.42857" lon="2.47843">
        <ele>554</ele>
        <time>2015-07-06T08:07:58.770Z</time>
      </trkpt>
      <trkpt lat="44.42864" lon="2.47833">
        <ele>550</ele>
        <time>2015-07-06T08:08:01.870Z</time>
      </trkpt>
      <trkpt lat="44.42869" lon="2.47821">
        <ele>550</ele>
        <time>2015-07-06T08:08:04.770Z</time>
      </trkpt>
      <trkpt lat="44.42873" lon="2.47808">
        <ele>550</ele>
        <time>2015-07-06T08:08:07.770Z</time>
      </trkpt>
      <trkpt lat="44.42871" lon="2.47789">
        <ele>547</ele>
        <time>2015-07-06T08:08:11.970Z</time>
      </trkpt>
      <trkpt lat="44.42867" lon="2.47776">
        <ele>547</ele>
        <time>2015-07-06T08:08:14.770Z</time>
      </trkpt>
      <trkpt lat="44.42864" lon="2.47759">
        <ele>546</ele>
        <time>2015-07-06T08:08:17.720Z</time>
      </trkpt>
      <trkpt lat="44.42865" lon="2.47743">
        <ele>545.2200192</ele>
        <time>2015-07-06T08:08:20.970Z</time>
      </trkpt>
      <trkpt lat="44.4287" lon="2.47727">
        <ele>544</ele>
        <time>2015-07-06T08:08:23.970Z</time>
      </trkpt>
      <trkpt lat="44.42877" lon="2.47715">
        <ele>542</ele>
        <time>2015-07-06T08:08:26.970Z</time>
      </trkpt>
      <trkpt lat="44.42886" lon="2.47704">
        <ele>542</ele>
        <time>2015-07-06T08:08:30.970Z</time>
      </trkpt>
      <trkpt lat="44.42898" lon="2.47696">
        <ele>542</ele>
        <time>2015-07-06T08:08:34.970Z</time>
      </trkpt>
      <trkpt lat="44.42908" lon="2.47692">
        <ele>542</ele>
        <time>2015-07-06T08:08:37.970Z</time>
      </trkpt>
      <trkpt lat="44.42918" lon="2.47693">
        <ele>542</ele>
        <time>2015-07-06T08:08:40.970Z</time>
      </trkpt>
      <trkpt lat="44.42928" lon="2.47692">
        <ele>542</ele>
        <time>2015-07-06T08:08:43.970Z</time>
      </trkpt>
      <trkpt lat="44.42938" lon="2.47689">
        <ele>542</ele>
        <time>2015-07-06T08:08:46.970Z</time>
      </trkpt>
      <trkpt lat="44.42948" lon="2.47679">
        <ele>541.7400064</ele>
        <time>2015-07-06T08:08:50.970Z</time>
      </trkpt>
      <trkpt lat="44.42959" lon="2.47675">
        <ele>541</ele>
        <time>2015-07-06T08:08:54.970Z</time>
      </trkpt>
      <trkpt lat="44.4297" lon="2.47678">
        <ele>541</ele>
        <time>2015-07-06T08:08:58.970Z</time>
      </trkpt>
      <trkpt lat="44.4298" lon="2.4768">
        <ele>541</ele>
        <time>2015-07-06T08:09:02.970Z</time>
      </trkpt>
      <trkpt lat="44.42989" lon="2.47687">
        <ele>541</ele>
        <time>2015-07-06T08:09:05.970Z</time>
      </trkpt>
      <trkpt lat="44.43001" lon="2.47693">
        <ele>541</ele>
        <time>2015-07-06T08:09:08.970Z</time>
      </trkpt>
      <trkpt lat="44.43011" lon="2.47695">
        <ele>542</ele>
        <time>2015-07-06T08:09:11.970Z</time>
      </trkpt>
      <trkpt lat="44.43024" lon="2.47699">
        <ele>542</ele>
        <time>2015-07-06T08:09:15.970Z</time>
      </trkpt>
      <trkpt lat="44.43034" lon="2.47703">
        <ele>542</ele>
        <time>2015-07-06T08:09:18.970Z</time>
      </trkpt>
      <trkpt lat="44.43046" lon="2.47707">
        <ele>542</ele>
        <time>2015-07-06T08:09:22.970Z</time>
      </trkpt>
      <trkpt lat="44.43056" lon="2.47708">
        <ele>542</ele>
        <time>2015-07-06T08:09:25.970Z</time>
      </trkpt>
      <trkpt lat="44.43066" lon="2.47706">
        <ele>542</ele>
        <time>2015-07-06T08:09:28.970Z</time>
      </trkpt>
      <trkpt lat="44.4308" lon="2.47702">
        <ele>540</ele>
        <time>2015-07-06T08:09:32.970Z</time>
      </trkpt>
      <trkpt lat="44.4309" lon="2.47699">
        <ele>540</ele>
        <time>2015-07-06T08:09:35.970Z</time>
      </trkpt>
      <trkpt lat="44.43102" lon="2.47696">
        <ele>540</ele>
        <time>2015-07-06T08:09:39.970Z</time>
      </trkpt>
      <trkpt lat="44.43113" lon="2.47693">
        <ele>539</ele>
        <time>2015-07-06T08:09:42.770Z</time>
      </trkpt>
      <trkpt lat="44.43125" lon="2.4769">
        <ele>539</ele>
        <time>2015-07-06T08:09:46.870Z</time>
      </trkpt>
      <trkpt lat="44.43135" lon="2.47697">
        <ele>538.8200192</ele>
        <time>2015-07-06T08:09:50.770Z</time>
      </trkpt>
      <trkpt lat="44.43144" lon="2.47707">
        <ele>536</ele>
        <time>2015-07-06T08:09:53.720Z</time>
      </trkpt>
      <trkpt lat="44.43151" lon="2.47719">
        <ele>533</ele>
        <time>2015-07-06T08:09:56.970Z</time>
      </trkpt>
      <trkpt lat="44.43163" lon="2.47736">
        <ele>530.2599936</ele>
        <time>2015-07-06T08:10:01.970Z</time>
      </trkpt>
      <trkpt lat="44.43177" lon="2.47737">
        <ele>529.0599936</ele>
        <time>2015-07-06T08:10:05.770Z</time>
      </trkpt>
      <trkpt lat="44.43189" lon="2.47736">
        <ele>527</ele>
        <time>2015-07-06T08:10:09.970Z</time>
      </trkpt>
      <trkpt lat="44.43201" lon="2.47732">
        <ele>526</ele>
        <time>2015-07-06T08:10:12.880Z</time>
      </trkpt>
      <trkpt lat="44.43213" lon="2.47732">
        <ele>523</ele>
        <time>2015-07-06T08:10:16.870Z</time>
      </trkpt>
      <trkpt lat="44.43223" lon="2.47724">
        <ele>523</ele>
        <time>2015-07-06T08:10:18.770Z</time>
      </trkpt>
      <trkpt lat="44.43234" lon="2.47722">
        <ele>518.84</ele>
        <time>2015-07-06T08:10:21.870Z</time>
      </trkpt>
      <trkpt lat="44.43245" lon="2.47724">
        <ele>516.9100032</ele>
        <time>2015-07-06T08:10:25.800Z</time>
      </trkpt>
      <trkpt lat="44.43245" lon="2.47708">
        <ele>515</ele>
        <time>2015-07-06T08:10:30.970Z</time>
      </trkpt>
      <trkpt lat="44.43245" lon="2.47687">
        <ele>515</ele>
        <time>2015-07-06T08:10:34.720Z</time>
      </trkpt>
      <trkpt lat="44.43241" lon="2.47671">
        <ele>515</ele>
        <time>2015-07-06T08:10:37.970Z</time>
      </trkpt>
      <trkpt lat="44.4324" lon="2.47653">
        <ele>515</ele>
        <time>2015-07-06T08:10:41.720Z</time>
      </trkpt>
      <trkpt lat="44.43238" lon="2.47637">
        <ele>515</ele>
        <time>2015-07-06T08:10:44.970Z</time>
      </trkpt>
      <trkpt lat="44.4324" lon="2.4762">
        <ele>515</ele>
        <time>2015-07-06T08:10:47.870Z</time>
      </trkpt>
      <trkpt lat="44.43238" lon="2.47605">
        <ele>516</ele>
        <time>2015-07-06T08:10:51.870Z</time>
      </trkpt>
      <trkpt lat="44.43236" lon="2.47587">
        <ele>516</ele>
        <time>2015-07-06T08:10:56.770Z</time>
      </trkpt>
      <trkpt lat="44.43231" lon="2.47573">
        <ele>516.1799808</ele>
        <time>2015-07-06T08:11:00.770Z</time>
      </trkpt>
      <trkpt lat="44.43233" lon="2.47557">
        <ele>519.2599936</ele>
        <time>2015-07-06T08:11:05.970Z</time>
      </trkpt>
      <trkpt lat="44.43236" lon="2.47542">
        <ele>520</ele>
        <time>2015-07-06T08:11:09.970Z</time>
      </trkpt>
      <trkpt lat="44.4324" lon="2.47527">
        <ele>520</ele>
        <time>2015-07-06T08:11:14.770Z</time>
      </trkpt>
      <trkpt lat="44.43242" lon="2.47511">
        <ele>520</ele>
        <time>2015-07-06T08:11:18.870Z</time>
      </trkpt>
      <trkpt lat="44.43235" lon="2.47496">
        <ele>517</ele>
        <time>2015-07-06T08:11:24.970Z</time>
      </trkpt>
      <trkpt lat="44.43237" lon="2.4748">
        <ele>518</ele>
        <time>2015-07-06T08:11:28.870Z</time>
      </trkpt>
      <trkpt lat="44.43238" lon="2.47458">
        <ele>517</ele>
        <time>2015-07-06T08:11:33.970Z</time>
      </trkpt>
      <trkpt lat="44.43239" lon="2.47444">
        <ele>517</ele>
        <time>2015-07-06T08:11:36.870Z</time>
      </trkpt>
      <trkpt lat="44.43237" lon="2.47427">
        <ele>517.16</ele>
        <time>2015-07-06T08:11:40.870Z</time>
      </trkpt>
      <trkpt lat="44.43235" lon="2.47409">
        <ele>518</ele>
        <time>2015-07-06T08:11:44.720Z</time>
      </trkpt>
      <trkpt lat="44.43227" lon="2.47394">
        <ele>518</ele>
        <time>2015-07-06T08:11:48.970Z</time>
      </trkpt>
      <trkpt lat="44.4322" lon="2.47382">
        <ele>519</ele>
        <time>2015-07-06T08:11:52.770Z</time>
      </trkpt>
      <trkpt lat="44.43211" lon="2.47372">
        <ele>519</ele>
        <time>2015-07-06T08:11:56.720Z</time>
      </trkpt>
      <trkpt lat="44.43202" lon="2.47365">
        <ele>519</ele>
        <time>2015-07-06T08:11:59.770Z</time>
      </trkpt>
      <trkpt lat="44.43196" lon="2.47353">
        <ele>515</ele>
        <time>2015-07-06T08:12:03.720Z</time>
      </trkpt>
      <trkpt lat="44.43192" lon="2.47339">
        <ele>512</ele>
        <time>2015-07-06T08:12:06.970Z</time>
      </trkpt>
      <trkpt lat="44.43189" lon="2.47323">
        <ele>511.4800128</ele>
        <time>2015-07-06T08:12:10.970Z</time>
      </trkpt>
      <trkpt lat="44.43193" lon="2.47308">
        <ele>510</ele>
        <time>2015-07-06T08:12:15.970Z</time>
      </trkpt>
      <trkpt lat="44.43187" lon="2.47295">
        <ele>510</ele>
        <time>2015-07-06T08:12:18.970Z</time>
      </trkpt>
      <trkpt lat="44.43181" lon="2.47282">
        <ele>510</ele>
        <time>2015-07-06T08:12:23.870Z</time>
      </trkpt>
      <trkpt lat="44.43191" lon="2.47267">
        <ele>512</ele>
        <time>2015-07-06T08:12:31.970Z</time>
      </trkpt>
      <trkpt lat="44.43203" lon="2.47259">
        <ele>512</ele>
        <time>2015-07-06T08:12:35.870Z</time>
      </trkpt>
      <trkpt lat="44.43211" lon="2.47252">
        <ele>512</ele>
        <time>2015-07-06T08:12:39.870Z</time>
      </trkpt>
      <trkpt lat="44.43223" lon="2.47245">
        <ele>515</ele>
        <time>2015-07-06T08:12:43.870Z</time>
      </trkpt>
      <trkpt lat="44.43233" lon="2.47236">
        <ele>515</ele>
        <time>2015-07-06T08:12:47.870Z</time>
      </trkpt>
      <trkpt lat="44.43243" lon="2.47231">
        <ele>517</ele>
        <time>2015-07-06T08:12:51.870Z</time>
      </trkpt>
      <trkpt lat="44.43252" lon="2.47225">
        <ele>517.48</ele>
        <time>2015-07-06T08:12:55.870Z</time>
      </trkpt>
      <trkpt lat="44.43263" lon="2.47217">
        <ele>518</ele>
        <time>2015-07-06T08:13:01.870Z</time>
      </trkpt>
      <trkpt lat="44.43273" lon="2.47216">
        <ele>518</ele>
        <time>2015-07-06T08:13:03.870Z</time>
      </trkpt>
      <trkpt lat="44.43284" lon="2.47216">
        <ele>518</ele>
        <time>2015-07-06T08:13:07.970Z</time>
      </trkpt>
      <trkpt lat="44.43295" lon="2.47222">
        <ele>520</ele>
        <time>2015-07-06T08:13:12.720Z</time>
      </trkpt>
      <trkpt lat="44.43308" lon="2.47219">
        <ele>520</ele>
        <time>2015-07-06T08:13:17.720Z</time>
      </trkpt>
      <trkpt lat="44.4332" lon="2.47218">
        <ele>520</ele>
        <time>2015-07-06T08:13:21.770Z</time>
      </trkpt>
      <trkpt lat="44.43332" lon="2.47222">
        <ele>520</ele>
        <time>2015-07-06T08:13:25.720Z</time>
      </trkpt>
      <trkpt lat="44.43343" lon="2.47229">
        <ele>520</ele>
        <time>2015-07-06T08:13:28.970Z</time>
      </trkpt>
      <trkpt lat="44.43356" lon="2.47235">
        <ele>519</ele>
        <time>2015-07-06T08:13:32.720Z</time>
      </trkpt>
      <trkpt lat="44.43366" lon="2.47246">
        <ele>519</ele>
        <time>2015-07-06T08:13:36.970Z</time>
      </trkpt>
      <trkpt lat="44.43376" lon="2.47255">
        <ele>518.7400064</ele>
        <time>2015-07-06T08:13:40.970Z</time>
      </trkpt>
      <trkpt lat="44.43387" lon="2.47264">
        <ele>518</ele>
        <time>2015-07-06T08:13:44.970Z</time>
      </trkpt>
      <trkpt lat="44.43397" lon="2.47275">
        <ele>518</ele>
        <time>2015-07-06T08:13:48.970Z</time>
      </trkpt>
      <trkpt lat="44.43404" lon="2.47289">
        <ele>516.2599936</ele>
        <time>2015-07-06T08:13:52.970Z</time>
      </trkpt>
      <trkpt lat="44.43409" lon="2.47306">
        <ele>517</ele>
        <time>2015-07-06T08:13:56.770Z</time>
      </trkpt>
      <trkpt lat="44.43414" lon="2.47321">
        <ele>517</ele>
        <time>2015-07-06T08:13:59.750Z</time>
      </trkpt>
      <trkpt lat="44.43419" lon="2.47338">
        <ele>516</ele>
        <time>2015-07-06T08:14:03.790Z</time>
      </trkpt>
      <trkpt lat="44.43422" lon="2.47352">
        <ele>516</ele>
        <time>2015-07-06T08:14:06.720Z</time>
      </trkpt>
      <trkpt lat="44.4343" lon="2.47365">
        <ele>515.4800128</ele>
        <time>2015-07-06T08:14:10.970Z</time>
      </trkpt>
      <trkpt lat="44.4344" lon="2.47375">
        <ele>514</ele>
        <time>2015-07-06T08:14:14.970Z</time>
      </trkpt>
      <trkpt lat="44.43449" lon="2.47383">
        <ele>514</ele>
        <time>2015-07-06T08:14:17.970Z</time>
      </trkpt>
      <trkpt lat="44.43457" lon="2.47394">
        <ele>513.2200192</ele>
        <time>2015-07-06T08:14:20.970Z</time>
      </trkpt>
      <trkpt lat="44.43466" lon="2.47406">
        <ele>511</ele>
        <time>2015-07-06T08:14:23.770Z</time>
      </trkpt>
      <trkpt lat="44.43474" lon="2.47417">
        <ele>509</ele>
        <time>2015-07-06T08:14:26.720Z</time>
      </trkpt>
      <trkpt lat="44.43481" lon="2.47428">
        <ele>508.7400064</ele>
        <time>2015-07-06T08:14:30.970Z</time>
      </trkpt>
      <trkpt lat="44.43491" lon="2.47433">
        <ele>507.2200192</ele>
        <time>2015-07-06T08:14:35.970Z</time>
      </trkpt>
      <trkpt lat="44.43485" lon="2.4742">
        <ele>505</ele>
        <time>2015-07-06T08:14:38.770Z</time>
      </trkpt>
      <trkpt lat="44.43479" lon="2.47406">
        <ele>504</ele>
        <time>2015-07-06T08:14:42.720Z</time>
      </trkpt>
      <trkpt lat="44.43488" lon="2.47398">
        <ele>502</ele>
        <time>2015-07-06T08:14:48.970Z</time>
      </trkpt>
      <trkpt lat="44.43502" lon="2.47407">
        <ele>499</ele>
        <time>2015-07-06T08:14:52.770Z</time>
      </trkpt>
      <trkpt lat="44.43511" lon="2.47413">
        <ele>498.9400064</ele>
        <time>2015-07-06T08:14:55.770Z</time>
      </trkpt>
      <trkpt lat="44.43523" lon="2.47419">
        <ele>498</ele>
        <time>2015-07-06T08:14:59.750Z</time>
      </trkpt>
      <trkpt lat="44.43533" lon="2.47422">
        <ele>495</ele>
        <time>2015-07-06T08:15:03.970Z</time>
      </trkpt>
      <trkpt lat="44.43546" lon="2.47428">
        <ele>494</ele>
        <time>2015-07-06T08:15:07.970Z</time>
      </trkpt>
      <trkpt lat="44.43558" lon="2.4744">
        <ele>493</ele>
        <time>2015-07-06T08:15:12.970Z</time>
      </trkpt>
      <trkpt lat="44.43568" lon="2.47453">
        <ele>493</ele>
        <time>2015-07-06T08:15:15.870Z</time>
      </trkpt>
      <trkpt lat="44.43575" lon="2.47465">
        <ele>493</ele>
        <time>2015-07-06T08:15:18.870Z</time>
      </trkpt>
      <trkpt lat="44.43583" lon="2.47478">
        <ele>490</ele>
        <time>2015-07-06T08:15:22.880Z</time>
      </trkpt>
      <trkpt lat="44.43592" lon="2.47491">
        <ele>488</ele>
        <time>2015-07-06T08:15:26.770Z</time>
      </trkpt>
      <trkpt lat="44.43599" lon="2.47501">
        <ele>488</ele>
        <time>2015-07-06T08:15:29.770Z</time>
      </trkpt>
      <trkpt lat="44.4361" lon="2.47517">
        <ele>486</ele>
        <time>2015-07-06T08:15:34.720Z</time>
      </trkpt>
      <trkpt lat="44.43616" lon="2.47534">
        <ele>484</ele>
        <time>2015-07-06T08:15:37.970Z</time>
      </trkpt>
      <trkpt lat="44.43617" lon="2.4755">
        <ele>483.2200192</ele>
        <time>2015-07-06T08:15:40.970Z</time>
      </trkpt>
      <trkpt lat="44.4361" lon="2.47566">
        <ele>481</ele>
        <time>2015-07-06T08:15:43.870Z</time>
      </trkpt>
      <trkpt lat="44.43622" lon="2.47565">
        <ele>478.8200192</ele>
        <time>2015-07-06T08:15:50.770Z</time>
      </trkpt>
      <trkpt lat="44.43632" lon="2.4756">
        <ele>476.9800064</ele>
        <time>2015-07-06T08:15:53.720Z</time>
      </trkpt>
      <trkpt lat="44.43644" lon="2.47551">
        <ele>474.7400064</ele>
        <time>2015-07-06T08:15:57.970Z</time>
      </trkpt>
      <trkpt lat="44.43652" lon="2.47543">
        <ele>473.7400064</ele>
        <time>2015-07-06T08:16:00.970Z</time>
      </trkpt>
      <trkpt lat="44.4366" lon="2.47533">
        <ele>473</ele>
        <time>2015-07-06T08:16:03.770Z</time>
      </trkpt>
      <trkpt lat="44.43668" lon="2.47524">
        <ele>471</ele>
        <time>2015-07-06T08:16:06.870Z</time>
      </trkpt>
      <trkpt lat="44.43674" lon="2.47511">
        <ele>471</ele>
        <time>2015-07-06T08:16:09.870Z</time>
      </trkpt>
      <trkpt lat="44.43684" lon="2.47505">
        <ele>469</ele>
        <time>2015-07-06T08:16:13.870Z</time>
      </trkpt>
      <trkpt lat="44.43693" lon="2.47516">
        <ele>469</ele>
        <time>2015-07-06T08:16:17.870Z</time>
      </trkpt>
      <trkpt lat="44.43699" lon="2.47526">
        <ele>468.52</ele>
        <time>2015-07-06T08:16:20.870Z</time>
      </trkpt>
      <trkpt lat="44.43707" lon="2.47538">
        <ele>466</ele>
        <time>2015-07-06T08:16:23.870Z</time>
      </trkpt>
      <trkpt lat="44.43714" lon="2.4755">
        <ele>465</ele>
        <time>2015-07-06T08:16:26.870Z</time>
      </trkpt>
      <trkpt lat="44.43724" lon="2.47556">
        <ele>464.68</ele>
        <time>2015-07-06T08:16:30.870Z</time>
      </trkpt>
      <trkpt lat="44.43736" lon="2.47557">
        <ele>463</ele>
        <time>2015-07-06T08:16:33.790Z</time>
      </trkpt>
      <trkpt lat="44.43746" lon="2.47554">
        <ele>463</ele>
        <time>2015-07-06T08:16:36.870Z</time>
      </trkpt>
      <trkpt lat="44.43756" lon="2.47549">
        <ele>463</ele>
        <time>2015-07-06T08:16:39.870Z</time>
      </trkpt>
      <trkpt lat="44.43767" lon="2.47537">
        <ele>460</ele>
        <time>2015-07-06T08:16:42.770Z</time>
      </trkpt>
      <trkpt lat="44.43776" lon="2.47527">
        <ele>459.8200192</ele>
        <time>2015-07-06T08:16:45.770Z</time>
      </trkpt>
      <trkpt lat="44.43778" lon="2.4751">
        <ele>457</ele>
        <time>2015-07-06T08:16:49.970Z</time>
      </trkpt>
      <trkpt lat="44.43775" lon="2.47496">
        <ele>454</ele>
        <time>2015-07-06T08:16:52.970Z</time>
      </trkpt>
      <trkpt lat="44.43773" lon="2.4748">
        <ele>452</ele>
        <time>2015-07-06T08:16:56.720Z</time>
      </trkpt>
      <trkpt lat="44.43767" lon="2.47468">
        <ele>451</ele>
        <time>2015-07-06T08:16:59.970Z</time>
      </trkpt>
      <trkpt lat="44.4376" lon="2.4745">
        <ele>449</ele>
        <time>2015-07-06T08:17:03.720Z</time>
      </trkpt>
      <trkpt lat="44.43768" lon="2.47439">
        <ele>446.99010214686</ele>
        <time>2015-07-06T08:17:10.720Z</time>
      </trkpt>
      <trkpt lat="44.43777" lon="2.47445">
        <ele>446</ele>
        <time>2015-07-06T08:17:13.970Z</time>
      </trkpt>
      <trkpt lat="44.43787" lon="2.4745">
        <ele>445</ele>
        <time>2015-07-06T08:17:16.770Z</time>
      </trkpt>
      <trkpt lat="44.43796" lon="2.47457">
        <ele>444.9700096</ele>
        <time>2015-07-06T08:17:20.720Z</time>
      </trkpt>
      <trkpt lat="44.43805" lon="2.47466">
        <ele>442</ele>
        <time>2015-07-06T08:17:23.970Z</time>
      </trkpt>
      <trkpt lat="44.43815" lon="2.47476">
        <ele>441</ele>
        <time>2015-07-06T08:17:26.770Z</time>
      </trkpt>
      <trkpt lat="44.43824" lon="2.47488">
        <ele>441</ele>
        <time>2015-07-06T08:17:29.720Z</time>
      </trkpt>
      <trkpt lat="44.43832" lon="2.47499">
        <ele>440</ele>
        <time>2015-07-06T08:17:32.970Z</time>
      </trkpt>
      <trkpt lat="44.4384" lon="2.47511">
        <ele>440</ele>
        <time>2015-07-06T08:17:36.770Z</time>
      </trkpt>
      <trkpt lat="44.43847" lon="2.47523">
        <ele>439.9600128</ele>
        <time>2015-07-06T08:17:40.720Z</time>
      </trkpt>
      <trkpt lat="44.43858" lon="2.47533">
        <ele>436</ele>
        <time>2015-07-06T08:17:44.970Z</time>
      </trkpt>
      <trkpt lat="44.4387" lon="2.4754">
        <ele>432</ele>
        <time>2015-07-06T08:17:48.720Z</time>
      </trkpt>
      <trkpt lat="44.4388" lon="2.47547">
        <ele>430.9400064</ele>
        <time>2015-07-06T08:17:51.770Z</time>
      </trkpt>
      <trkpt lat="44.43894" lon="2.47561">
        <ele>427.7400064</ele>
        <time>2015-07-06T08:17:56.970Z</time>
      </trkpt>
      <trkpt lat="44.43901" lon="2.47574">
        <ele>426</ele>
        <time>2015-07-06T08:17:59.870Z</time>
      </trkpt>
      <trkpt lat="44.4391" lon="2.47589">
        <ele>425.9900032</ele>
        <time>2015-07-06T08:18:03.720Z</time>
      </trkpt>
      <trkpt lat="44.4392" lon="2.47597">
        <ele>423.0599936</ele>
        <time>2015-07-06T08:18:07.770Z</time>
      </trkpt>
      <trkpt lat="44.43931" lon="2.47599">
        <ele>422</ele>
        <time>2015-07-06T08:18:11.870Z</time>
      </trkpt>
      <trkpt lat="44.43942" lon="2.47603">
        <ele>422</ele>
        <time>2015-07-06T08:18:14.870Z</time>
      </trkpt>
      <trkpt lat="44.43955" lon="2.47607">
        <ele>422</ele>
        <time>2015-07-06T08:18:18.720Z</time>
      </trkpt>
      <trkpt lat="44.43966" lon="2.47608">
        <ele>422</ele>
        <time>2015-07-06T08:18:21.770Z</time>
      </trkpt>
      <trkpt lat="44.43977" lon="2.47611">
        <ele>422</ele>
        <time>2015-07-06T08:18:24.770Z</time>
      </trkpt>
      <trkpt lat="44.43988" lon="2.47617">
        <ele>422</ele>
        <time>2015-07-06T08:18:28.720Z</time>
      </trkpt>
      <trkpt lat="44.43999" lon="2.47619">
        <ele>420</ele>
        <time>2015-07-06T08:18:52.770Z</time>
      </trkpt>
      <trkpt lat="44.44009" lon="2.47617">
        <ele>420</ele>
        <time>2015-07-06T08:18:56.720Z</time>
      </trkpt>
      <trkpt lat="44.4402" lon="2.47613">
        <ele>420.1400064</ele>
        <time>2015-07-06T08:19:00.780Z</time>
      </trkpt>
      <trkpt lat="44.4403" lon="2.47614">
        <ele>422</ele>
        <time>2015-07-06T08:19:04.770Z</time>
      </trkpt>
      <trkpt lat="44.44042" lon="2.47615">
        <ele>422</ele>
        <time>2015-07-06T08:19:08.720Z</time>
      </trkpt>
      <trkpt lat="44.44055" lon="2.4761">
        <ele>422</ele>
        <time>2015-07-06T08:19:13.770Z</time>
      </trkpt>
      <trkpt lat="44.44065" lon="2.47605">
        <ele>422</ele>
        <time>2015-07-06T08:19:19.870Z</time>
      </trkpt>
      <trkpt lat="44.44062" lon="2.47592">
        <ele>422</ele>
        <time>2015-07-06T08:19:47.970Z</time>
      </trkpt>
      <trkpt lat="44.4406" lon="2.47579">
        <ele>422</ele>
        <time>2015-07-06T08:19:52.770Z</time>
      </trkpt>
      <trkpt lat="44.44059" lon="2.47564">
        <ele>422</ele>
        <time>2015-07-06T08:19:56.720Z</time>
      </trkpt>
      <trkpt lat="44.44052" lon="2.4755">
        <ele>421.9400064</ele>
        <time>2015-07-06T08:20:00.770Z</time>
      </trkpt>
      <trkpt lat="44.44046" lon="2.47535">
        <ele>421</ele>
        <time>2015-07-06T08:20:04.770Z</time>
      </trkpt>
      <trkpt lat="44.4404" lon="2.47522">
        <ele>421</ele>
        <time>2015-07-06T08:20:08.770Z</time>
      </trkpt>
      <trkpt lat="44.44034" lon="2.4751">
        <ele>421</ele>
        <time>2015-07-06T08:20:11.770Z</time>
      </trkpt>
      <trkpt lat="44.44032" lon="2.47498">
        <ele>421</ele>
        <time>2015-07-06T08:20:14.770Z</time>
      </trkpt>
      <trkpt lat="44.44031" lon="2.47486">
        <ele>421</ele>
        <time>2015-07-06T08:20:17.770Z</time>
      </trkpt>
      <trkpt lat="44.4403" lon="2.47472">
        <ele>421.1199872</ele>
        <time>2015-07-06T08:20:20.770Z</time>
      </trkpt>
      <trkpt lat="44.4403" lon="2.47458">
        <ele>423</ele>
        <time>2015-07-06T08:20:23.770Z</time>
      </trkpt>
      <trkpt lat="44.44028" lon="2.47439">
        <ele>423</ele>
        <time>2015-07-06T08:20:27.870Z</time>
      </trkpt>
      <trkpt lat="44.44028" lon="2.47421">
        <ele>425</ele>
        <time>2015-07-06T08:20:31.770Z</time>
      </trkpt>
      <trkpt lat="44.44028" lon="2.47404">
        <ele>425</ele>
        <time>2015-07-06T08:20:35.720Z</time>
      </trkpt>
      <trkpt lat="44.44029" lon="2.47387">
        <ele>425</ele>
        <time>2015-07-06T08:20:39.770Z</time>
      </trkpt>
      <trkpt lat="44.44031" lon="2.47373">
        <ele>426</ele>
        <time>2015-07-06T08:20:43.870Z</time>
      </trkpt>
      <trkpt lat="44.44032" lon="2.47355">
        <ele>426</ele>
        <time>2015-07-06T08:20:47.770Z</time>
      </trkpt>
      <trkpt lat="44.44031" lon="2.47338">
        <ele>427</ele>
        <time>2015-07-06T08:20:51.770Z</time>
      </trkpt>
      <trkpt lat="44.44029" lon="2.47321">
        <ele>427</ele>
        <time>2015-07-06T08:20:55.770Z</time>
      </trkpt>
      <trkpt lat="44.44025" lon="2.47306">
        <ele>427</ele>
        <time>2015-07-06T08:20:59.770Z</time>
      </trkpt>
      <trkpt lat="44.44021" lon="2.47292">
        <ele>429</ele>
        <time>2015-07-06T08:21:03.770Z</time>
      </trkpt>
      <trkpt lat="44.44016" lon="2.47282">
        <ele>429</ele>
        <time>2015-07-06T08:21:06.770Z</time>
      </trkpt>
      <trkpt lat="44.44012" lon="2.47271">
        <ele>429</ele>
        <time>2015-07-06T08:21:09.770Z</time>
      </trkpt>
      <trkpt lat="44.44008" lon="2.4726">
        <ele>430</ele>
        <time>2015-07-06T08:21:12.870Z</time>
      </trkpt>
      <trkpt lat="44.44004" lon="2.47248">
        <ele>430</ele>
        <time>2015-07-06T08:21:16.770Z</time>
      </trkpt>
      <trkpt lat="44.44001" lon="2.47236">
        <ele>430</ele>
        <time>2015-07-06T08:21:19.770Z</time>
      </trkpt>
      <trkpt lat="44.43999" lon="2.47224">
        <ele>431</ele>
        <time>2015-07-06T08:21:22.870Z</time>
      </trkpt>
      <trkpt lat="44.43995" lon="2.4721">
        <ele>431</ele>
        <time>2015-07-06T08:21:25.770Z</time>
      </trkpt>
      <trkpt lat="44.43991" lon="2.47195">
        <ele>431</ele>
        <time>2015-07-06T08:21:29.720Z</time>
      </trkpt>
      <trkpt lat="44.43988" lon="2.47177">
        <ele>432</ele>
        <time>2015-07-06T08:21:35.720Z</time>
      </trkpt>
      <trkpt lat="44.43981" lon="2.47165">
        <ele>432</ele>
        <time>2015-07-06T08:21:39.770Z</time>
      </trkpt>
      <trkpt lat="44.43977" lon="2.47152">
        <ele>435</ele>
        <time>2015-07-06T08:21:43.810Z</time>
      </trkpt>
      <trkpt lat="44.43972" lon="2.47137">
        <ele>438</ele>
        <time>2015-07-06T08:21:47.870Z</time>
      </trkpt>
      <trkpt lat="44.43966" lon="2.47123">
        <ele>439</ele>
        <time>2015-07-06T08:21:51.970Z</time>
      </trkpt>
      <trkpt lat="44.4396" lon="2.47109">
        <ele>439</ele>
        <time>2015-07-06T08:21:55.770Z</time>
      </trkpt>
      <trkpt lat="44.43956" lon="2.47096">
        <ele>439</ele>
        <time>2015-07-06T08:21:59.750Z</time>
      </trkpt>
      <trkpt lat="44.43948" lon="2.47077">
        <ele>441</ele>
        <time>2015-07-06T08:22:04.970Z</time>
      </trkpt>
      <trkpt lat="44.43941" lon="2.47066">
        <ele>441</ele>
        <time>2015-07-06T08:22:08.870Z</time>
      </trkpt>
      <trkpt lat="44.4393" lon="2.47047">
        <ele>442</ele>
        <time>2015-07-06T08:22:14.970Z</time>
      </trkpt>
      <trkpt lat="44.43916" lon="2.47031">
        <ele>442.5199872</ele>
        <time>2015-07-06T08:22:20.970Z</time>
      </trkpt>
      <trkpt lat="44.43908" lon="2.4702">
        <ele>444</ele>
        <time>2015-07-06T08:22:23.870Z</time>
      </trkpt>
      <trkpt lat="44.43901" lon="2.47005">
        <ele>444</ele>
        <time>2015-07-06T08:22:28.720Z</time>
      </trkpt>
      <trkpt lat="44.43893" lon="2.46991">
        <ele>444</ele>
        <time>2015-07-06T08:22:32.970Z</time>
      </trkpt>
      <trkpt lat="44.43886" lon="2.46979">
        <ele>444</ele>
        <time>2015-07-06T08:22:36.770Z</time>
      </trkpt>
      <trkpt lat="44.43882" lon="2.46966">
        <ele>444</ele>
        <time>2015-07-06T08:22:40.770Z</time>
      </trkpt>
      <trkpt lat="44.43876" lon="2.46951">
        <ele>444</ele>
        <time>2015-07-06T08:22:44.970Z</time>
      </trkpt>
      <trkpt lat="44.43872" lon="2.46937">
        <ele>444</ele>
        <time>2015-07-06T08:22:47.870Z</time>
      </trkpt>
      <trkpt lat="44.43866" lon="2.46918">
        <ele>444</ele>
        <time>2015-07-06T08:22:51.720Z</time>
      </trkpt>
      <trkpt lat="44.43863" lon="2.46901">
        <ele>444</ele>
        <time>2015-07-06T08:22:54.970Z</time>
      </trkpt>
      <trkpt lat="44.43863" lon="2.46883">
        <ele>444</ele>
        <time>2015-07-06T08:22:58.770Z</time>
      </trkpt>
      <trkpt lat="44.43865" lon="2.46869">
        <ele>442</ele>
        <time>2015-07-06T08:23:01.770Z</time>
      </trkpt>
      <trkpt lat="44.43869" lon="2.46852">
        <ele>442</ele>
        <time>2015-07-06T08:23:05.870Z</time>
      </trkpt>
      <trkpt lat="44.43876" lon="2.46839">
        <ele>442</ele>
        <time>2015-07-06T08:23:08.870Z</time>
      </trkpt>
      <trkpt lat="44.43884" lon="2.46826">
        <ele>440</ele>
        <time>2015-07-06T08:23:12.770Z</time>
      </trkpt>
      <trkpt lat="44.4389" lon="2.46815">
        <ele>440</ele>
        <time>2015-07-06T08:23:15.770Z</time>
      </trkpt>
      <trkpt lat="44.43899" lon="2.46803">
        <ele>440</ele>
        <time>2015-07-06T08:23:19.870Z</time>
      </trkpt>
      <trkpt lat="44.4391" lon="2.4679">
        <ele>436</ele>
        <time>2015-07-06T08:23:23.870Z</time>
      </trkpt>
      <trkpt lat="44.43916" lon="2.46779">
        <ele>434</ele>
        <time>2015-07-06T08:23:26.870Z</time>
      </trkpt>
      <trkpt lat="44.4392" lon="2.46763">
        <ele>434</ele>
        <time>2015-07-06T08:23:31.770Z</time>
      </trkpt>
      <trkpt lat="44.43924" lon="2.46748">
        <ele>434</ele>
        <time>2015-07-06T08:23:35.770Z</time>
      </trkpt>
      <trkpt lat="44.4393" lon="2.46736">
        <ele>434</ele>
        <time>2015-07-06T08:23:39.780Z</time>
      </trkpt>
      <trkpt lat="44.4394" lon="2.46731">
        <ele>436</ele>
        <time>2015-07-06T08:23:43.770Z</time>
      </trkpt>
      <trkpt lat="44.4395" lon="2.46724">
        <ele>436</ele>
        <time>2015-07-06T08:23:47.870Z</time>
      </trkpt>
      <trkpt lat="44.43961" lon="2.46722">
        <ele>439</ele>
        <time>2015-07-06T08:23:52.720Z</time>
      </trkpt>
      <trkpt lat="44.43972" lon="2.46723">
        <ele>441</ele>
        <time>2015-07-06T08:23:56.770Z</time>
      </trkpt>
      <trkpt lat="44.43984" lon="2.46722">
        <ele>444</ele>
        <time>2015-07-06T08:24:01.770Z</time>
      </trkpt>
      <trkpt lat="44.43996" lon="2.46716">
        <ele>444</ele>
        <time>2015-07-06T08:24:06.870Z</time>
      </trkpt>
      <trkpt lat="44.44007" lon="2.46711">
        <ele>444.0599936</ele>
        <time>2015-07-06T08:24:10.770Z</time>
      </trkpt>
      <trkpt lat="44.44022" lon="2.46711">
        <ele>445</ele>
        <time>2015-07-06T08:24:16.720Z</time>
      </trkpt>
      <trkpt lat="44.44034" lon="2.46713">
        <ele>446</ele>
        <time>2015-07-06T08:24:25.720Z</time>
      </trkpt>
      <trkpt lat="44.44047" lon="2.46713">
        <ele>446</ele>
        <time>2015-07-06T08:24:29.970Z</time>
      </trkpt>
      <trkpt lat="44.44058" lon="2.4671">
        <ele>446</ele>
        <time>2015-07-06T08:24:32.780Z</time>
      </trkpt>
      <trkpt lat="44.44069" lon="2.46706">
        <ele>446</ele>
        <time>2015-07-06T08:24:35.770Z</time>
      </trkpt>
      <trkpt lat="44.44082" lon="2.46702">
        <ele>446</ele>
        <time>2015-07-06T08:24:39.870Z</time>
      </trkpt>
      <trkpt lat="44.44093" lon="2.467">
        <ele>446</ele>
        <time>2015-07-06T08:24:42.780Z</time>
      </trkpt>
      <trkpt lat="44.44105" lon="2.46702">
        <ele>446</ele>
        <time>2015-07-06T08:24:45.770Z</time>
      </trkpt>
      <trkpt lat="44.44116" lon="2.467">
        <ele>446</ele>
        <time>2015-07-06T08:24:48.770Z</time>
      </trkpt>
      <trkpt lat="44.44126" lon="2.46702">
        <ele>448</ele>
        <time>2015-07-06T08:24:51.770Z</time>
      </trkpt>
      <trkpt lat="44.44137" lon="2.46702">
        <ele>448</ele>
        <time>2015-07-06T08:24:54.770Z</time>
      </trkpt>
      <trkpt lat="44.44149" lon="2.46703">
        <ele>448</ele>
        <time>2015-07-06T08:24:58.770Z</time>
      </trkpt>
      <trkpt lat="44.44161" lon="2.46703">
        <ele>446</ele>
        <time>2015-07-06T08:25:02.870Z</time>
      </trkpt>
      <trkpt lat="44.44174" lon="2.46702">
        <ele>446</ele>
        <time>2015-07-06T08:25:06.770Z</time>
      </trkpt>
      <trkpt lat="44.44184" lon="2.46704">
        <ele>447</ele>
        <time>2015-07-06T08:25:09.970Z</time>
      </trkpt>
      <trkpt lat="44.44194" lon="2.46706">
        <ele>447</ele>
        <time>2015-07-06T08:25:12.770Z</time>
      </trkpt>
      <trkpt lat="44.44204" lon="2.46706">
        <ele>447</ele>
        <time>2015-07-06T08:25:15.770Z</time>
      </trkpt>
      <trkpt lat="44.44214" lon="2.46708">
        <ele>447</ele>
        <time>2015-07-06T08:25:18.870Z</time>
      </trkpt>
      <trkpt lat="44.44224" lon="2.46708">
        <ele>445</ele>
        <time>2015-07-06T08:25:21.770Z</time>
      </trkpt>
      <trkpt lat="44.44234" lon="2.4671">
        <ele>445</ele>
        <time>2015-07-06T08:25:24.870Z</time>
      </trkpt>
      <trkpt lat="44.44243" lon="2.46712">
        <ele>445</ele>
        <time>2015-07-06T08:25:27.770Z</time>
      </trkpt>
      <trkpt lat="44.44253" lon="2.46718">
        <ele>445</ele>
        <time>2015-07-06T08:25:30.960Z</time>
      </trkpt>
      <trkpt lat="44.44263" lon="2.46725">
        <ele>445</ele>
        <time>2015-07-06T08:25:33.770Z</time>
      </trkpt>
      <trkpt lat="44.44272" lon="2.4673">
        <ele>445</ele>
        <time>2015-07-06T08:25:36.770Z</time>
      </trkpt>
      <trkpt lat="44.44282" lon="2.46736">
        <ele>445</ele>
        <time>2015-07-06T08:25:39.770Z</time>
      </trkpt>
      <trkpt lat="44.44291" lon="2.46743">
        <ele>445</ele>
        <time>2015-07-06T08:25:42.770Z</time>
      </trkpt>
      <trkpt lat="44.443" lon="2.46748">
        <ele>445</ele>
        <time>2015-07-06T08:25:45.870Z</time>
      </trkpt>
      <trkpt lat="44.44309" lon="2.4675">
        <ele>445</ele>
        <time>2015-07-06T08:25:48.770Z</time>
      </trkpt>
      <trkpt lat="44.44318" lon="2.46754">
        <ele>446</ele>
        <time>2015-07-06T08:25:51.770Z</time>
      </trkpt>
      <trkpt lat="44.44327" lon="2.46758">
        <ele>446</ele>
        <time>2015-07-06T08:25:54.870Z</time>
      </trkpt>
      <trkpt lat="44.44337" lon="2.46764">
        <ele>446</ele>
        <time>2015-07-06T08:25:57.770Z</time>
      </trkpt>
      <trkpt lat="44.44345" lon="2.46769">
        <ele>445.52</ele>
        <time>2015-07-06T08:26:00.870Z</time>
      </trkpt>
      <trkpt lat="44.44358" lon="2.46773">
        <ele>443</ele>
        <time>2015-07-06T08:26:04.870Z</time>
      </trkpt>
      <trkpt lat="44.44368" lon="2.46777">
        <ele>443</ele>
        <time>2015-07-06T08:26:07.770Z</time>
      </trkpt>
      <trkpt lat="44.4438" lon="2.46781">
        <ele>444</ele>
        <time>2015-07-06T08:26:11.770Z</time>
      </trkpt>
      <trkpt lat="44.4439" lon="2.46788">
        <ele>444</ele>
        <time>2015-07-06T08:26:14.870Z</time>
      </trkpt>
      <trkpt lat="44.444" lon="2.46794">
        <ele>444</ele>
        <time>2015-07-06T08:26:17.870Z</time>
      </trkpt>
      <trkpt lat="44.44409" lon="2.468">
        <ele>443.8800128</ele>
        <time>2015-07-06T08:26:20.770Z</time>
      </trkpt>
      <trkpt lat="44.44419" lon="2.46806">
        <ele>442</ele>
        <time>2015-07-06T08:26:23.770Z</time>
      </trkpt>
      <trkpt lat="44.44429" lon="2.46813">
        <ele>440</ele>
        <time>2015-07-06T08:26:26.870Z</time>
      </trkpt>
      <trkpt lat="44.44439" lon="2.46822">
        <ele>440</ele>
        <time>2015-07-06T08:26:29.770Z</time>
      </trkpt>
      <trkpt lat="44.44449" lon="2.46827">
        <ele>437</ele>
        <time>2015-07-06T08:26:33.770Z</time>
      </trkpt>
      <trkpt lat="44.4446" lon="2.46831">
        <ele>435</ele>
        <time>2015-07-06T08:26:37.870Z</time>
      </trkpt>
      <trkpt lat="44.44473" lon="2.46829">
        <ele>433</ele>
        <time>2015-07-06T08:26:41.870Z</time>
      </trkpt>
      <trkpt lat="44.44486" lon="2.46827">
        <ele>432.7600256</ele>
        <time>2015-07-06T08:26:45.770Z</time>
      </trkpt>
      <trkpt lat="44.44497" lon="2.46826">
        <ele>429</ele>
        <time>2015-07-06T08:26:48.770Z</time>
      </trkpt>
      <trkpt lat="44.44508" lon="2.46826">
        <ele>425</ele>
        <time>2015-07-06T08:26:53.770Z</time>
      </trkpt>
      <trkpt lat="44.44518" lon="2.46835">
        <ele>420.9400064</ele>
        <time>2015-07-06T08:26:58.770Z</time>
      </trkpt>
      <trkpt lat="44.44529" lon="2.4684">
        <ele>419.9900032</ele>
        <time>2015-07-06T08:27:02.720Z</time>
      </trkpt>
      <trkpt lat="44.44539" lon="2.46841">
        <ele>416.2599936</ele>
        <time>2015-07-06T08:27:06.970Z</time>
      </trkpt>
      <trkpt lat="44.44549" lon="2.46836">
        <ele>414</ele>
        <time>2015-07-06T08:27:10.870Z</time>
      </trkpt>
      <trkpt lat="44.44561" lon="2.46832">
        <ele>407.7400064</ele>
        <time>2015-07-06T08:27:14.970Z</time>
      </trkpt>
      <trkpt lat="44.44575" lon="2.46836">
        <ele>403.98020429372</ele>
        <time>2015-07-06T08:27:19.720Z</time>
      </trkpt>
      <trkpt lat="44.44587" lon="2.46842">
        <ele>399</ele>
        <time>2015-07-06T08:27:23.970Z</time>
      </trkpt>
      <trkpt lat="44.44597" lon="2.46846">
        <ele>396.9400064</ele>
        <time>2015-07-06T08:27:26.770Z</time>
      </trkpt>
      <trkpt lat="44.44609" lon="2.46851">
        <ele>393.84848210592</ele>
        <time>2015-07-06T08:27:30.870Z</time>
      </trkpt>
      <trkpt lat="44.44618" lon="2.46843">
        <ele>389.64706915808</ele>
        <time>2015-07-06T08:27:34.890Z</time>
      </trkpt>
      <trkpt lat="44.44632" lon="2.46842">
        <ele>384.9400064</ele>
        <time>2015-07-06T08:27:38.770Z</time>
      </trkpt>
      <trkpt lat="44.4464" lon="2.4685">
        <ele>383</ele>
        <time>2015-07-06T08:27:41.870Z</time>
      </trkpt>
      <trkpt lat="44.4465" lon="2.4686">
        <ele>379.81189009708</ele>
        <time>2015-07-06T08:27:44.900Z</time>
      </trkpt>
      <trkpt lat="44.44658" lon="2.46868">
        <ele>377.9400064</ele>
        <time>2015-07-06T08:27:47.770Z</time>
      </trkpt>
      <trkpt lat="44.44669" lon="2.46878">
        <ele>374.9800064</ele>
        <time>2015-07-06T08:27:51.720Z</time>
      </trkpt>
      <trkpt lat="44.44679" lon="2.46882">
        <ele>372</ele>
        <time>2015-07-06T08:27:54.970Z</time>
      </trkpt>
      <trkpt lat="44.44691" lon="2.46887">
        <ele>369.84</ele>
        <time>2015-07-06T08:27:58.870Z</time>
      </trkpt>
      <trkpt lat="44.44697" lon="2.46875">
        <ele>362</ele>
        <time>2015-07-06T08:28:06.870Z</time>
      </trkpt>
      <trkpt lat="44.44697" lon="2.46857">
        <ele>359</ele>
        <time>2015-07-06T08:28:11.970Z</time>
      </trkpt>
      <trkpt lat="44.44698" lon="2.46843">
        <ele>356.9900032</ele>
        <time>2015-07-06T08:28:15.720Z</time>
      </trkpt>
      <trkpt lat="44.4471" lon="2.46848">
        <ele>350.7400064</ele>
        <time>2015-07-06T08:28:22.970Z</time>
      </trkpt>
      <trkpt lat="44.44721" lon="2.46855">
        <ele>347.7400064</ele>
        <time>2015-07-06T08:28:26.970Z</time>
      </trkpt>
      <trkpt lat="44.44735" lon="2.46856">
        <ele>346</ele>
        <time>2015-07-06T08:28:29.770Z</time>
      </trkpt>
      <trkpt lat="44.44747" lon="2.46859">
        <ele>343.9900032</ele>
        <time>2015-07-06T08:28:32.720Z</time>
      </trkpt>
      <trkpt lat="44.44757" lon="2.46867">
        <ele>341</ele>
        <time>2015-07-06T08:28:36.770Z</time>
      </trkpt>
      <trkpt lat="44.44768" lon="2.46876">
        <ele>338.9900032</ele>
        <time>2015-07-06T08:28:40.720Z</time>
      </trkpt>
      <trkpt lat="44.44778" lon="2.46885">
        <ele>335.9400064</ele>
        <time>2015-07-06T08:28:44.770Z</time>
      </trkpt>
      <trkpt lat="44.44788" lon="2.46893">
        <ele>332.9900032</ele>
        <time>2015-07-06T08:28:49.720Z</time>
      </trkpt>
      <trkpt lat="44.44799" lon="2.46901">
        <ele>330.8800128</ele>
        <time>2015-07-06T08:28:53.770Z</time>
      </trkpt>
      <trkpt lat="44.44809" lon="2.46909">
        <ele>328.84</ele>
        <time>2015-07-06T08:28:56.870Z</time>
      </trkpt>
      <trkpt lat="44.44818" lon="2.46918">
        <ele>325</ele>
        <time>2015-07-06T08:28:59.770Z</time>
      </trkpt>
      <trkpt lat="44.44827" lon="2.46929">
        <ele>324</ele>
        <time>2015-07-06T08:29:03.870Z</time>
      </trkpt>
      <trkpt lat="44.44837" lon="2.46927">
        <ele>323</ele>
        <time>2015-07-06T08:29:12.770Z</time>
      </trkpt>
      <trkpt lat="44.44848" lon="2.46923">
        <ele>323</ele>
        <time>2015-07-06T08:29:17.870Z</time>
      </trkpt>
      <trkpt lat="44.4486" lon="2.46931">
        <ele>322</ele>
        <time>2015-07-06T08:29:21.870Z</time>
      </trkpt>
      <trkpt lat="44.44873" lon="2.46939">
        <ele>322</ele>
        <time>2015-07-06T08:29:24.870Z</time>
      </trkpt>
      <trkpt lat="44.44881" lon="2.46953">
        <ele>322</ele>
        <time>2015-07-06T08:29:28.970Z</time>
      </trkpt>
      <trkpt lat="44.44888" lon="2.46968">
        <ele>320</ele>
        <time>2015-07-06T08:29:32.770Z</time>
      </trkpt>
      <trkpt lat="44.44894" lon="2.46983">
        <ele>320</ele>
        <time>2015-07-06T08:29:36.970Z</time>
      </trkpt>
      <trkpt lat="44.44901" lon="2.46994">
        <ele>320</ele>
        <time>2015-07-06T08:29:39.870Z</time>
      </trkpt>
      <trkpt lat="44.44909" lon="2.47006">
        <ele>318</ele>
        <time>2015-07-06T08:29:42.770Z</time>
      </trkpt>
      <trkpt lat="44.44919" lon="2.47012">
        <ele>318</ele>
        <time>2015-07-06T08:29:45.770Z</time>
      </trkpt>
      <trkpt lat="44.4493" lon="2.47019">
        <ele>318</ele>
        <time>2015-07-06T08:29:49.870Z</time>
      </trkpt>
      <trkpt lat="44.44941" lon="2.47024">
        <ele>317</ele>
        <time>2015-07-06T08:29:53.870Z</time>
      </trkpt>
      <trkpt lat="44.44952" lon="2.4703">
        <ele>317</ele>
        <time>2015-07-06T08:29:58.970Z</time>
      </trkpt>
      <trkpt lat="44.44961" lon="2.47039">
        <ele>316</ele>
        <time>2015-07-06T08:30:01.870Z</time>
      </trkpt>
      <trkpt lat="44.44971" lon="2.4705">
        <ele>316</ele>
        <time>2015-07-06T08:30:04.770Z</time>
      </trkpt>
      <trkpt lat="44.44979" lon="2.47057">
        <ele>316</ele>
        <time>2015-07-06T08:30:08.970Z</time>
      </trkpt>
      <trkpt lat="44.44991" lon="2.47058">
        <ele>316</ele>
        <time>2015-07-06T08:30:11.870Z</time>
      </trkpt>
      <trkpt lat="44.45002" lon="2.47066">
        <ele>316</ele>
        <time>2015-07-06T08:30:14.870Z</time>
      </trkpt>
      <trkpt lat="44.45011" lon="2.47076">
        <ele>316</ele>
        <time>2015-07-06T08:30:17.870Z</time>
      </trkpt>
      <trkpt lat="44.45019" lon="2.47087">
        <ele>316</ele>
        <time>2015-07-06T08:30:20.870Z</time>
      </trkpt>
      <trkpt lat="44.45026" lon="2.47099">
        <ele>316</ele>
        <time>2015-07-06T08:30:23.870Z</time>
      </trkpt>
      <trkpt lat="44.45035" lon="2.47112">
        <ele>316</ele>
        <time>2015-07-06T08:30:27.870Z</time>
      </trkpt>
      <trkpt lat="44.45045" lon="2.47124">
        <ele>316</ele>
        <time>2015-07-06T08:30:31.970Z</time>
      </trkpt>
      <trkpt lat="44.45053" lon="2.47137">
        <ele>316</ele>
        <time>2015-07-06T08:30:35.870Z</time>
      </trkpt>
      <trkpt lat="44.45063" lon="2.4715">
        <ele>316</ele>
        <time>2015-07-06T08:30:39.800Z</time>
      </trkpt>
      <trkpt lat="44.45074" lon="2.47158">
        <ele>314</ele>
        <time>2015-07-06T08:30:42.870Z</time>
      </trkpt>
      <trkpt lat="44.45079" lon="2.4717">
        <ele>313.68</ele>
        <time>2015-07-06T08:30:45.870Z</time>
      </trkpt>
      <trkpt lat="44.45088" lon="2.47189">
        <ele>311.7400064</ele>
        <time>2015-07-06T08:30:50.970Z</time>
      </trkpt>
      <trkpt lat="44.451" lon="2.47188">
        <ele>311</ele>
        <time>2015-07-06T08:30:52.870Z</time>
      </trkpt>
      <trkpt lat="44.45109" lon="2.47199">
        <ele>311</ele>
        <time>2015-07-06T08:30:56.720Z</time>
      </trkpt>
      <trkpt lat="44.45119" lon="2.47209">
        <ele>310.9400064</ele>
        <time>2015-07-06T08:31:00.770Z</time>
      </trkpt>
      <trkpt lat="44.4513" lon="2.47203">
        <ele>310</ele>
        <time>2015-07-06T08:31:05.870Z</time>
      </trkpt>
      <trkpt lat="44.45138" lon="2.47193">
        <ele>310</ele>
        <time>2015-07-06T08:31:08.770Z</time>
      </trkpt>
      <trkpt lat="44.45146" lon="2.47184">
        <ele>310</ele>
        <time>2015-07-06T08:31:11.770Z</time>
      </trkpt>
      <trkpt lat="44.45154" lon="2.47176">
        <ele>310</ele>
        <time>2015-07-06T08:31:15.770Z</time>
      </trkpt>
      <trkpt lat="44.4516" lon="2.47163">
        <ele>310</ele>
        <time>2015-07-06T08:31:31.770Z</time>
      </trkpt>
      <trkpt lat="44.45169" lon="2.47155">
        <ele>310</ele>
        <time>2015-07-06T08:31:39.720Z</time>
      </trkpt>
      <trkpt lat="44.45178" lon="2.47156">
        <ele>309</ele>
        <time>2015-07-06T08:31:43.870Z</time>
      </trkpt>
      <trkpt lat="44.4519" lon="2.47155">
        <ele>309</ele>
        <time>2015-07-06T08:31:47.870Z</time>
      </trkpt>
      <trkpt lat="44.45201" lon="2.47155">
        <ele>309</ele>
        <time>2015-07-06T08:31:52.870Z</time>
      </trkpt>
      <trkpt lat="44.45211" lon="2.47151">
        <ele>309</ele>
        <time>2015-07-06T08:31:55.870Z</time>
      </trkpt>
      <trkpt lat="44.45222" lon="2.47147">
        <ele>309</ele>
        <time>2015-07-06T08:31:58.870Z</time>
      </trkpt>
      <trkpt lat="44.45234" lon="2.47144">
        <ele>308</ele>
        <time>2015-07-06T08:32:02.870Z</time>
      </trkpt>
      <trkpt lat="44.45246" lon="2.47147">
        <ele>308</ele>
        <time>2015-07-06T08:32:06.870Z</time>
      </trkpt>
      <trkpt lat="44.45257" lon="2.47143">
        <ele>308</ele>
        <time>2015-07-06T08:32:10.870Z</time>
      </trkpt>
      <trkpt lat="44.45269" lon="2.47139">
        <ele>308</ele>
        <time>2015-07-06T08:32:14.870Z</time>
      </trkpt>
      <trkpt lat="44.4528" lon="2.47131">
        <ele>308</ele>
        <time>2015-07-06T08:32:19.870Z</time>
      </trkpt>
      <trkpt lat="44.45291" lon="2.47123">
        <ele>310</ele>
        <time>2015-07-06T08:32:23.870Z</time>
      </trkpt>
      <trkpt lat="44.45301" lon="2.47117">
        <ele>310</ele>
        <time>2015-07-06T08:32:26.870Z</time>
      </trkpt>
      <trkpt lat="44.45312" lon="2.47109">
        <ele>310</ele>
        <time>2015-07-06T08:32:29.770Z</time>
      </trkpt>
      <trkpt lat="44.45326" lon="2.47109">
        <ele>308</ele>
        <time>2015-07-06T08:32:33.970Z</time>
      </trkpt>
      <trkpt lat="44.45337" lon="2.47107">
        <ele>308</ele>
        <time>2015-07-06T08:32:36.970Z</time>
      </trkpt>
      <trkpt lat="44.45347" lon="2.47104">
        <ele>307.9400064</ele>
        <time>2015-07-06T08:32:40.770Z</time>
      </trkpt>
      <trkpt lat="44.45356" lon="2.47099">
        <ele>307</ele>
        <time>2015-07-06T08:32:44.870Z</time>
      </trkpt>
      <trkpt lat="44.45366" lon="2.47093">
        <ele>307</ele>
        <time>2015-07-06T08:32:47.870Z</time>
      </trkpt>
      <trkpt lat="44.45378" lon="2.47084">
        <ele>306.84</ele>
        <time>2015-07-06T08:32:50.870Z</time>
      </trkpt>
      <trkpt lat="44.45387" lon="2.47073">
        <ele>306</ele>
        <time>2015-07-06T08:32:53.870Z</time>
      </trkpt>
      <trkpt lat="44.45399" lon="2.47062">
        <ele>306</ele>
        <time>2015-07-06T08:32:57.720Z</time>
      </trkpt>
      <trkpt lat="44.45409" lon="2.47056">
        <ele>306</ele>
        <time>2015-07-06T08:33:00.770Z</time>
      </trkpt>
      <trkpt lat="44.45422" lon="2.47052">
        <ele>306</ele>
        <time>2015-07-06T08:33:04.770Z</time>
      </trkpt>
      <trkpt lat="44.45433" lon="2.47048">
        <ele>306</ele>
        <time>2015-07-06T08:33:08.770Z</time>
      </trkpt>
      <trkpt lat="44.45444" lon="2.47042">
        <ele>305</ele>
        <time>2015-07-06T08:33:12.770Z</time>
      </trkpt>
      <trkpt lat="44.45452" lon="2.47031">
        <ele>305</ele>
        <time>2015-07-06T08:33:15.770Z</time>
      </trkpt>
      <trkpt lat="44.45461" lon="2.47017">
        <ele>305</ele>
        <time>2015-07-06T08:33:19.720Z</time>
      </trkpt>
      <trkpt lat="44.45466" lon="2.47004">
        <ele>306</ele>
        <time>2015-07-06T08:33:22.770Z</time>
      </trkpt>
      <trkpt lat="44.45472" lon="2.46992">
        <ele>306</ele>
        <time>2015-07-06T08:33:25.770Z</time>
      </trkpt>
      <trkpt lat="44.45479" lon="2.46982">
        <ele>306</ele>
        <time>2015-07-06T08:33:28.770Z</time>
      </trkpt>
      <trkpt lat="44.45489" lon="2.46973">
        <ele>306</ele>
        <time>2015-07-06T08:33:31.770Z</time>
      </trkpt>
      <trkpt lat="44.45499" lon="2.46963">
        <ele>306</ele>
        <time>2015-07-06T08:33:35.970Z</time>
      </trkpt>
      <trkpt lat="44.45509" lon="2.4695">
        <ele>306</ele>
        <time>2015-07-06T08:33:38.870Z</time>
      </trkpt>
      <trkpt lat="44.45516" lon="2.46939">
        <ele>306</ele>
        <time>2015-07-06T08:33:41.720Z</time>
      </trkpt>
      <trkpt lat="44.45522" lon="2.46926">
        <ele>306</ele>
        <time>2015-07-06T08:33:45.970Z</time>
      </trkpt>
      <trkpt lat="44.45532" lon="2.46916">
        <ele>306</ele>
        <time>2015-07-06T08:33:49.770Z</time>
      </trkpt>
      <trkpt lat="44.45543" lon="2.46909">
        <ele>307</ele>
        <time>2015-07-06T08:33:53.720Z</time>
      </trkpt>
      <trkpt lat="44.45554" lon="2.46908">
        <ele>307</ele>
        <time>2015-07-06T08:33:56.770Z</time>
      </trkpt>
      <trkpt lat="44.45566" lon="2.46908">
        <ele>306.4800128</ele>
        <time>2015-07-06T08:34:00.970Z</time>
      </trkpt>
      <trkpt lat="44.45576" lon="2.4691">
        <ele>305</ele>
        <time>2015-07-06T08:34:03.970Z</time>
      </trkpt>
      <trkpt lat="44.45586" lon="2.46916">
        <ele>305</ele>
        <time>2015-07-06T08:34:06.870Z</time>
      </trkpt>
      <trkpt lat="44.45599" lon="2.46919">
        <ele>305</ele>
        <time>2015-07-06T08:34:10.810Z</time>
      </trkpt>
      <trkpt lat="44.4561" lon="2.46914">
        <ele>305</ele>
        <time>2015-07-06T08:34:14.870Z</time>
      </trkpt>
      <trkpt lat="44.45619" lon="2.46907">
        <ele>305</ele>
        <time>2015-07-06T08:34:17.870Z</time>
      </trkpt>
      <trkpt lat="44.45629" lon="2.46905">
        <ele>304.84</ele>
        <time>2015-07-06T08:34:20.870Z</time>
      </trkpt>
      <trkpt lat="44.45642" lon="2.46902">
        <ele>304</ele>
        <time>2015-07-06T08:34:24.870Z</time>
      </trkpt>
      <trkpt lat="44.45652" lon="2.46899">
        <ele>304</ele>
        <time>2015-07-06T08:34:27.870Z</time>
      </trkpt>
      <trkpt lat="44.45662" lon="2.46895">
        <ele>303.9900032</ele>
        <time>2015-07-06T08:34:30.720Z</time>
      </trkpt>
      <trkpt lat="44.45674" lon="2.4689">
        <ele>303</ele>
        <time>2015-07-06T08:34:33.970Z</time>
      </trkpt>
      <trkpt lat="44.45685" lon="2.46886">
        <ele>303</ele>
        <time>2015-07-06T08:34:36.970Z</time>
      </trkpt>
      <trkpt lat="44.45696" lon="2.46885">
        <ele>303</ele>
        <time>2015-07-06T08:34:40.970Z</time>
      </trkpt>
      <trkpt lat="44.45706" lon="2.46878">
        <ele>303</ele>
        <time>2015-07-06T08:34:44.770Z</time>
      </trkpt>
      <trkpt lat="44.45717" lon="2.46874">
        <ele>303</ele>
        <time>2015-07-06T08:34:48.970Z</time>
      </trkpt>
      <trkpt lat="44.45728" lon="2.46873">
        <ele>303</ele>
        <time>2015-07-06T08:34:52.970Z</time>
      </trkpt>
      <trkpt lat="44.45744" lon="2.46866">
        <ele>303</ele>
        <time>2015-07-06T08:34:57.770Z</time>
      </trkpt>
      <trkpt lat="44.45755" lon="2.46866">
        <ele>302.84</ele>
        <time>2015-07-06T08:35:00.870Z</time>
      </trkpt>
      <trkpt lat="44.45767" lon="2.46867">
        <ele>302</ele>
        <time>2015-07-06T08:35:04.870Z</time>
      </trkpt>
      <trkpt lat="44.45777" lon="2.46871">
        <ele>302</ele>
        <time>2015-07-06T08:35:07.870Z</time>
      </trkpt>
      <trkpt lat="44.45789" lon="2.46871">
        <ele>302</ele>
        <time>2015-07-06T08:35:11.810Z</time>
      </trkpt>
      <trkpt lat="44.458" lon="2.46863">
        <ele>302</ele>
        <time>2015-07-06T08:35:14.870Z</time>
      </trkpt>
      <trkpt lat="44.45811" lon="2.46858">
        <ele>302</ele>
        <time>2015-07-06T08:35:17.870Z</time>
      </trkpt>
      <trkpt lat="44.45824" lon="2.46854">
        <ele>301.9900032</ele>
        <time>2015-07-06T08:35:20.720Z</time>
      </trkpt>
      <trkpt lat="44.45834" lon="2.4685">
        <ele>301</ele>
        <time>2015-07-06T08:35:23.770Z</time>
      </trkpt>
      <trkpt lat="44.45844" lon="2.46845">
        <ele>301</ele>
        <time>2015-07-06T08:35:27.770Z</time>
      </trkpt>
      <trkpt lat="44.45849" lon="2.46833">
        <ele>300</ele>
        <time>2015-07-06T08:35:31.770Z</time>
      </trkpt>
      <trkpt lat="44.45854" lon="2.4682">
        <ele>300</ele>
        <time>2015-07-06T08:35:35.770Z</time>
      </trkpt>
      <trkpt lat="44.45863" lon="2.46808">
        <ele>300</ele>
        <time>2015-07-06T08:35:39.770Z</time>
      </trkpt>
      <trkpt lat="44.45873" lon="2.46798">
        <ele>301</ele>
        <time>2015-07-06T08:35:43.770Z</time>
      </trkpt>
      <trkpt lat="44.45884" lon="2.46788">
        <ele>301</ele>
        <time>2015-07-06T08:35:47.770Z</time>
      </trkpt>
      <trkpt lat="44.45892" lon="2.46777">
        <ele>301</ele>
        <time>2015-07-06T08:35:51.770Z</time>
      </trkpt>
      <trkpt lat="44.45903" lon="2.46767">
        <ele>301</ele>
        <time>2015-07-06T08:35:55.770Z</time>
      </trkpt>
      <trkpt lat="44.45917" lon="2.46756">
        <ele>301</ele>
        <time>2015-07-06T08:36:00.770Z</time>
      </trkpt>
      <trkpt lat="44.45927" lon="2.4675">
        <ele>301</ele>
        <time>2015-07-06T08:36:03.720Z</time>
      </trkpt>
      <trkpt lat="44.45936" lon="2.46743">
        <ele>301</ele>
        <time>2015-07-06T08:36:07.770Z</time>
      </trkpt>
      <trkpt lat="44.45946" lon="2.46736">
        <ele>303</ele>
        <time>2015-07-06T08:36:11.770Z</time>
      </trkpt>
      <trkpt lat="44.4596" lon="2.46734">
        <ele>303</ele>
        <time>2015-07-06T08:36:15.870Z</time>
      </trkpt>
      <trkpt lat="44.45971" lon="2.46737">
        <ele>303</ele>
        <time>2015-07-06T08:36:18.770Z</time>
      </trkpt>
      <trkpt lat="44.45981" lon="2.46742">
        <ele>303</ele>
        <time>2015-07-06T08:36:21.870Z</time>
      </trkpt>
      <trkpt lat="44.45989" lon="2.46755">
        <ele>303</ele>
        <time>2015-07-06T08:36:26.720Z</time>
      </trkpt>
      <trkpt lat="44.46" lon="2.46756">
        <ele>303</ele>
        <time>2015-07-06T08:36:29.790Z</time>
      </trkpt>
      <trkpt lat="44.46013" lon="2.46758">
        <ele>303</ele>
        <time>2015-07-06T08:36:33.800Z</time>
      </trkpt>
      <trkpt lat="44.46032" lon="2.46757">
        <ele>303</ele>
        <time>2015-07-06T08:36:38.770Z</time>
      </trkpt>
      <trkpt lat="44.46045" lon="2.46754">
        <ele>302</ele>
        <time>2015-07-06T08:36:41.870Z</time>
      </trkpt>
      <trkpt lat="44.46056" lon="2.46748">
        <ele>302</ele>
        <time>2015-07-06T08:36:44.770Z</time>
      </trkpt>
      <trkpt lat="44.46069" lon="2.46745">
        <ele>302</ele>
        <time>2015-07-06T08:36:47.720Z</time>
      </trkpt>
      <trkpt lat="44.4608" lon="2.46746">
        <ele>302</ele>
        <time>2015-07-06T08:36:51.870Z</time>
      </trkpt>
      <trkpt lat="44.46093" lon="2.46741">
        <ele>302</ele>
        <time>2015-07-06T08:36:56.800Z</time>
      </trkpt>
      <trkpt lat="44.46104" lon="2.46734">
        <ele>301.84</ele>
        <time>2015-07-06T08:37:00.870Z</time>
      </trkpt>
      <trkpt lat="44.46115" lon="2.4673">
        <ele>301</ele>
        <time>2015-07-06T08:37:03.870Z</time>
      </trkpt>
      <trkpt lat="44.46125" lon="2.46728">
        <ele>301</ele>
        <time>2015-07-06T08:37:06.870Z</time>
      </trkpt>
      <trkpt lat="44.46136" lon="2.46724">
        <ele>300.9000064</ele>
        <time>2015-07-06T08:37:10.810Z</time>
      </trkpt>
      <trkpt lat="44.46148" lon="2.46719">
        <ele>300</ele>
        <time>2015-07-06T08:37:13.870Z</time>
      </trkpt>
      <trkpt lat="44.46158" lon="2.46712">
        <ele>300</ele>
        <time>2015-07-06T08:37:16.870Z</time>
      </trkpt>
      <trkpt lat="44.46168" lon="2.46709">
        <ele>300</ele>
        <time>2015-07-06T08:37:19.870Z</time>
      </trkpt>
      <trkpt lat="44.4618" lon="2.46705">
        <ele>301</ele>
        <time>2015-07-06T08:37:23.970Z</time>
      </trkpt>
      <trkpt lat="44.46191" lon="2.46703">
        <ele>301</ele>
        <time>2015-07-06T08:37:26.870Z</time>
      </trkpt>
      <trkpt lat="44.46202" lon="2.46701">
        <ele>301</ele>
        <time>2015-07-06T08:37:29.870Z</time>
      </trkpt>
      <trkpt lat="44.46212" lon="2.46698">
        <ele>299</ele>
        <time>2015-07-06T08:37:32.870Z</time>
      </trkpt>
      <trkpt lat="44.46224" lon="2.46694">
        <ele>299</ele>
        <time>2015-07-06T08:37:36.870Z</time>
      </trkpt>
      <trkpt lat="44.46236" lon="2.46693">
        <ele>298</ele>
        <time>2015-07-06T08:37:41.870Z</time>
      </trkpt>
      <trkpt lat="44.46254" lon="2.46691">
        <ele>298</ele>
        <time>2015-07-06T08:37:46.970Z</time>
      </trkpt>
      <trkpt lat="44.46265" lon="2.46689">
        <ele>298</ele>
        <time>2015-07-06T08:37:49.870Z</time>
      </trkpt>
      <trkpt lat="44.46276" lon="2.46687">
        <ele>298</ele>
        <time>2015-07-06T08:37:52.870Z</time>
      </trkpt>
      <trkpt lat="44.46287" lon="2.46685">
        <ele>298</ele>
        <time>2015-07-06T08:37:56.880Z</time>
      </trkpt>
      <trkpt lat="44.46297" lon="2.46679">
        <ele>298.64</ele>
        <time>2015-07-06T08:38:00.870Z</time>
      </trkpt>
      <trkpt lat="44.46309" lon="2.46676">
        <ele>302</ele>
        <time>2015-07-06T08:38:04.870Z</time>
      </trkpt>
      <trkpt lat="44.4632" lon="2.46671">
        <ele>302</ele>
        <time>2015-07-06T08:38:08.870Z</time>
      </trkpt>
      <trkpt lat="44.46331" lon="2.4667">
        <ele>301</ele>
        <time>2015-07-06T08:38:12.870Z</time>
      </trkpt>
      <trkpt lat="44.46342" lon="2.46677">
        <ele>301</ele>
        <time>2015-07-06T08:38:16.880Z</time>
      </trkpt>
      <trkpt lat="44.46353" lon="2.46687">
        <ele>300.7400064</ele>
        <time>2015-07-06T08:38:20.970Z</time>
      </trkpt>
      <trkpt lat="44.46362" lon="2.46695">
        <ele>300</ele>
        <time>2015-07-06T08:38:23.970Z</time>
      </trkpt>
      <trkpt lat="44.46373" lon="2.46703">
        <ele>300</ele>
        <time>2015-07-06T08:38:27.970Z</time>
      </trkpt>
      <trkpt lat="44.46384" lon="2.46712">
        <ele>300</ele>
        <time>2015-07-06T08:38:31.970Z</time>
      </trkpt>
      <trkpt lat="44.46398" lon="2.46709">
        <ele>300</ele>
        <time>2015-07-06T08:38:36.800Z</time>
      </trkpt>
      <trkpt lat="44.46411" lon="2.46705">
        <ele>300</ele>
        <time>2015-07-06T08:38:39.870Z</time>
      </trkpt>
      <trkpt lat="44.46422" lon="2.46701">
        <ele>297</ele>
        <time>2015-07-06T08:38:42.870Z</time>
      </trkpt>
      <trkpt lat="44.46434" lon="2.46699">
        <ele>298</ele>
        <time>2015-07-06T08:38:46.970Z</time>
      </trkpt>
      <trkpt lat="44.46445" lon="2.46698">
        <ele>298</ele>
        <time>2015-07-06T08:38:49.880Z</time>
      </trkpt>
      <trkpt lat="44.46457" lon="2.46697">
        <ele>298</ele>
        <time>2015-07-06T08:38:52.720Z</time>
      </trkpt>
      <trkpt lat="44.46467" lon="2.46696">
        <ele>298</ele>
        <time>2015-07-06T08:38:55.870Z</time>
      </trkpt>
      <trkpt lat="44.46479" lon="2.4669">
        <ele>298</ele>
        <time>2015-07-06T08:38:58.870Z</time>
      </trkpt>
      <trkpt lat="44.46498" lon="2.46685">
        <ele>298</ele>
        <time>2015-07-06T08:39:03.970Z</time>
      </trkpt>
      <trkpt lat="44.46508" lon="2.46687">
        <ele>298</ele>
        <time>2015-07-06T08:39:06.870Z</time>
      </trkpt>
      <trkpt lat="44.46522" lon="2.46688">
        <ele>297</ele>
        <time>2015-07-06T08:39:11.970Z</time>
      </trkpt>
      <trkpt lat="44.46531" lon="2.46697">
        <ele>297</ele>
        <time>2015-07-06T08:39:15.870Z</time>
      </trkpt>
      <trkpt lat="44.46543" lon="2.467">
        <ele>297</ele>
        <time>2015-07-06T08:39:20.870Z</time>
      </trkpt>
      <trkpt lat="44.46554" lon="2.46705">
        <ele>297</ele>
        <time>2015-07-06T08:39:24.870Z</time>
      </trkpt>
      <trkpt lat="44.46566" lon="2.46702">
        <ele>297</ele>
        <time>2015-07-06T08:39:28.800Z</time>
      </trkpt>
      <trkpt lat="44.46577" lon="2.46701">
        <ele>298</ele>
        <time>2015-07-06T08:39:31.870Z</time>
      </trkpt>
      <trkpt lat="44.4659" lon="2.467">
        <ele>298</ele>
        <time>2015-07-06T08:39:35.870Z</time>
      </trkpt>
      <trkpt lat="44.466" lon="2.46701">
        <ele>298</ele>
        <time>2015-07-06T08:39:38.870Z</time>
      </trkpt>
      <trkpt lat="44.4661" lon="2.467">
        <ele>297</ele>
        <time>2015-07-06T08:39:41.870Z</time>
      </trkpt>
      <trkpt lat="44.46621" lon="2.46698">
        <ele>297</ele>
        <time>2015-07-06T08:39:44.870Z</time>
      </trkpt>
      <trkpt lat="44.46633" lon="2.46691">
        <ele>297</ele>
        <time>2015-07-06T08:39:48.870Z</time>
      </trkpt>
      <trkpt lat="44.46643" lon="2.46685">
        <ele>297</ele>
        <time>2015-07-06T08:39:51.870Z</time>
      </trkpt>
      <trkpt lat="44.46654" lon="2.46679">
        <ele>297</ele>
        <time>2015-07-06T08:39:54.870Z</time>
      </trkpt>
      <trkpt lat="44.46665" lon="2.46673">
        <ele>297</ele>
        <time>2015-07-06T08:39:57.870Z</time>
      </trkpt>
      <trkpt lat="44.46677" lon="2.46664">
        <ele>297</ele>
        <time>2015-07-06T08:40:01.800Z</time>
      </trkpt>
      <trkpt lat="44.46687" lon="2.46655">
        <ele>297</ele>
        <time>2015-07-06T08:40:04.870Z</time>
      </trkpt>
      <trkpt lat="44.46702" lon="2.46639">
        <ele>297</ele>
        <time>2015-07-06T08:40:11.970Z</time>
      </trkpt>
      <trkpt lat="44.46712" lon="2.4663">
        <ele>297</ele>
        <time>2015-07-06T08:40:14.870Z</time>
      </trkpt>
      <trkpt lat="44.46721" lon="2.46621">
        <ele>297</ele>
        <time>2015-07-06T08:40:18.800Z</time>
      </trkpt>
      <trkpt lat="44.46731" lon="2.46616">
        <ele>297</ele>
        <time>2015-07-06T08:40:21.870Z</time>
      </trkpt>
      <trkpt lat="44.46739" lon="2.46609">
        <ele>297</ele>
        <time>2015-07-06T08:40:24.870Z</time>
      </trkpt>
      <trkpt lat="44.46748" lon="2.46602">
        <ele>297</ele>
        <time>2015-07-06T08:40:27.870Z</time>
      </trkpt>
      <trkpt lat="44.46758" lon="2.46593">
        <ele>297</ele>
        <time>2015-07-06T08:40:30.810Z</time>
      </trkpt>
      <trkpt lat="44.46766" lon="2.46585">
        <ele>297</ele>
        <time>2015-07-06T08:40:33.870Z</time>
      </trkpt>
      <trkpt lat="44.46776" lon="2.4658">
        <ele>297</ele>
        <time>2015-07-06T08:40:37.870Z</time>
      </trkpt>
      <trkpt lat="44.46786" lon="2.46574">
        <ele>297</ele>
        <time>2015-07-06T08:40:40.870Z</time>
      </trkpt>
      <trkpt lat="44.46796" lon="2.46568">
        <ele>297</ele>
        <time>2015-07-06T08:40:43.870Z</time>
      </trkpt>
      <trkpt lat="44.46806" lon="2.46563">
        <ele>297</ele>
        <time>2015-07-06T08:40:46.870Z</time>
      </trkpt>
      <trkpt lat="44.46816" lon="2.46556">
        <ele>297</ele>
        <time>2015-07-06T08:40:49.870Z</time>
      </trkpt>
      <trkpt lat="44.46824" lon="2.46546">
        <ele>296</ele>
        <time>2015-07-06T08:40:52.870Z</time>
      </trkpt>
      <trkpt lat="44.46833" lon="2.46538">
        <ele>296</ele>
        <time>2015-07-06T08:40:56.870Z</time>
      </trkpt>
      <trkpt lat="44.46842" lon="2.46531">
        <ele>296</ele>
        <time>2015-07-06T08:40:59.870Z</time>
      </trkpt>
      <trkpt lat="44.46855" lon="2.46524">
        <ele>294</ele>
        <time>2015-07-06T08:41:02.870Z</time>
      </trkpt>
      <trkpt lat="44.46868" lon="2.46519">
        <ele>294</ele>
        <time>2015-07-06T08:41:05.870Z</time>
      </trkpt>
      <trkpt lat="44.46878" lon="2.46518">
        <ele>294</ele>
        <time>2015-07-06T08:41:08.870Z</time>
      </trkpt>
      <trkpt lat="44.4689" lon="2.46516">
        <ele>294</ele>
        <time>2015-07-06T08:41:12.720Z</time>
      </trkpt>
      <trkpt lat="44.46899" lon="2.4651">
        <ele>294</ele>
        <time>2015-07-06T08:41:15.970Z</time>
      </trkpt>
      <trkpt lat="44.46908" lon="2.46503">
        <ele>294</ele>
        <time>2015-07-06T08:41:18.970Z</time>
      </trkpt>
      <trkpt lat="44.46917" lon="2.46495">
        <ele>294</ele>
        <time>2015-07-06T08:41:21.970Z</time>
      </trkpt>
      <trkpt lat="44.46927" lon="2.46487">
        <ele>294</ele>
        <time>2015-07-06T08:41:24.970Z</time>
      </trkpt>
      <trkpt lat="44.46938" lon="2.46478">
        <ele>294</ele>
        <time>2015-07-06T08:41:28.970Z</time>
      </trkpt>
      <trkpt lat="44.46949" lon="2.46472">
        <ele>293</ele>
        <time>2015-07-06T08:41:32.970Z</time>
      </trkpt>
      <trkpt lat="44.46958" lon="2.46465">
        <ele>293</ele>
        <time>2015-07-06T08:41:35.970Z</time>
      </trkpt>
      <trkpt lat="44.46969" lon="2.46459">
        <ele>293</ele>
        <time>2015-07-06T08:41:38.970Z</time>
      </trkpt>
      <trkpt lat="44.46981" lon="2.46454">
        <ele>291</ele>
        <time>2015-07-06T08:41:41.970Z</time>
      </trkpt>
      <trkpt lat="44.46992" lon="2.46449">
        <ele>291</ele>
        <time>2015-07-06T08:41:45.970Z</time>
      </trkpt>
      <trkpt lat="44.47002" lon="2.46446">
        <ele>291</ele>
        <time>2015-07-06T08:41:49.970Z</time>
      </trkpt>
      <trkpt lat="44.47015" lon="2.46446">
        <ele>292</ele>
        <time>2015-07-06T08:41:53.970Z</time>
      </trkpt>
      <trkpt lat="44.47027" lon="2.46443">
        <ele>292</ele>
        <time>2015-07-06T08:41:57.970Z</time>
      </trkpt>
      <trkpt lat="44.47037" lon="2.46441">
        <ele>292</ele>
        <time>2015-07-06T08:42:00.870Z</time>
      </trkpt>
      <trkpt lat="44.4705" lon="2.46438">
        <ele>292</ele>
        <time>2015-07-06T08:42:04.740Z</time>
      </trkpt>
      <trkpt lat="44.47061" lon="2.46432">
        <ele>292</ele>
        <time>2015-07-06T08:42:07.870Z</time>
      </trkpt>
      <trkpt lat="44.47078" lon="2.46428">
        <ele>294</ele>
        <time>2015-07-06T08:42:12.970Z</time>
      </trkpt>
      <trkpt lat="44.47089" lon="2.46424">
        <ele>294</ele>
        <time>2015-07-06T08:42:15.870Z</time>
      </trkpt>
      <trkpt lat="44.47099" lon="2.4642">
        <ele>294</ele>
        <time>2015-07-06T08:42:18.770Z</time>
      </trkpt>
      <trkpt lat="44.4711" lon="2.46415">
        <ele>294</ele>
        <time>2015-07-06T08:42:21.970Z</time>
      </trkpt>
      <trkpt lat="44.47121" lon="2.46408">
        <ele>294</ele>
        <time>2015-07-06T08:42:24.870Z</time>
      </trkpt>
      <trkpt lat="44.4713" lon="2.46402">
        <ele>294</ele>
        <time>2015-07-06T08:42:27.870Z</time>
      </trkpt>
      <trkpt lat="44.47142" lon="2.46396">
        <ele>293.36</ele>
        <time>2015-07-06T08:42:30.870Z</time>
      </trkpt>
      <trkpt lat="44.47155" lon="2.46395">
        <ele>290</ele>
        <time>2015-07-06T08:42:33.870Z</time>
      </trkpt>
      <trkpt lat="44.47166" lon="2.46394">
        <ele>287</ele>
        <time>2015-07-06T08:42:36.870Z</time>
      </trkpt>
      <trkpt lat="44.47176" lon="2.46395">
        <ele>287</ele>
        <time>2015-07-06T08:42:39.780Z</time>
      </trkpt>
      <trkpt lat="44.47186" lon="2.46395">
        <ele>286</ele>
        <time>2015-07-06T08:42:42.720Z</time>
      </trkpt>
      <trkpt lat="44.47197" lon="2.46401">
        <ele>286</ele>
        <time>2015-07-06T08:42:45.870Z</time>
      </trkpt>
      <trkpt lat="44.47214" lon="2.46409">
        <ele>285</ele>
        <time>2015-07-06T08:42:51.970Z</time>
      </trkpt>
      <trkpt lat="44.47224" lon="2.46415">
        <ele>285</ele>
        <time>2015-07-06T08:42:54.870Z</time>
      </trkpt>
      <trkpt lat="44.47236" lon="2.46422">
        <ele>285</ele>
        <time>2015-07-06T08:42:58.720Z</time>
      </trkpt>
      <trkpt lat="44.47245" lon="2.46433">
        <ele>284</ele>
        <time>2015-07-06T08:43:01.870Z</time>
      </trkpt>
      <trkpt lat="44.47256" lon="2.46448">
        <ele>284</ele>
        <time>2015-07-06T08:43:05.720Z</time>
      </trkpt>
      <trkpt lat="44.47258" lon="2.46467">
        <ele>284</ele>
        <time>2015-07-06T08:43:09.970Z</time>
      </trkpt>
      <trkpt lat="44.47262" lon="2.4648">
        <ele>284</ele>
        <time>2015-07-06T08:43:12.970Z</time>
      </trkpt>
      <trkpt lat="44.4727" lon="2.4649">
        <ele>284</ele>
        <time>2015-07-06T08:43:15.770Z</time>
      </trkpt>
      <trkpt lat="44.47277" lon="2.46505">
        <ele>284</ele>
        <time>2015-07-06T08:43:19.770Z</time>
      </trkpt>
      <trkpt lat="44.47281" lon="2.4652">
        <ele>284</ele>
        <time>2015-07-06T08:43:22.870Z</time>
      </trkpt>
      <trkpt lat="44.4729" lon="2.46532">
        <ele>284</ele>
        <time>2015-07-06T08:43:26.810Z</time>
      </trkpt>
      <trkpt lat="44.47297" lon="2.46541">
        <ele>284</ele>
        <time>2015-07-06T08:43:29.870Z</time>
      </trkpt>
      <trkpt lat="44.47309" lon="2.46538">
        <ele>284</ele>
        <time>2015-07-06T08:43:34.870Z</time>
      </trkpt>
      <trkpt lat="44.47321" lon="2.46536">
        <ele>284</ele>
        <time>2015-07-06T08:43:38.870Z</time>
      </trkpt>
      <trkpt lat="44.47331" lon="2.46538">
        <ele>284</ele>
        <time>2015-07-06T08:43:42.870Z</time>
      </trkpt>
      <trkpt lat="44.47343" lon="2.46539">
        <ele>284</ele>
        <time>2015-07-06T08:43:46.870Z</time>
      </trkpt>
      <trkpt lat="44.47355" lon="2.46537">
        <ele>284</ele>
        <time>2015-07-06T08:43:51.870Z</time>
      </trkpt>
      <trkpt lat="44.47366" lon="2.46531">
        <ele>284</ele>
        <time>2015-07-06T08:43:54.870Z</time>
      </trkpt>
      <trkpt lat="44.47376" lon="2.46526">
        <ele>284</ele>
        <time>2015-07-06T08:43:57.870Z</time>
      </trkpt>
      <trkpt lat="44.47385" lon="2.46517">
        <ele>283</ele>
        <time>2015-07-06T08:44:03.870Z</time>
      </trkpt>
      <trkpt lat="44.47395" lon="2.46506">
        <ele>283</ele>
        <time>2015-07-06T08:44:09.720Z</time>
      </trkpt>
      <trkpt lat="44.47403" lon="2.46493">
        <ele>284</ele>
        <time>2015-07-06T08:44:12.970Z</time>
      </trkpt>
      <trkpt lat="44.47411" lon="2.46484">
        <ele>284</ele>
        <time>2015-07-06T08:44:15.870Z</time>
      </trkpt>
      <trkpt lat="44.47418" lon="2.46473">
        <ele>284</ele>
        <time>2015-07-06T08:44:19.800Z</time>
      </trkpt>
      <trkpt lat="44.47423" lon="2.4647">
        <ele>285</ele>
        <time>2015-07-06T08:44:22.060Z</time>
      </trkpt>
    </trkseg>
  </trk>
</gpx>